Provisional Data: Kishacoquillas Creek near Belleville, PA


Please select a monitoring station.
Please select start date.
Please select start date.

Toggle Unit: C/F Toggle Unit: C/F
Sample Time Temperature (C) Temperature (F) Specific Conductivity (mS/cm) pH   Turbidity (NTU+) DO (mg/L)
4/18/2023 12:00:00 AM 11.36 52.448 0.445 7.59 3.62 8.9
4/18/2023 12:15:00 AM 11.28 52.304 0.445 7.58 4.25 8.84
4/18/2023 12:30:00 AM 11.21 52.178 0.445 7.57 4.17 8.82
4/18/2023 12:45:00 AM 11.14 52.052 0.445 7.57 3.64 8.82
4/18/2023 1:00:00 AM 11.08 51.944 0.445 7.56 4.24 8.79
4/18/2023 1:15:00 AM 11.01 51.818 0.445 7.55 3.25 8.79
4/18/2023 1:30:00 AM 10.93 51.674 0.445 7.54 3.52 8.78
4/18/2023 1:45:00 AM 10.86 51.548 0.445 7.54 4.15 8.77
4/18/2023 2:00:00 AM 10.78 51.404 0.446 7.53 3.45 8.78
4/18/2023 2:15:00 AM 10.7 51.26 0.446 7.53 3.66 8.79
4/18/2023 2:30:00 AM 10.61 51.098 0.447 7.53 3.44 8.8
4/18/2023 2:45:00 AM 10.54 50.972 0.448 7.52 2.69 8.82
4/18/2023 3:00:00 AM 10.47 50.846 0.449 7.52 3.43 8.82
4/18/2023 3:15:00 AM 10.4 50.72 0.45 7.52 3.36 8.85
4/18/2023 3:30:00 AM 10.32 50.576 0.451 7.52 2.99 8.88
4/18/2023 3:45:00 AM 10.23 50.414 0.452 7.52 10.1 8.88
4/18/2023 4:00:00 AM 10.16 50.288 0.453 7.52 2.71 8.91
4/18/2023 4:15:00 AM 10.11 50.198 0.454 7.51 3.66 8.93
4/18/2023 4:30:00 AM 10.06 50.108 0.455 7.51 4.21 8.97
4/18/2023 4:45:00 AM 10 50 0.456 7.51 3.18 8.97
4/18/2023 5:00:00 AM 9.94 49.892 0.456 7.51 2.57 9
4/18/2023 5:15:00 AM 9.88 49.784 0.456 7.5 2.75 9
4/18/2023 5:30:00 AM 9.83 49.694 0.458 7.51 3.39 9.04
4/18/2023 5:45:00 AM 9.77 49.586 0.458 7.52 3.77 9.06
4/18/2023 6:00:00 AM 9.71 49.478 0.461 7.51 4.15 9.08
4/18/2023 6:15:00 AM 9.65 49.37 0.461 7.5 3.73 9.1
4/18/2023 6:30:00 AM 9.58 49.244 0.462 7.51 2.7 9.14
4/18/2023 6:45:00 AM 9.51 49.118 0.462 7.52 2.71 9.19
4/18/2023 7:00:00 AM 9.45 49.01 0.462 7.51 3.07 9.21
4/18/2023 7:15:00 AM 9.4 48.92 0.462 7.51 2.74 9.24
4/18/2023 7:30:00 AM 9.35 48.83 0.463 7.51 2.66 9.28
4/18/2023 7:45:00 AM 9.29 48.722 0.462 7.51 2.42 9.34
4/18/2023 8:00:00 AM 9.23 48.614 0.462 7.51 2.14 9.41
4/18/2023 8:15:00 AM 9.2 48.56 0.462 7.52 2.4 9.51
4/18/2023 8:30:00 AM 9.16 48.488 0.462 7.52 2.33 9.62
4/18/2023 8:45:00 AM 9.12 48.416 0.462 7.52 2.41 9.73
4/18/2023 9:00:00 AM 9.08 48.344 0.463 7.53 2.47 9.85
4/18/2023 9:15:00 AM 9.04 48.272 0.462 7.54 2.33 9.95
4/18/2023 9:30:00 AM 8.99 48.182 0.461 7.56 2.63 10.08
4/18/2023 9:45:00 AM 8.96 48.128 0.462 7.55 2.56 10.16
4/18/2023 10:00:00 AM 8.92 48.056 0.462 7.56 2.6 10.22
4/18/2023 10:15:00 AM 8.89 48.002 0.462 7.57 2.24 10.32
4/18/2023 10:30:00 AM 8.85 47.93 0.462 7.58 2.29 10.43
4/18/2023 10:45:00 AM 8.82 47.876 0.462 7.58 2.4 10.53
4/18/2023 11:00:00 AM 8.81 47.858 0.461 7.59 2.2 10.68
4/18/2023 11:15:00 AM 8.79 47.822 0.461 7.6 5.08 10.81
4/18/2023 11:30:00 AM 8.78 47.804 0.461 7.61 3.76 10.96
4/18/2023 11:45:00 AM 8.78 47.804 0.461 7.63 3.98 11.12
4/18/2023 12:00:00 PM 8.88 47.984 0.46 7.65 5.77 11.39
4/18/2023 12:15:00 PM 8.95 48.11 0.459 7.67 1.81 11.65
4/18/2023 12:30:00 PM 8.98 48.164 0.459 7.69 1.89 11.83
4/18/2023 12:45:00 PM 9.01 48.218 0.459 7.7 1.73 11.99
4/18/2023 1:00:00 PM 9.04 48.272 0.458 7.72 1.97 12.15
4/18/2023 1:15:00 PM 9.13 48.434 0.458 7.74 1.73 12.32
4/18/2023 1:30:00 PM 9.12 48.416 0.458 7.76 1.75 12.39
4/18/2023 1:45:00 PM 9.14 48.452 0.457 7.76 5.56 12.46
4/18/2023 2:00:00 PM 9.14 48.452 0.457 7.78 2.56 12.56
4/18/2023 2:15:00 PM 9.15 48.47 0.457 7.8 3.6 12.68
4/18/2023 2:30:00 PM 9.18 48.524 0.456 7.81 2.88 12.83
4/18/2023 2:45:00 PM 9.21 48.578 0.456 7.83 2.53 12.94
4/18/2023 3:00:00 PM 9.24 48.632 0.455 7.84 1.73 13.02
4/18/2023 3:15:00 PM 9.23 48.614 0.454 7.85 1.87 13.04
4/18/2023 3:30:00 PM 9.22 48.596 0.454 7.86 1.93 13.04
4/18/2023 3:45:00 PM 9.19 48.542 0.454 7.86 2.59 12.98
4/18/2023 4:00:00 PM 9.26 48.668 0.454 7.87 1.94 13.1
4/18/2023 4:15:00 PM 9.27 48.686 0.453 7.88 1.74 13.13
4/18/2023 4:30:00 PM 9.28 48.704 0.451 7.89 2.11 13.24
4/18/2023 4:45:00 PM 9.36 48.848 0.451 7.92 2.03 13.36
4/18/2023 5:00:00 PM 9.45 49.01 0.45 7.93 2.2 13.47
4/18/2023 5:15:00 PM 9.52 49.136 0.449 7.94 1.62 13.52
4/18/2023 5:30:00 PM 9.54 49.172 0.449 7.95 2.06 13.5
4/18/2023 5:45:00 PM 9.56 49.208 0.448 7.96 2.11 13.43
4/18/2023 6:00:00 PM 9.56 49.208 0.449 7.96 1.47 13.28
4/18/2023 6:15:00 PM 9.55 49.19 0.449 7.95 1.73 13.17
4/18/2023 6:30:00 PM 9.54 49.172 0.449 7.96 1.8 13.02
4/18/2023 6:45:00 PM 9.54 49.172 0.449 7.94 2.13 12.88
4/18/2023 7:00:00 PM 9.54 49.172 0.448 7.94 1.8 12.73
4/18/2023 7:15:00 PM 9.54 49.172 0.45 7.93 1.62 12.58
4/18/2023 7:30:00 PM 9.54 49.172 0.448 7.92 1.64 12.41
4/18/2023 7:45:00 PM 9.53 49.154 0.448 7.9 2.04 12.22
4/18/2023 8:00:00 PM 9.52 49.136 0.447 7.88 3.08 11.97
4/18/2023 8:15:00 PM 9.5 49.1 0.448 7.86 1.9 11.78
4/18/2023 8:30:00 PM 9.46 49.028 0.449 7.84 1.78 11.53
4/18/2023 8:45:00 PM 9.44 48.992 0.448 7.82 3.37 11.34
4/18/2023 9:00:00 PM 9.41 48.938 0.449 7.81 2 11.2
4/18/2023 9:15:00 PM 9.38 48.884 0.449 7.79 1.91 11.07
4/18/2023 9:30:00 PM 9.35 48.83 0.449 7.77 1.99 10.94
4/18/2023 9:45:00 PM 9.33 48.794 0.45 7.76 2.31 10.84
4/18/2023 10:00:00 PM 9.31 48.758 0.45 7.74 2.59 10.74
4/18/2023 10:15:00 PM 9.29 48.722 0.45 7.73 2.7 10.65
4/18/2023 10:30:00 PM 9.27 48.686 0.449 7.73 2.84 10.57
4/18/2023 10:45:00 PM 9.26 48.668 0.45 7.72 3.58 10.46
4/18/2023 11:00:00 PM 9.25 48.65 0.451 7.71 3.06 10.4
4/18/2023 11:15:00 PM 9.23 48.614 0.451 7.7 3.55 10.31
4/18/2023 11:30:00 PM 9.22 48.596 0.451 7.68 3.33 10.24
4/18/2023 11:45:00 PM 9.19 48.542 0.451 7.67 2.58 10.19
4/19/2023 12:00:00 AM 9.16 48.488 0.451 7.65 4.78 10.11
4/19/2023 12:15:00 AM 9.14 48.452 0.451 7.65 3.23 10.05
4/19/2023 12:30:00 AM 9.1 48.38 0.451 7.63 2.7 9.98
4/19/2023 12:45:00 AM 9.07 48.326 0.451 7.63 2.83 9.95
4/19/2023 1:00:00 AM 9.03 48.254 0.451 7.62 2.89 9.89
4/19/2023 1:15:00 AM 8.99 48.182 0.451 7.6 2.7 9.86
4/19/2023 1:30:00 AM 8.94 48.092 0.451 7.59 3.33 9.82
4/19/2023 1:45:00 AM 8.9 48.02 0.451 7.59 2.63 9.8
4/19/2023 2:00:00 AM 8.86 47.948 0.451 7.59 2.64 9.76
4/19/2023 2:15:00 AM 8.83 47.894 0.451 7.58 3.66 9.72
4/19/2023 2:30:00 AM 8.78 47.804 0.451 7.58 2.98 9.71
4/19/2023 2:45:00 AM 8.74 47.732 0.451 7.58 3.45 9.7
4/19/2023 3:00:00 AM 8.7 47.66 0.451 7.57 3.08 9.7
4/19/2023 3:15:00 AM 8.66 47.588 0.451 7.56 2.96 9.69
4/19/2023 3:30:00 AM 8.61 47.498 0.452 7.56 3.68 9.69
4/19/2023 3:45:00 AM 8.57 47.426 0.452 7.57 2.5 9.71
4/19/2023 4:00:00 AM 8.52 47.336 0.452 7.56 2.64 9.72
4/19/2023 4:15:00 AM 8.47 47.246 0.452 7.56 3.59 9.71
4/19/2023 4:30:00 AM 8.43 47.174 0.452 7.55 3.34 9.73
4/19/2023 4:45:00 AM 8.38 47.084 0.453 7.56 2.11 9.72
4/19/2023 5:00:00 AM 8.35 47.03 0.453 7.55 2.89 9.75
4/19/2023 5:15:00 AM 8.3 46.94 0.455 7.55 2.93 9.77
4/19/2023 5:30:00 AM 8.26 46.868 0.455 7.55 2.43 9.76
4/19/2023 5:45:00 AM 8.21 46.778 0.456 7.54 4.22 9.78
4/19/2023 6:00:00 AM 8.17 46.706 0.457 7.55 2.98 9.8
4/19/2023 6:15:00 AM 8.12 46.616 0.457 7.55 2.3 9.8
4/19/2023 6:30:00 AM 8.06 46.508 0.458 7.55 2.96 9.83
4/19/2023 6:45:00 AM 8.01 46.418 0.459 7.54 2.75 9.89
4/19/2023 7:00:00 AM 7.96 46.328 0.459 7.55 2.13 9.94
4/19/2023 7:15:00 AM 7.92 46.256 0.46 7.55 2.13 10.05
4/19/2023 7:30:00 AM 7.9 46.22 0.46 7.56 2.73 10.14
4/19/2023 7:45:00 AM 7.89 46.202 0.46 7.57 2 10.3
4/19/2023 8:00:00 AM 7.89 46.202 0.461 7.57 2.4 10.48
4/19/2023 8:15:00 AM 7.91 46.238 0.461 7.59 2.69 10.67
4/19/2023 8:30:00 AM 7.95 46.31 0.461 7.6 2 10.87
4/19/2023 8:45:00 AM 8 46.4 0.461 7.61 1.83 11.07
4/19/2023 9:00:00 AM 8.07 46.526 0.461 7.63 2.57 11.29
4/19/2023 9:15:00 AM 8.15 46.67 0.462 7.65 2.19 11.52
4/19/2023 9:30:00 AM 8.26 46.868 0.462 7.66 1.84 11.71
4/19/2023 9:45:00 AM 8.38 47.084 0.462 7.67 2.02 11.96
4/19/2023 10:00:00 AM 8.52 47.336 0.461 7.69 1.82 12.16
4/19/2023 10:15:00 AM 8.69 47.642 0.462 7.72 1.69 12.41
4/19/2023 10:30:00 AM 8.88 47.984 0.462 7.74 1.69 12.64
4/19/2023 10:45:00 AM 9.08 48.344 0.461 7.76 1.7 12.82
4/19/2023 11:00:00 AM 9.31 48.758 0.461 7.78 1.67 13.01
4/19/2023 11:15:00 AM 9.54 49.172 0.46 7.8 1.92 13.25
4/19/2023 11:30:00 AM 9.79 49.622 0.459 7.82 1.54 13.34
4/19/2023 11:45:00 AM 10.06 50.108 0.459 7.85 1.97 13.52
4/19/2023 12:00:00 PM 10.34 50.612 0.458 7.86 1.65 13.67
4/19/2023 12:15:00 PM 10.62 51.116 0.457 7.88 1.68 13.79
4/19/2023 12:30:00 PM 10.89 51.602 0.455 7.91 1.78 13.94
4/19/2023 12:45:00 PM 11.16 52.088 0.453 7.93 1.88 14.04
4/19/2023 1:00:00 PM 11.42 52.556 0.451 7.94 1.86 14.12
4/19/2023 1:15:00 PM 11.66 52.988 0.45 7.96 1.74 14.23
4/19/2023 1:30:00 PM 11.93 53.474 0.455 7.97 2.51 14.27
4/19/2023 1:45:00 PM 12.16 53.888 0.455 8 2.1 14.34
4/19/2023 2:00:00 PM 12.43 54.374 0.456 8.02 2.13 14.35
4/19/2023 2:15:00 PM 12.67 54.806 0.452 8.04 2.48 14.41
4/19/2023 2:30:00 PM 12.9 55.22 0.447 8.05 2.14 14.44
4/19/2023 2:45:00 PM 13.14 55.652 0.448 8.07 1.89 14.41
4/19/2023 3:00:00 PM 13.36 56.048 0.447 8.08 2.88 14.48
4/19/2023 3:15:00 PM 13.57 56.426 0.45 8.09 1.82 14.41
4/19/2023 3:30:00 PM 13.74 56.732 0.448 8.1 2.19 14.37
4/19/2023 3:45:00 PM 13.91 57.038 0.446 8.11 1.78 14.33
4/19/2023 4:00:00 PM 14.06 57.308 0.445 8.12 2.34 14.25
4/19/2023 4:15:00 PM 14.19 57.542 0.45 8.12 2.34 14.19
4/19/2023 4:30:00 PM 14.3 57.74 0.447 8.13 2.54 14.14
4/19/2023 4:45:00 PM 14.39 57.902 0.449 8.14 2.59 14.02
4/19/2023 5:00:00 PM 14.47 58.046 0.449 8.14 2.08 13.9
4/19/2023 5:15:00 PM 14.54 58.172 0.447 8.15 2.87 13.76
4/19/2023 5:30:00 PM 14.58 58.244 0.445 8.15 2.47 13.61
4/19/2023 5:45:00 PM 14.61 58.298 0.442 8.14 1.94 13.42
4/19/2023 6:00:00 PM 14.63 58.334 0.441 8.14 2.25 13.21
4/19/2023 6:15:00 PM 14.64 58.352 0.439 8.13 2.43 12.99
4/19/2023 6:30:00 PM 14.62 58.316 0.438 8.12 2.24 12.7
4/19/2023 6:45:00 PM 14.59 58.262 0.439 8.11 2.01 12.41
4/19/2023 7:00:00 PM 14.57 58.226 0.438 8.09 5.07 12.1
4/19/2023 7:15:00 PM 14.54 58.172 0.44 8.08 2.08 11.79
4/19/2023 7:30:00 PM 14.52 58.136 0.447 8.05 1.96 11.47
4/19/2023 7:45:00 PM 14.48 58.064 0.449 8.02 2.79 11.17
4/19/2023 8:00:00 PM 14.45 58.01 0.448 8 2.43 10.86
4/19/2023 8:15:00 PM 14.42 57.956 0.451 7.96 2.7 10.51
4/19/2023 8:30:00 PM 14.37 57.866 0.453 7.93 3.37 10.21
4/19/2023 8:45:00 PM 14.33 57.794 0.452 7.9 2.21 9.95
4/19/2023 9:00:00 PM 14.28 57.704 0.452 7.87 5.31 9.72
4/19/2023 9:15:00 PM 14.24 57.632 0.452 7.84 2.26 9.48
4/19/2023 9:30:00 PM 14.2 57.56 0.451 7.82 2.51 9.32
4/19/2023 9:45:00 PM 14.15 57.47 0.451 7.8 2.36 9.14
4/19/2023 10:00:00 PM 14.1 57.38 0.45 7.77 2.76 9
4/19/2023 10:15:00 PM 14.05 57.29 0.449 7.75 2.94 8.87
4/19/2023 10:30:00 PM 13.99 57.182 0.449 7.73 5.29 8.75
4/19/2023 10:45:00 PM 13.93 57.074 0.448 7.7 3.4 8.65
4/19/2023 11:00:00 PM 13.86 56.948 0.448 7.69 2.7 8.53
4/19/2023 11:15:00 PM 13.79 56.822 0.448 7.66 41.6 8.43
4/19/2023 11:30:00 PM 13.71 56.678 0.448 7.64 3.21 8.34
4/19/2023 11:45:00 PM 13.64 56.552 0.448 7.63 12.76 8.23
4/20/2023 12:00:00 AM 13.56 56.408 0.448 7.61 6.83 8.18
4/20/2023 12:15:00 AM 13.48 56.264 0.447 7.59 2.86 8.09
4/20/2023 12:30:00 AM 13.42 56.156 0.447 7.58 3.26 8.04
4/20/2023 12:45:00 AM 13.35 56.03 0.447 7.56 4.8 8.01
4/20/2023 1:00:00 AM 13.29 55.922 0.446 7.55 2.97 8
4/20/2023 1:15:00 AM 13.24 55.832 0.446 7.53 3.94 7.94
4/20/2023 1:30:00 AM 13.19 55.742 0.446 7.53 3.35 7.92
4/20/2023 1:45:00 AM 13.15 55.67 0.446 7.51 3.55 7.87
4/20/2023 2:00:00 AM 13.09 55.562 0.446 7.51 2.81 7.87
4/20/2023 2:15:00 AM 13.03 55.454 0.446 7.49 2.96 7.86
4/20/2023 2:30:00 AM 12.96 55.328 0.446 7.49 3.03 7.85
4/20/2023 2:45:00 AM 12.89 55.202 0.445 7.49 4.28 7.83
4/20/2023 3:00:00 AM 12.81 55.058 0.446 7.48 2.43 7.85
4/20/2023 3:15:00 AM 12.73 54.914 0.446 7.47 2.35 7.84
4/20/2023 3:30:00 AM 12.65 54.77 0.446 7.47 3.47 7.87
4/20/2023 3:45:00 AM 12.58 54.644 0.447 7.47 3.42 7.88
4/20/2023 4:00:00 AM 12.51 54.518 0.447 7.47 2.73 7.89
4/20/2023 4:15:00 AM 12.42 54.356 0.409 7.46 3.1 7.92
4/20/2023 4:30:00 AM 12.32 54.176 0.412 7.46 3.1 7.96
4/20/2023 4:45:00 AM 12.22 53.996 0.411 7.46 3.7 7.96
4/20/2023 5:00:00 AM 12.11 53.798 0.403 7.45 3.26 8.03
4/20/2023 5:15:00 AM 11.99 53.582 0.448 7.46 2.94 8.06
4/20/2023 5:30:00 AM 11.88 53.384 0.443 7.45 3 8.08
4/20/2023 5:45:00 AM 11.77 53.186 0.457 7.45 2.67 8.14
4/20/2023 6:00:00 AM 11.67 53.006 0.451 7.45 5.78 8.16
4/20/2023 6:15:00 AM 11.56 52.808 0.464 7.46 2.48 8.21
4/20/2023 6:30:00 AM 11.46 52.628 0.453 7.45 3.16 8.24
4/20/2023 6:45:00 AM 11.37 52.466 0.464 7.46 2.14 8.31
4/20/2023 7:00:00 AM 11.29 52.322 0.466 7.46 2.31 8.41
4/20/2023 7:15:00 AM 11.21 52.178 0.468 7.46 2.36 8.52
4/20/2023 7:30:00 AM 11.14 52.052 0.471 7.47 2.73 8.63
4/20/2023 7:45:00 AM 11.09 51.962 0.472 7.48 2.42 8.82
4/20/2023 8:00:00 AM 11.06 51.908 0.472 7.49 2.77 9.02
4/20/2023 8:15:00 AM 11.04 51.872 0.473 7.51 2.13 9.27
4/20/2023 8:30:00 AM 11.04 51.872 0.474 7.53 2.21 9.52
4/20/2023 8:45:00 AM 11.06 51.908 0.474 7.54 2.07 9.74
4/20/2023 9:00:00 AM 11.11 51.998 0.474 7.56 1.82 10.01
4/20/2023 9:15:00 AM 11.16 52.088 0.475 7.58 2.26 10.28
4/20/2023 9:30:00 AM 11.24 52.232 0.475 7.6 1.91 10.55
4/20/2023 9:45:00 AM 11.34 52.412 0.476 7.62 1.99 10.81
4/20/2023 10:00:00 AM 11.45 52.61 0.476 7.64 2.08 11.09
4/20/2023 10:15:00 AM 11.59 52.862 0.476 7.66 1.71 11.38
4/20/2023 10:30:00 AM 11.75 53.15 0.476 7.69 1.8 11.72
4/20/2023 10:45:00 AM 11.91 53.438 0.475 7.72 2.03 11.96
4/20/2023 11:00:00 AM 12.1 53.78 0.475 7.74 2.45 12.21
4/20/2023 11:15:00 AM 12.31 54.158 0.476 7.76 1.92 12.45
4/20/2023 11:30:00 AM 12.53 54.554 0.475 7.78 3.97 12.67
4/20/2023 11:45:00 AM 12.78 55.004 0.473 7.81 2.06 12.91
4/20/2023 12:00:00 PM 13.03 55.454 0.472 7.83 1.91 13.08
4/20/2023 12:15:00 PM 13.27 55.886 0.47 7.86 2.21 13.26
4/20/2023 12:30:00 PM 13.54 56.372 0.473 7.89 4.63 13.43
4/20/2023 12:45:00 PM 13.81 56.858 0.471 7.91 3.57 13.57
4/20/2023 1:00:00 PM 14.07 57.326 0.473 7.93 2.13 13.72
4/20/2023 1:15:00 PM 14.33 57.794 0.469 7.96 1.98 13.84
4/20/2023 1:30:00 PM 14.6 58.28 0.471 7.97 1.86 13.98
4/20/2023 1:45:00 PM 14.86 58.748 0.473 8 2.24 14.04
4/20/2023 2:00:00 PM 15.11 59.198 0.47 8.01 2.31 14.08
4/20/2023 2:15:00 PM 15.35 59.63 0.469 8.03 2.25 14.17
4/20/2023 2:30:00 PM 15.6 60.08 0.468 8.06 1.99 14.2
4/20/2023 2:45:00 PM 15.83 60.494 0.465 8.08 1.98 14.26
4/20/2023 3:00:00 PM 16.06 60.908 0.468 8.09 1.72 14.23
4/20/2023 3:15:00 PM 16.25 61.25 0.467 8.1 2.39 14.22
4/20/2023 3:30:00 PM 16.42 61.556 0.462 8.11 2.31 14.22
4/20/2023 3:45:00 PM 16.6 61.88 0.464 8.12 2.14 14.22
4/20/2023 4:00:00 PM 16.76 62.168 0.462 8.12 2.02 14.18
4/20/2023 4:15:00 PM 16.88 62.384 0.461 8.13 3.67 14.1
4/20/2023 4:30:00 PM 17 62.6 0.46 8.14 2.5 14
4/20/2023 4:45:00 PM 17.07 62.726 0.459 8.14 2.61 13.87
4/20/2023 5:00:00 PM 17.08 62.744 0.46 8.14 2.08 13.62
4/20/2023 5:15:00 PM 17.16 62.888 0.462 8.14 2 13.44
4/20/2023 5:30:00 PM 17.21 62.978 0.459 8.13 1.84 13.22
4/20/2023 5:45:00 PM 17.24 63.032 0.462 8.13 5.09 12.99
4/20/2023 6:00:00 PM 17.3 63.14 0.463 8.13 3.13 12.84
4/20/2023 6:15:00 PM 17.31 63.158 0.463 8.12 2.28 12.6
4/20/2023 6:30:00 PM 17.33 63.194 0.462 8.1 2.4 12.28
4/20/2023 6:45:00 PM 17.33 63.194 0.461 8.09 2.73 11.93
4/20/2023 7:00:00 PM 17.32 63.176 0.461 8.07 2.24 11.59
4/20/2023 7:15:00 PM 17.32 63.176 0.46 8.04 2.01 11.24
4/20/2023 7:30:00 PM 17.29 63.122 0.46 8.01 2.15 10.87
4/20/2023 7:45:00 PM 17.26 63.068 0.46 7.98 2.47 10.47
4/20/2023 8:00:00 PM 17.24 63.032 0.459 7.95 1.94 10.12
4/20/2023 8:15:00 PM 17.21 62.978 0.459 7.91 2.86 9.75
4/20/2023 8:30:00 PM 17.18 62.924 0.46 7.88 2.55 9.39
4/20/2023 8:45:00 PM 17.16 62.888 0.461 7.84 2.49 9.04
4/20/2023 9:00:00 PM 17.12 62.816 0.461 7.8 3.14 8.71
4/20/2023 9:15:00 PM 17.1 62.78 0.461 7.77 3.48 8.49
4/20/2023 9:30:00 PM 17.08 62.744 0.461 7.74 3.87 8.28
4/20/2023 9:45:00 PM 17.05 62.69 0.436 7.71 2.91 8.1
4/20/2023 10:00:00 PM 17.01 62.618 0.46 7.69 6.16 7.92
4/20/2023 10:15:00 PM 16.97 62.546 0.46 7.66 3.12 7.77
4/20/2023 10:30:00 PM 16.93 62.474 0.459 7.64 2.68 7.64
4/20/2023 10:45:00 PM 16.88 62.384 0.458 7.62 6.77 7.52
4/20/2023 11:00:00 PM 16.81 62.258 0.454 7.59 3.13 7.4
4/20/2023 11:15:00 PM 16.76 62.168 0.454 7.56 3.26 7.33
4/20/2023 11:30:00 PM 16.69 62.042 0.444 7.54 3.32 7.21
4/20/2023 11:45:00 PM 16.62 61.916 0.448 7.53 3.31 7.17
4/21/2023 12:00:00 AM 16.55 61.79 0.456 7.51 2.92 7.08
4/21/2023 12:15:00 AM 16.47 61.646 0.456 7.5 8.07 6.93
4/21/2023 12:30:00 AM 16.4 61.52 0.44 7.48 2.93 6.82
4/21/2023 12:45:00 AM 16.31 61.358 0.442 7.48 3.31 6.73
4/21/2023 1:00:00 AM 16.23 61.214 0.452 7.47 3.95 6.64
4/21/2023 1:15:00 AM 16.14 61.052 0.456 7.47 4.06 6.69
4/21/2023 1:30:00 AM 16.05 60.89 0.456 7.45 3.71 6.63
4/21/2023 1:45:00 AM 15.96 60.728 0.455 7.44 2.9 6.66
4/21/2023 2:00:00 AM 15.87 60.566 0.455 7.43 3.68 6.65
4/21/2023 2:15:00 AM 15.77 60.386 0.455 7.42 7.11 6.65
4/21/2023 2:30:00 AM 15.68 60.224 0.455 7.4 8.65 6.58
4/21/2023 2:45:00 AM 15.57 60.026 0.455 7.41 2.43 6.61
4/21/2023 3:00:00 AM 15.47 59.846 0.455 7.4 4.07 6.67
4/21/2023 3:15:00 AM 15.37 59.666 0.455 7.4 2.94 6.72
4/21/2023 3:30:00 AM 15.26 59.468 0.456 7.39 2.87 6.73
4/21/2023 3:45:00 AM 15.15 59.27 0.457 7.39 3.71 6.71
4/21/2023 4:00:00 AM 15.05 59.09 0.458 7.39 6.57 6.78
4/21/2023 4:15:00 AM 14.94 58.892 0.459 7.39 2.79 6.81
4/21/2023 4:30:00 AM 14.83 58.694 0.459 7.38 3.23 6.82
4/21/2023 4:45:00 AM 14.71 58.478 0.461 7.39 3.72 6.84
4/21/2023 5:00:00 AM 14.6 58.28 0.462 7.39 4.62 6.86
4/21/2023 5:15:00 AM 14.48 58.064 0.463 7.39 2.59 6.92
4/21/2023 5:30:00 AM 14.35 57.83 0.465 7.39 5.8 6.95
4/21/2023 5:45:00 AM 14.23 57.614 0.466 7.39 11.53 6.99
4/21/2023 6:00:00 AM 14.11 57.398 0.467 7.39 8.3 7.02
4/21/2023 6:15:00 AM 13.98 57.164 0.469 7.39 4.81 7.07
4/21/2023 6:30:00 AM 13.85 56.93 0.47 7.4 2.61 7.15
4/21/2023 6:45:00 AM 13.74 56.732 0.472 7.4 2.45 7.22
4/21/2023 7:00:00 AM 13.63 56.534 0.473 7.41 2.42 7.31
4/21/2023 7:15:00 AM 13.52 56.336 0.474 7.41 3.1 7.41
4/21/2023 7:30:00 AM 13.44 56.192 0.474 7.42 2.29 7.52
4/21/2023 7:45:00 AM 13.38 56.084 0.475 7.43 2.38 7.76
4/21/2023 8:00:00 AM 13.33 55.994 0.476 7.44 2.15 7.94
4/21/2023 8:15:00 AM 13.29 55.922 0.477 7.45 5.79 8.2
4/21/2023 8:30:00 AM 13.29 55.922 0.478 7.47 2.26 8.42
4/21/2023 8:45:00 AM 13.3 55.94 0.478 7.49 2.16 8.75
4/21/2023 9:00:00 AM 13.34 56.012 0.479 7.51 1.84 9.04
4/21/2023 9:15:00 AM 13.39 56.102 0.479 7.53 1.81 9.29
4/21/2023 9:30:00 AM 13.47 56.246 0.48 7.55 2.29 9.62
4/21/2023 9:45:00 AM 13.56 56.408 0.48 7.57 2.06 9.89
4/21/2023 10:00:00 AM 13.68 56.624 0.481 7.59 2 10.21
4/21/2023 10:15:00 AM 13.81 56.858 0.481 7.61 2.15 10.54
4/21/2023 10:30:00 AM 13.96 57.128 0.481 7.64 1.86 10.82
4/21/2023 10:45:00 AM 14.12 57.416 0.481 7.67 2.2 11.16
4/21/2023 11:00:00 AM 14.31 57.758 0.481 7.7 2.04 11.47
4/21/2023 11:15:00 AM 14.5 58.1 0.481 7.72 1.56 11.76
4/21/2023 11:30:00 AM 14.72 58.496 0.481 7.75 2.26 12.05
4/21/2023 11:45:00 AM 14.95 58.91 0.481 7.78 2.12 12.27
4/21/2023 12:00:00 PM 15.2 59.36 0.479 7.81 3.86 12.53
4/21/2023 12:15:00 PM 15.44 59.792 0.481 7.83 2.12 12.72
4/21/2023 12:30:00 PM 15.69 60.242 0.481 7.87 1.85 12.98
4/21/2023 12:45:00 PM 15.94 60.692 0.483 7.89 2.32 13.14
4/21/2023 1:00:00 PM 16.18 61.124 0.478 7.92 2.78 13.29
4/21/2023 1:15:00 PM 16.43 61.574 0.478 7.94 2.89 13.42
4/21/2023 1:30:00 PM 16.67 62.006 0.476 7.97 2.05 13.61
4/21/2023 1:45:00 PM 16.9 62.42 0.477 7.99 1.96 13.67
4/21/2023 2:00:00 PM 17.07 62.726 0.476 8.01 1.91 13.72
4/21/2023 2:15:00 PM 17.12 62.816 0.477 8.02 1.94 13.7
4/21/2023 2:30:00 PM 17.18 62.924 0.477 8.02 2.21 13.56
4/21/2023 2:45:00 PM 17.12 62.816 0.474 8.02 2.62 13.29
4/21/2023 3:00:00 PM 17.1 62.78 0.475 8.02 3.53 13.08
4/21/2023 3:15:00 PM 17.14 62.852 0.474 8.01 2.2 12.84
4/21/2023 3:30:00 PM 17.16 62.888 0.474 8.02 2.08 12.79
4/21/2023 3:45:00 PM 17.17 62.906 0.473 8.01 2.74 12.64
4/21/2023 4:00:00 PM 17.36 63.248 0.475 8.02 2.32 12.6
4/21/2023 4:15:00 PM 17.55 63.59 0.474 8.03 1.85 12.72
4/21/2023 4:30:00 PM 17.53 63.554 0.473 8.03 2.3 12.48
4/21/2023 4:45:00 PM 17.52 63.536 0.473 8.02 2.15 12.16
4/21/2023 5:00:00 PM 17.51 63.518 0.474 8 2.44 11.72
4/21/2023 5:15:00 PM 17.47 63.446 0.475 7.97 2.96 11.31
4/21/2023 5:30:00 PM 17.42 63.356 0.476 7.93 2.67 10.81
4/21/2023 5:45:00 PM 17.39 63.302 0.475 7.9 2.42 10.52
4/21/2023 6:00:00 PM 17.39 63.302 0.476 7.88 1.91 10.28
4/21/2023 6:15:00 PM 17.41 63.338 0.476 7.86 1.86 10.1
4/21/2023 6:30:00 PM 17.44 63.392 0.475 7.84 2.8 9.94
4/21/2023 6:45:00 PM 17.47 63.446 0.475 7.83 1.74 9.76
4/21/2023 7:00:00 PM 17.5 63.5 0.475 7.82 3.33 9.59
4/21/2023 7:15:00 PM 17.52 63.536 0.475 7.8 2.44 9.3
4/21/2023 7:30:00 PM 17.52 63.536 0.475 7.77 1.95 9.05
4/21/2023 7:45:00 PM 17.52 63.536 0.475 7.74 1.9 8.76
4/21/2023 8:00:00 PM 17.51 63.518 0.475 7.71 2.78 8.49
4/21/2023 8:15:00 PM 17.5 63.5 0.474 7.68 2.88 8.24
4/21/2023 8:30:00 PM 17.49 63.482 0.474 7.66 2.52 8.03
4/21/2023 8:45:00 PM 17.48 63.464 0.468 7.64 2.29 7.83
4/21/2023 9:00:00 PM 17.48 63.464 0.47 7.62 3.43 7.68
4/21/2023 9:15:00 PM 17.47 63.446 0.436 7.59 2.64 7.53
4/21/2023 9:30:00 PM 17.47 63.446 0.45 7.59 2.63 7.43
4/21/2023 9:45:00 PM 17.45 63.41 0.47 7.57 4.05 7.3
4/21/2023 10:00:00 PM 17.43 63.374 0.468 7.56 2.24 7.17
4/21/2023 10:15:00 PM 17.41 63.338 0.468 7.54 2.9 7.04
4/21/2023 10:30:00 PM 17.38 63.284 0.466 7.52 3.29 6.93
4/21/2023 10:45:00 PM 17.34 63.212 0.438 7.51 2.76 6.84
4/21/2023 11:00:00 PM 17.28 63.104 0.447 7.5 3.14 6.74
4/21/2023 11:15:00 PM 17.23 63.014 0.466 7.49 2.64 6.69
4/21/2023 11:30:00 PM 17.17 62.906 0.448 7.47 4.63 6.66
4/21/2023 11:45:00 PM 17.11 62.798 0.454 7.47 3.75 6.59
4/22/2023 12:00:00 AM 17.04 62.672 0.467 7.46 2.61 6.54
4/22/2023 12:15:00 AM 16.98 62.564 0.467 7.45 6.7 6.51
4/22/2023 12:30:00 AM 16.91 62.438 0.466 7.44 3.38 6.48
4/22/2023 12:45:00 AM 16.84 62.312 0.462 7.43 2.57 6.47
4/22/2023 1:00:00 AM 16.77 62.186 0.466 7.43 2.68 6.43
4/22/2023 1:15:00 AM 16.71 62.078 0.435 7.43 2.63 6.41
4/22/2023 1:30:00 AM 16.63 61.934 0.422 7.42 3.07 6.39
4/22/2023 1:45:00 AM 16.55 61.79 0.432 7.41 3.16 6.35
4/22/2023 2:00:00 AM 16.46 61.628 0.444 7.41 3.1 6.32
4/22/2023 2:15:00 AM 16.38 61.484 0.44 7.41 2.8 6.3
4/22/2023 2:30:00 AM 16.29 61.322 0.457 7.4 3.41 6.33
4/22/2023 2:45:00 AM 16.21 61.178 0.463 7.4 2.9 6.31
4/22/2023 3:00:00 AM 16.12 61.016 0.464 7.4 2.42 6.33
4/22/2023 3:15:00 AM 16.04 60.872 0.449 7.4 3.19 6.35
4/22/2023 3:30:00 AM 15.96 60.728 0.458 7.39 2.39 6.37
4/22/2023 3:45:00 AM 15.88 60.584 0.466 7.39 2.81 6.42
4/22/2023 4:00:00 AM 15.79 60.422 0.446 7.4 3.66 6.45
4/22/2023 4:15:00 AM 15.71 60.278 0.457 7.4 3.01 6.48
4/22/2023 4:30:00 AM 15.62 60.116 0.434 7.41 2.82 6.51
4/22/2023 4:45:00 AM 15.52 59.936 0.459 7.41 2.71 6.55
4/22/2023 5:00:00 AM 15.44 59.792 0.445 7.4 3.37 6.58
4/22/2023 5:15:00 AM 15.34 59.612 0.419 7.4 2.97 6.6
4/22/2023 5:30:00 AM 15.25 59.45 0.473 7.41 3.1 6.63
4/22/2023 5:45:00 AM 15.17 59.306 0.48 7.41 2.77 6.7
4/22/2023 6:00:00 AM 15.09 59.162 0.481 7.41 3.51 6.73
4/22/2023 6:15:00 AM 15.01 59.018 0.482 7.42 2.46 6.76
4/22/2023 6:30:00 AM 14.93 58.874 0.483 7.42 3.54 6.78
4/22/2023 6:45:00 AM 14.84 58.712 0.484 7.42 2.87 6.84
4/22/2023 7:00:00 AM 14.77 58.586 0.485 7.42 2.33 6.96
4/22/2023 7:15:00 AM 14.69 58.442 0.485 7.43 2.18 7.03
4/22/2023 7:30:00 AM 14.62 58.316 0.486 7.44 4.01 7.17
4/22/2023 7:45:00 AM 14.57 58.226 0.486 7.45 2.98 7.36
4/22/2023 8:00:00 AM 14.53 58.154 0.487 7.46 5.8 7.58
4/22/2023 8:15:00 AM 14.52 58.136 0.487 7.48 2.5 7.83
4/22/2023 8:30:00 AM 14.52 58.136 0.487 7.5 2.38 8.14
4/22/2023 8:45:00 AM 14.54 58.172 0.487 7.52 2.12 8.5
4/22/2023 9:00:00 AM 14.57 58.226 0.488 7.55 2.17 8.86
4/22/2023 9:15:00 AM 14.61 58.298 0.487 7.57 2.53 9.21
4/22/2023 9:30:00 AM 14.61 58.298 0.487 7.59 2.48 9.48
4/22/2023 9:45:00 AM 14.61 58.298 0.487 7.61 2.1 9.65
4/22/2023 10:00:00 AM 14.62 58.316 0.487 7.62 4.3 9.88
4/22/2023 10:15:00 AM 14.67 58.406 0.487 7.64 1.98 10.13
4/22/2023 10:30:00 AM 14.74 58.532 0.487 7.67 1.88 10.41
4/22/2023 10:45:00 AM 14.8 58.64 0.487 7.69 2.11 10.67
4/22/2023 11:00:00 AM 14.81 58.658 0.487 7.7 3.72 10.8
4/22/2023 11:15:00 AM 14.79 58.622 0.488 7.71 2.23 10.76
4/22/2023 11:30:00 AM 14.76 58.568 0.488 7.71 2.04 10.65
4/22/2023 11:45:00 AM 14.77 58.586 0.488 7.72 2.58 10.69
4/22/2023 12:00:00 PM 14.79 58.622 0.489 7.73 2.6 10.75
4/22/2023 12:15:00 PM 14.79 58.622 0.488 7.74 2.52 10.82
4/22/2023 12:30:00 PM 14.84 58.712 0.488 7.75 2.04 10.96
4/22/2023 12:45:00 PM 14.85 58.73 0.487 7.77 1.94 11.09
4/22/2023 1:00:00 PM 14.83 58.694 0.487 7.77 1.8 11.06
4/22/2023 1:15:00 PM 14.85 58.73 0.486 7.79 1.81 11.18
4/22/2023 1:30:00 PM 14.86 58.748 0.486 7.8 1.74 11.23
4/22/2023 1:45:00 PM 14.8 58.64 0.486 7.78 2.21 10.9
4/22/2023 2:00:00 PM 14.75 58.55 0.483 7.77 2.55 10.72
4/22/2023 2:15:00 PM 14.79 58.622 0.553 7.6 7.06 10.41
4/22/2023 2:30:00 PM 14.73 58.514 0.515 7.58 4.17 10.18
4/22/2023 2:45:00 PM 14.64 58.352 0.503 7.65 2.91 10.19
4/22/2023 3:00:00 PM 14.6 58.28 0.49 7.69 2.28 10.23
4/22/2023 3:15:00 PM 14.56 58.208 0.485 7.72 2.39 10.19
4/22/2023 3:30:00 PM 14.51 58.118 0.481 7.72 2.14 10.12
4/22/2023 3:45:00 PM 14.47 58.046 0.5 7.67 4.45 9.94
4/22/2023 4:00:00 PM 14.44 57.992 0.524 7.63 12.6 9.76
4/22/2023 4:15:00 PM 14.4 57.92 0.508 7.64 17.96 9.64
4/22/2023 4:30:00 PM 14.37 57.866 0.49 7.67 8.3 9.65
4/22/2023 4:45:00 PM 14.37 57.866 0.481 7.69 4.42 9.78
4/22/2023 5:00:00 PM 14.37 57.866 0.478 7.71 2.65 9.97
4/22/2023 5:15:00 PM 14.37 57.866 0.476 7.72 2.32 10.02
4/22/2023 5:30:00 PM 14.35 57.83 0.475 7.73 2.25 10.03
4/22/2023 5:45:00 PM 14.33 57.794 0.474 7.73 2.5 9.88
4/22/2023 6:00:00 PM 14.3 57.74 0.473 7.71 2.42 9.71
4/22/2023 6:15:00 PM 14.26 57.668 0.471 7.7 2.72 9.51
4/22/2023 6:30:00 PM 14.24 57.632 0.469 7.68 2.72 9.44
4/22/2023 6:45:00 PM 14.21 57.578 0.468 7.66 2.4 9.27
4/22/2023 7:00:00 PM 14.17 57.506 0.466 7.65 2.47 9.14
4/22/2023 7:15:00 PM 14.14 57.452 0.464 7.63 3.03 9
4/22/2023 7:30:00 PM 14.1 57.38 0.461 7.62 3.59 8.89
4/22/2023 7:45:00 PM 14.05 57.29 0.458 7.6 4.54 8.76
4/22/2023 8:00:00 PM 14 57.2 0.456 7.58 3.92 8.64
4/22/2023 8:15:00 PM 13.94 57.092 0.454 7.57 5.51 8.56
4/22/2023 8:30:00 PM 13.89 57.002 0.453 7.56 5.09 8.47
4/22/2023 8:45:00 PM 13.84 56.912 0.452 7.55 6.63 8.42
4/22/2023 9:00:00 PM 13.79 56.822 0.451 7.55 9.58 8.35
4/22/2023 9:15:00 PM 13.75 56.75 0.451 7.54 5.31 8.31
4/22/2023 9:30:00 PM 13.7 56.66 0.449 7.54 5.23 8.28
4/22/2023 9:45:00 PM 13.65 56.57 0.448 7.54 5.33 8.26
4/22/2023 10:00:00 PM 13.58 56.444 0.446 7.54 5.63 8.23
4/22/2023 10:15:00 PM 13.51 56.318 0.443 7.53 4.82 8.19
4/22/2023 10:30:00 PM 13.44 56.192 0.438 7.52 5.99 8.16
4/22/2023 10:45:00 PM 13.37 56.066 0.434 7.51 4.3 8.09
4/22/2023 11:00:00 PM 13.31 55.958 0.429 7.5 6.69 8.01
4/22/2023 11:15:00 PM 13.26 55.868 0.425 7.48 11.45 7.98
4/22/2023 11:30:00 PM 13.22 55.796 0.421 7.47 15.11 7.94
4/22/2023 11:45:00 PM 13.17 55.706 0.418 7.46 6.25 7.9
4/23/2023 12:00:00 AM 13.1 55.58 0.417 7.45 5.4 7.88
4/23/2023 12:15:00 AM 13.03 55.454 0.416 7.45 4.71 7.9
4/23/2023 12:30:00 AM 12.96 55.328 0.417 7.44 8.33 7.89
4/23/2023 12:45:00 AM 12.86 55.148 0.417 7.44 5.24 7.88
4/23/2023 1:00:00 AM 12.78 55.004 0.418 7.43 5.03 7.85
4/23/2023 1:15:00 AM 12.69 54.842 0.42 7.42 5.28 7.88
4/23/2023 1:30:00 AM 12.6 54.68 0.421 7.43 5.73 7.92
4/23/2023 1:45:00 AM 12.51 54.518 0.422 7.43 5.53 7.91
4/23/2023 2:00:00 AM 12.42 54.356 0.424 7.43 5.85 7.92
4/23/2023 2:15:00 AM 12.32 54.176 0.426 7.43 6.45 7.91
4/23/2023 2:30:00 AM 12.24 54.032 0.428 7.42 6.37 7.94
4/23/2023 2:45:00 AM 12.14 53.852 0.43 7.43 8.71 7.94
4/23/2023 3:00:00 AM 12.04 53.672 0.432 7.42 8.68 7.97
4/23/2023 3:15:00 AM 11.94 53.492 0.434 7.42 8.62 7.99
4/23/2023 3:30:00 AM 11.84 53.312 0.435 7.42 6.28 8.02
4/23/2023 3:45:00 AM 11.74 53.132 0.436 7.42 9.25 8.05
4/23/2023 4:00:00 AM 11.64 52.952 0.436 7.42 9.01 8.08
4/23/2023 4:15:00 AM 11.55 52.79 0.438 7.42 6.99 8.1
4/23/2023 4:30:00 AM 11.45 52.61 0.439 7.43 5.78 8.14
4/23/2023 4:45:00 AM 11.37 52.466 0.44 7.43 6.3 8.17
4/23/2023 5:00:00 AM 11.28 52.304 0.442 7.43 6.49 8.2
4/23/2023 5:15:00 AM 11.18 52.124 0.443 7.43 7.05 8.22
4/23/2023 5:30:00 AM 11.09 51.962 0.444 7.43 6.28 8.25
4/23/2023 5:45:00 AM 11 51.8 0.445 7.42 5.3 8.28
4/23/2023 6:00:00 AM 10.9 51.62 0.446 7.43 6.74 8.32
4/23/2023 6:15:00 AM 10.81 51.458 0.447 7.42 5.73 8.35
4/23/2023 6:30:00 AM 10.72 51.296 0.448 7.43 5.19 8.38
4/23/2023 6:45:00 AM 10.64 51.152 0.449 7.43 5.22 8.45
4/23/2023 7:00:00 AM 10.56 51.008 0.449 7.44 5.09 8.51
4/23/2023 7:15:00 AM 10.5 50.9 0.45 7.44 5.09 8.62
4/23/2023 7:30:00 AM 10.45 50.81 0.451 7.45 4.75 8.77
4/23/2023 7:45:00 AM 10.42 50.756 0.451 7.46 4.57 8.91
4/23/2023 8:00:00 AM 10.4 50.72 0.451 7.47 3.89 9.1
4/23/2023 8:15:00 AM 10.4 50.72 0.451 7.48 6.39 9.32
4/23/2023 8:30:00 AM 10.43 50.774 0.451 7.49 4.67 9.52
4/23/2023 8:45:00 AM 10.48 50.864 0.452 7.51 3.97 9.75
4/23/2023 9:00:00 AM 10.59 51.062 0.451 7.53 4.71 10.02
4/23/2023 9:15:00 AM 10.68 51.224 0.451 7.55 3.74 10.3
4/23/2023 9:30:00 AM 10.74 51.332 0.451 7.58 4.05 10.58
4/23/2023 9:45:00 AM 10.83 51.494 0.45 7.6 3.39 10.88
4/23/2023 10:00:00 AM 10.92 51.656 0.455 7.6 3.83 11.12
4/23/2023 10:15:00 AM 10.99 51.782 0.452 7.61 4 11.28
4/23/2023 10:30:00 AM 11.1 51.98 0.451 7.65 3.21 11.53
4/23/2023 10:45:00 AM 11.27 52.286 0.451 7.68 3.23 11.8
4/23/2023 11:00:00 AM 11.33 52.394 0.451 7.71 2.96 11.96
4/23/2023 11:15:00 AM 11.46 52.628 0.452 7.74 2.76 12.18
4/23/2023 11:30:00 AM 11.44 52.592 0.452 7.74 2.64 12.11
4/23/2023 11:45:00 AM 11.47 52.646 0.453 7.75 2.7 12.14
4/23/2023 12:00:00 PM 11.53 52.754 0.453 7.77 3.01 12.2
4/23/2023 12:15:00 PM 11.63 52.934 0.453 7.78 2.76 12.31
4/23/2023 12:30:00 PM 11.83 53.294 0.453 7.8 2.6 12.47
4/23/2023 12:45:00 PM 11.88 53.384 0.454 7.82 2.62 12.63
4/23/2023 1:00:00 PM 12.04 53.672 0.454 7.84 2.37 12.82
4/23/2023 1:15:00 PM 12.1 53.78 0.454 7.87 2.97 12.95
4/23/2023 1:30:00 PM 12.2 53.96 0.455 7.89 2.7 13.06
4/23/2023 1:45:00 PM 12.26 54.068 0.454 7.91 2.48 13.11
4/23/2023 2:00:00 PM 12.26 54.068 0.454 7.92 2.59 13.06
4/23/2023 2:15:00 PM 12.27 54.086 0.454 7.92 2.47 13.06
4/23/2023 2:30:00 PM 12.27 54.086 0.454 7.94 2.28 13.03
4/23/2023 2:45:00 PM 12.25 54.05 0.455 7.95 2.8 13.04
4/23/2023 3:00:00 PM 12.24 54.032 0.453 7.96 2.26 12.95
4/23/2023 3:15:00 PM 12.26 54.068 0.453 7.98 2.34 12.98
4/23/2023 3:30:00 PM 12.31 54.158 0.452 7.99 2.07 12.97
4/23/2023 3:45:00 PM 12.37 54.266 0.452 7.99 2.32 12.98
4/23/2023 4:00:00 PM 12.37 54.266 0.453 8 2.17 12.94
4/23/2023 4:15:00 PM 12.43 54.374 0.453 8.01 2.12 13.04
4/23/2023 4:30:00 PM 12.47 54.446 0.452 8.02 2.17 13.04
4/23/2023 4:45:00 PM 12.48 54.464 0.453 8.03 1.94 13.04
4/23/2023 5:00:00 PM 12.47 54.446 0.456 8.04 3.29 12.97
4/23/2023 5:15:00 PM 12.42 54.356 0.453 8.03 4.7 12.86
4/23/2023 5:30:00 PM 12.4 54.32 0.452 8.03 2.35 12.73
4/23/2023 5:45:00 PM 12.38 54.284 0.449 8.03 2.3 12.65
4/23/2023 6:00:00 PM 12.35 54.23 0.447 8.03 2.51 12.49
4/23/2023 6:15:00 PM 12.33 54.194 0.447 8.02 3.49 12.4
4/23/2023 6:30:00 PM 12.3 54.14 0.446 8.02 2.05 12.27
4/23/2023 6:45:00 PM 12.24 54.032 0.448 8.01 1.84 12.06
4/23/2023 7:00:00 PM 12.17 53.906 0.448 8 2.64 11.83
4/23/2023 7:15:00 PM 12.11 53.798 0.447 7.99 2.35 11.55
4/23/2023 7:30:00 PM 12.03 53.654 0.448 7.96 1.96 11.28
4/23/2023 7:45:00 PM 11.96 53.528 0.448 7.94 2.38 11.02
4/23/2023 8:00:00 PM 11.88 53.384 0.448 7.92 2.2 10.81
4/23/2023 8:15:00 PM 11.8 53.24 0.449 7.89 2.29 10.62
4/23/2023 8:30:00 PM 11.73 53.114 0.449 7.87 2.08 10.41
4/23/2023 8:45:00 PM 11.66 52.988 0.45 7.85 2.51 10.24
4/23/2023 9:00:00 PM 11.59 52.862 0.451 7.83 2.64 10.05
4/23/2023 9:15:00 PM 11.53 52.754 0.449 7.81 2.76 9.91
4/23/2023 9:30:00 PM 11.47 52.646 0.449 7.78 10.77 9.76
4/23/2023 9:45:00 PM 11.42 52.556 0.449 7.77 2.79 9.64
4/23/2023 10:00:00 PM 11.37 52.466 0.449 7.76 3.04 9.55
4/23/2023 10:15:00 PM 11.31 52.358 0.449 7.74 2.92 9.47
4/23/2023 10:30:00 PM 11.26 52.268 0.449 7.72 3.14 9.41
4/23/2023 10:45:00 PM 11.21 52.178 0.449 7.71 3.8 9.33
4/23/2023 11:00:00 PM 11.14 52.052 0.449 7.7 3.13 9.28
4/23/2023 11:15:00 PM 11.07 51.926 0.448 7.69 2.62 9.23
4/23/2023 11:30:00 PM 10.99 51.782 0.449 7.67 4.84 9.19
4/23/2023 11:45:00 PM 10.92 51.656 0.449 7.66 3.37 9.13
4/24/2023 12:00:00 AM 10.85 51.53 0.449 7.64 6.29 9.08
4/24/2023 12:15:00 AM 10.77 51.386 0.449 7.63 3.33 9.06
4/24/2023 12:30:00 AM 10.7 51.26 0.449 7.62 3.02 9
4/24/2023 12:45:00 AM 10.62 51.116 0.449 7.61 3.02 8.96
4/24/2023 1:00:00 AM 10.54 50.972 0.45 7.6 3.02 8.92
4/24/2023 1:15:00 AM 10.46 50.828 0.45 7.59 3.85 8.91
4/24/2023 1:30:00 AM 10.39 50.702 0.45 7.58 3.3 8.91
4/24/2023 1:45:00 AM 10.3 50.54 0.451 7.57 3.92 8.89
4/24/2023 2:00:00 AM 10.22 50.396 0.451 7.57 2.83 8.87
4/24/2023 2:15:00 AM 10.13 50.234 0.451 7.56 4.15 8.87
4/24/2023 2:30:00 AM 10.04 50.072 0.452 7.56 3.88 8.89
4/24/2023 2:45:00 AM 9.95 49.91 0.452 7.55 3.37 8.85
4/24/2023 3:00:00 AM 9.86 49.748 0.453 7.55 4.14 8.89
4/24/2023 3:15:00 AM 9.77 49.586 0.454 7.55 3.43 8.88
4/24/2023 3:30:00 AM 9.68 49.424 0.454 7.54 3.51 8.89
4/24/2023 3:45:00 AM 9.6 49.28 0.455 7.54 3.41 8.91
4/24/2023 4:00:00 AM 9.51 49.118 0.455 7.53 3.9 8.92
4/24/2023 4:15:00 AM 9.42 48.956 0.456 7.53 3.25 8.98
4/24/2023 4:30:00 AM 9.34 48.812 0.457 7.54 3.25 8.97
4/24/2023 4:45:00 AM 9.25 48.65 0.459 7.53 3.29 8.98
4/24/2023 5:00:00 AM 9.16 48.488 0.46 7.53 2.86 9.04
4/24/2023 5:15:00 AM 9.08 48.344 0.461 7.53 2.7 9.06
4/24/2023 5:30:00 AM 8.98 48.164 0.462 7.52 3.91 9.06
4/24/2023 5:45:00 AM 8.9 48.02 0.463 7.53 2.66 9.09
4/24/2023 6:00:00 AM 8.81 47.858 0.464 7.54 2.5 9.15
4/24/2023 6:15:00 AM 8.72 47.696 0.465 7.53 2.69 9.19
4/24/2023 6:30:00 AM 8.63 47.534 0.465 7.53 3.17 9.18
4/24/2023 6:45:00 AM 8.55 47.39 0.466 7.53 3.11 9.29
4/24/2023 7:00:00 AM 8.48 47.264 0.466 7.53 3.18 9.39
4/24/2023 7:15:00 AM 8.42 47.156 0.467 7.53 2.45 9.48
4/24/2023 7:30:00 AM 8.37 47.066 0.467 7.54 2.56 9.6
4/24/2023 7:45:00 AM 8.34 47.012 0.467 7.54 2.63 9.75
4/24/2023 8:00:00 AM 8.32 46.976 0.468 7.55 2.26 9.99
4/24/2023 8:15:00 AM 8.32 46.976 0.468 7.56 2 10.14
4/24/2023 8:30:00 AM 8.35 47.03 0.468 7.57 2.32 10.33
4/24/2023 8:45:00 AM 8.39 47.102 0.468 7.58 2.25 10.54
4/24/2023 9:00:00 AM 8.46 47.228 0.468 7.6 2.54 10.74
4/24/2023 9:15:00 AM 8.54 47.372 0.468 7.61 3.04 10.95
4/24/2023 9:30:00 AM 8.65 47.57 0.468 7.63 2.3 11.18
4/24/2023 9:45:00 AM 8.74 47.732 0.468 7.64 1.96 11.36
4/24/2023 10:00:00 AM 8.83 47.894 0.468 7.66 2.05 11.59
4/24/2023 10:15:00 AM 8.94 48.092 0.468 7.67 1.99 11.86
4/24/2023 10:30:00 AM 9.1 48.38 0.468 7.7 2 12.06
4/24/2023 10:45:00 AM 9.31 48.758 0.468 7.72 2.1 12.29
4/24/2023 11:00:00 AM 9.51 49.118 0.467 7.74 1.97 12.52
4/24/2023 11:15:00 AM 9.7 49.46 0.467 7.76 3.06 12.66
4/24/2023 11:30:00 AM 9.94 49.892 0.466 7.77 1.94 12.82
4/24/2023 11:45:00 AM 10.12 50.216 0.466 7.79 2.18 12.95
4/24/2023 12:00:00 PM 10.23 50.414 0.466 7.81 2.14 13.09
4/24/2023 12:15:00 PM 10.24 50.432 0.465 7.82 2.13 13.12
4/24/2023 12:30:00 PM 10.35 50.63 0.464 7.84 2.41 13.21
4/24/2023 12:45:00 PM 10.52 50.936 0.464 7.86 2.49 13.31
4/24/2023 1:00:00 PM 10.49 50.882 0.462 7.87 1.96 13.27
4/24/2023 1:15:00 PM 10.69 51.242 0.462 7.88 2.01 13.39
4/24/2023 1:30:00 PM 10.97 51.746 0.462 7.89 1.97 13.5
4/24/2023 1:45:00 PM 11.13 52.034 0.461 7.91 2.73 13.59
4/24/2023 2:00:00 PM 11.44 52.592 0.459 7.93 2.91 13.73
4/24/2023 2:15:00 PM 11.53 52.754 0.461 7.94 1.95 13.78
4/24/2023 2:30:00 PM 11.69 53.042 0.459 7.96 2.14 13.85
4/24/2023 2:45:00 PM 11.66 52.988 0.461 7.97 2.09 13.76
4/24/2023 3:00:00 PM 11.73 53.114 0.46 7.98 4.28 13.81
4/24/2023 3:15:00 PM 11.91 53.438 0.455 7.99 1.89 13.84
4/24/2023 3:30:00 PM 11.93 53.474 0.443 8.02 1.85 13.79
4/24/2023 3:45:00 PM 12.01 53.618 0.437 8.02 1.93 13.76
4/24/2023 4:00:00 PM 12.01 53.618 0.441 8.03 1.89 13.69
4/24/2023 4:15:00 PM 11.98 53.564 0.439 8.02 2.33 13.53
4/24/2023 4:30:00 PM 11.99 53.582 0.438 8.02 2.76 13.42
4/24/2023 4:45:00 PM 12.02 53.636 0.439 8.03 1.88 13.28
4/24/2023 5:00:00 PM 12.03 53.654 0.437 8.02 1.84 13.15
4/24/2023 5:15:00 PM 12.07 53.726 0.438 8.02 1.82 13.06
4/24/2023 5:30:00 PM 12.1 53.78 0.438 8.03 1.96 12.99
4/24/2023 5:45:00 PM 12.11 53.798 0.436 8.02 1.87 12.8
4/24/2023 6:00:00 PM 12.17 53.906 0.436 8.01 3.03 12.73
4/24/2023 6:15:00 PM 12.17 53.906 0.431 8.01 5.09 12.61
4/24/2023 6:30:00 PM 12.12 53.816 0.428 8.01 1.96 12.31
4/24/2023 6:45:00 PM 12.07 53.726 0.429 8.01 1.94 12.05
4/24/2023 7:00:00 PM 12.01 53.618 0.429 7.98 1.97 11.81
4/24/2023 7:15:00 PM 11.95 53.51 0.429 7.95 2.05 11.53
4/24/2023 7:30:00 PM 11.92 53.456 0.432 7.93 2.08 11.25
4/24/2023 7:45:00 PM 11.9 53.42 0.443 7.91 2.25 10.97
4/24/2023 8:00:00 PM 11.87 53.366 0.44 7.9 2.05 10.73
4/24/2023 8:15:00 PM 11.84 53.312 0.44 7.88 1.84 10.49
4/24/2023 8:30:00 PM 11.81 53.258 0.442 7.86 2.16 10.29
4/24/2023 8:45:00 PM 11.78 53.204 0.442 7.82 2.6 10.09
4/24/2023 9:00:00 PM 11.73 53.114 0.442 7.8 2.17 9.91
4/24/2023 9:15:00 PM 11.68 53.024 0.443 7.78 2.42 9.73
4/24/2023 9:30:00 PM 11.63 52.934 0.443 7.76 3.08 9.58
4/24/2023 9:45:00 PM 11.56 52.808 0.443 7.75 2.6 9.49
4/24/2023 10:00:00 PM 11.51 52.718 0.444 7.73 2.61 9.36
4/24/2023 10:15:00 PM 11.46 52.628 0.444 7.73 4.03 9.33
4/24/2023 10:30:00 PM 11.39 52.502 0.444 7.71 3.14 9.26
4/24/2023 10:45:00 PM 11.33 52.394 0.444 7.69 2.88 9.19
4/24/2023 11:00:00 PM 11.27 52.286 0.444 7.67 2.64 9.09
4/24/2023 11:15:00 PM 11.21 52.178 0.444 7.66 3.12 9.01
4/24/2023 11:30:00 PM 11.14 52.052 0.444 7.65 2.49 8.99
4/24/2023 11:45:00 PM 11.06 51.908 0.445 7.64 3.85 8.92
4/25/2023 12:00:00 AM 10.98 51.764 0.445 7.63 2.54 8.88
4/25/2023 12:15:00 AM 10.89 51.602 0.445 7.62 3.25 8.87
4/25/2023 12:30:00 AM 10.8 51.44 0.445 7.61 2.51 8.82
4/25/2023 12:45:00 AM 10.72 51.296 0.445 7.61 5.22 8.81
4/25/2023 1:00:00 AM 10.63 51.134 0.445 7.59 3.31 8.8
4/25/2023 1:15:00 AM 10.55 50.99 0.445 7.58 2.41 8.76
4/25/2023 1:30:00 AM 10.47 50.846 0.446 7.57 2.83 8.75
4/25/2023 1:45:00 AM 10.38 50.684 0.446 7.58 3.58 8.72
4/25/2023 2:00:00 AM 10.29 50.522 0.446 7.56 2.73 8.74
4/25/2023 2:15:00 AM 10.2 50.36 0.447 7.56 2.73 8.71
4/25/2023 2:30:00 AM 10.1 50.18 0.447 7.55 3.94 8.74
4/25/2023 2:45:00 AM 10 50 0.447 7.55 2.87 8.75
4/25/2023 3:00:00 AM 9.91 49.838 0.448 7.55 2.99 8.71
4/25/2023 3:15:00 AM 9.81 49.658 0.449 7.54 3.16 8.72
4/25/2023 3:30:00 AM 9.73 49.514 0.449 7.53 3.42 8.8
4/25/2023 3:45:00 AM 9.64 49.352 0.45 7.53 2.58 8.79
4/25/2023 4:00:00 AM 9.55 49.19 0.451 7.53 3.07 8.8
4/25/2023 4:15:00 AM 9.45 49.01 0.452 7.52 2.43 8.8
4/25/2023 4:30:00 AM 9.37 48.866 0.453 7.52 3.18 8.82
4/25/2023 4:45:00 AM 9.27 48.686 0.454 7.52 4.89 8.83
4/25/2023 5:00:00 AM 9.18 48.524 0.455 7.52 2.88 8.85
4/25/2023 5:15:00 AM 9.09 48.362 0.456 7.52 3.49 8.93
4/25/2023 5:30:00 AM 9 48.2 0.457 7.52 2.77 8.93
4/25/2023 5:45:00 AM 8.91 48.038 0.458 7.52 2.73 8.96
4/25/2023 6:00:00 AM 8.82 47.876 0.459 7.51 2.39 9.03
4/25/2023 6:15:00 AM 8.73 47.714 0.461 7.52 2.48 9.09
4/25/2023 6:30:00 AM 8.65 47.57 0.462 7.52 2.5 9.12
4/25/2023 6:45:00 AM 8.56 47.408 0.463 7.51 2.89 9.18
4/25/2023 7:00:00 AM 8.48 47.264 0.463 7.52 2.45 9.26
4/25/2023 7:15:00 AM 8.42 47.156 0.464 7.52 2.36 9.33
4/25/2023 7:30:00 AM 8.37 47.066 0.465 7.52 2.5 9.45
4/25/2023 7:45:00 AM 8.34 47.012 0.465 7.53 3.16 9.62
4/25/2023 8:00:00 AM 8.33 46.994 0.466 7.54 3.83 9.84
4/25/2023 8:15:00 AM 8.33 46.994 0.466 7.55 2.22 10.03
4/25/2023 8:30:00 AM 8.36 47.048 0.466 7.56 2.32 10.26
4/25/2023 8:45:00 AM 8.41 47.138 0.466 7.57 2.85 10.44
4/25/2023 9:00:00 AM 8.47 47.246 0.466 7.59 2.15 10.71
4/25/2023 9:15:00 AM 8.55 47.39 0.466 7.6 2.05 10.93
4/25/2023 9:30:00 AM 8.64 47.552 0.466 7.62 2.45 11.15
4/25/2023 9:45:00 AM 8.75 47.75 0.466 7.64 2.73 11.39
4/25/2023 10:00:00 AM 8.87 47.966 0.466 7.66 1.95 11.54
4/25/2023 10:15:00 AM 9.01 48.218 0.466 7.67 2.21 11.78
4/25/2023 10:30:00 AM 9.18 48.524 0.466 7.69 2.13 11.99
4/25/2023 10:45:00 AM 9.33 48.794 0.466 7.71 2.04 12.23
4/25/2023 11:00:00 AM 9.5 49.1 0.465 7.73 2.07 12.43
4/25/2023 11:15:00 AM 9.71 49.478 0.465 7.74 1.83 12.64
4/25/2023 11:30:00 AM 9.82 49.676 0.465 7.76 1.96 12.8
4/25/2023 11:45:00 AM 10.01 50.018 0.464 7.77 2.37 12.86
4/25/2023 12:00:00 PM 10.15 50.27 0.464 7.8 1.94 12.95
4/25/2023 12:15:00 PM 10.34 50.612 0.463 7.81 1.88 13.05
4/25/2023 12:30:00 PM 10.58 51.044 0.462 7.83 2.06 13.27
4/25/2023 12:45:00 PM 10.91 51.638 0.461 7.84 3.86 13.38
4/25/2023 1:00:00 PM 11.2 52.16 0.461 7.86 2.16 13.5
4/25/2023 1:15:00 PM 11.56 52.808 0.459 7.88 2.61 13.71
4/25/2023 1:30:00 PM 11.7 53.06 0.458 7.89 2.55 13.8
4/25/2023 1:45:00 PM 11.87 53.366 0.456 7.91 2.52 13.84
4/25/2023 2:00:00 PM 12 53.6 0.454 7.93 1.8 13.89
4/25/2023 2:15:00 PM 12.16 53.888 0.452 7.93 1.92 13.94
4/25/2023 2:30:00 PM 12.17 53.906 0.451 7.95 2.24 13.83
4/25/2023 2:45:00 PM 12.28 54.104 0.448 7.95 2.44 13.84
4/25/2023 3:00:00 PM 12.36 54.248 0.446 7.97 1.96 13.76
4/25/2023 3:15:00 PM 12.67 54.806 0.446 7.98 2.33 13.88
4/25/2023 3:30:00 PM 12.95 55.31 0.444 7.99 1.92 13.86
4/25/2023 3:45:00 PM 13.15 55.67 0.443 8 2.16 13.96
4/25/2023 4:00:00 PM 13.36 56.048 0.441 8.01 2.08 13.94
4/25/2023 4:15:00 PM 13.28 55.904 0.43 8.01 2.24 13.71
4/25/2023 4:30:00 PM 13.19 55.742 0.453 8.01 1.98 13.48
4/25/2023 4:45:00 PM 13.29 55.922 0.458 8.01 2.59 13.45
4/25/2023 5:00:00 PM 13.33 55.994 0.455 8.01 2.07 13.24
4/25/2023 5:15:00 PM 13.43 56.174 0.452 8.01 2.25 13.14
4/25/2023 5:30:00 PM 13.51 56.318 0.449 8.02 2.01 13.06
4/25/2023 5:45:00 PM 13.59 56.462 0.446 8.02 1.78 12.98
4/25/2023 6:00:00 PM 13.59 56.462 0.446 8.02 2.04 12.78
4/25/2023 6:15:00 PM 13.57 56.426 0.444 8.01 2.27 12.56
4/25/2023 6:30:00 PM 13.52 56.336 0.442 8 1.99 12.35
4/25/2023 6:45:00 PM 13.43 56.174 0.443 7.99 1.98 12.04
4/25/2023 7:00:00 PM 13.38 56.084 0.445 7.97 2.91 11.79
4/25/2023 7:15:00 PM 13.31 55.958 0.444 7.95 2.27 11.52
4/25/2023 7:30:00 PM 13.24 55.832 0.444 7.93 2.2 11.22
4/25/2023 7:45:00 PM 13.17 55.706 0.445 7.91 2.5 10.95
4/25/2023 8:00:00 PM 13.12 55.616 0.445 7.89 2.66 10.65
4/25/2023 8:15:00 PM 13.07 55.526 0.445 7.86 2.34 10.29
4/25/2023 8:30:00 PM 13.02 55.436 0.446 7.83 2.91 10.08
4/25/2023 8:45:00 PM 12.99 55.382 0.447 7.8 3.24 9.81
4/25/2023 9:00:00 PM 12.98 55.364 0.445 7.77 3.23 9.6
4/25/2023 9:15:00 PM 12.94 55.292 0.445 7.75 3.13 9.41
4/25/2023 9:30:00 PM 12.9 55.22 0.446 7.74 2.88 9.25
4/25/2023 9:45:00 PM 12.84 55.112 0.446 7.72 3.57 9.14
4/25/2023 10:00:00 PM 12.78 55.004 0.446 7.7 2.58 9.02
4/25/2023 10:15:00 PM 12.72 54.896 0.446 7.68 2.53 8.89
4/25/2023 10:30:00 PM 12.66 54.788 0.446 7.67 2.55 8.79
4/25/2023 10:45:00 PM 12.62 54.716 0.446 7.66 2.99 8.7
4/25/2023 11:00:00 PM 12.57 54.626 0.446 7.63 6.33 8.59
4/25/2023 11:15:00 PM 12.51 54.518 0.446 7.62 2.36 8.54
4/25/2023 11:30:00 PM 12.45 54.41 0.446 7.61 2.46 8.43
4/25/2023 11:45:00 PM 12.39 54.302 0.446 7.6 2.55 8.42
4/26/2023 12:00:00 AM 12.35 54.23 0.445 7.59 2.9 8.38
4/26/2023 12:15:00 AM 12.29 54.122 0.445 7.58 3.09 8.35
4/26/2023 12:30:00 AM 12.23 54.014 0.445 7.57 4 8.27
4/26/2023 12:45:00 AM 12.19 53.942 0.447 7.56 2.74 8.26
4/26/2023 1:00:00 AM 12.15 53.87 0.446 7.55 3.1 8.2
4/26/2023 1:15:00 AM 12.1 53.78 0.444 7.54 3.09 8.17
4/26/2023 1:30:00 AM 12.06 53.708 0.447 7.54 6.32 8.13
4/26/2023 1:45:00 AM 12.01 53.618 0.447 7.53 2.98 8.1
4/26/2023 2:00:00 AM 11.96 53.528 0.447 7.52 3.5 8.1
4/26/2023 2:15:00 AM 11.9 53.42 0.448 7.52 2.9 8.06
4/26/2023 2:30:00 AM 11.85 53.33 0.45 7.5 2.61 8.05
4/26/2023 2:45:00 AM 11.79 53.222 0.453 7.5 3.02 8.06
4/26/2023 3:00:00 AM 11.72 53.096 0.457 7.5 3.31 8.01
4/26/2023 3:15:00 AM 11.66 52.988 0.458 7.5 3.59 8
4/26/2023 3:30:00 AM 11.59 52.862 0.457 7.49 3.34 8
4/26/2023 3:45:00 AM 11.53 52.754 0.456 7.48 2.89 8
4/26/2023 4:00:00 AM 11.45 52.61 0.454 7.48 2.96 8.01
4/26/2023 4:15:00 AM 11.4 52.52 0.453 7.48 2.55 8.02
4/26/2023 4:30:00 AM 11.34 52.412 0.453 7.47 2.53 8.04
4/26/2023 4:45:00 AM 11.28 52.304 0.453 7.47 2.33 8.06
4/26/2023 5:00:00 AM 11.21 52.178 0.454 7.47 2.66 8.06
4/26/2023 5:15:00 AM 11.15 52.07 0.454 7.47 2.68 8.08
4/26/2023 5:30:00 AM 11.08 51.944 0.455 7.46 3.57 8.12
4/26/2023 5:45:00 AM 11 51.8 0.456 7.47 2.53 8.1
4/26/2023 6:00:00 AM 10.93 51.674 0.457 7.47 2.54 8.16
4/26/2023 6:15:00 AM 10.84 51.512 0.458 7.47 2.5 8.19
4/26/2023 6:30:00 AM 10.77 51.386 0.459 7.47 2.25 8.2
4/26/2023 6:45:00 AM 10.68 51.224 0.46 7.48 2.32 8.3
4/26/2023 7:00:00 AM 10.62 51.116 0.461 7.48 2.83 8.4
4/26/2023 7:15:00 AM 10.56 51.008 0.462 7.48 3.09 8.5
4/26/2023 7:30:00 AM 10.5 50.9 0.463 7.49 2.51 8.64
4/26/2023 7:45:00 AM 10.46 50.828 0.464 7.5 2.26 8.83
4/26/2023 8:00:00 AM 10.43 50.774 0.465 7.52 2.39 9.01
4/26/2023 8:15:00 AM 10.41 50.738 0.465 7.53 2.45 9.27
4/26/2023 8:30:00 AM 10.42 50.756 0.466 7.55 3.35 9.51
4/26/2023 8:45:00 AM 10.46 50.828 0.466 7.55 2.12 9.78
4/26/2023 9:00:00 AM 10.51 50.918 0.466 7.57 2.18 10.03
4/26/2023 9:15:00 AM 10.58 51.044 0.466 7.59 2.38 10.25
4/26/2023 9:30:00 AM 10.65 51.17 0.466 7.62 2.02 10.48
4/26/2023 9:45:00 AM 10.76 51.368 0.466 7.63 2.5 10.71
4/26/2023 10:00:00 AM 10.89 51.602 0.467 7.65 2.18 11.01
4/26/2023 10:15:00 AM 11.02 51.836 0.466 7.66 1.95 11.27
4/26/2023 10:30:00 AM 11.19 52.142 0.467 7.68 2.38 11.52
4/26/2023 10:45:00 AM 11.37 52.466 0.466 7.7 1.99 11.77
4/26/2023 11:00:00 AM 11.53 52.754 0.466 7.73 2.18 12.01
4/26/2023 11:15:00 AM 11.71 53.078 0.466 7.75 2.22 12.23
4/26/2023 11:30:00 AM 11.83 53.294 0.465 7.77 1.71 12.38
4/26/2023 11:45:00 AM 12.07 53.726 0.465 7.8 2.53 12.65
4/26/2023 12:00:00 PM 12.31 54.158 0.464 7.82 2.04 12.81
4/26/2023 12:15:00 PM 12.58 54.644 0.463 7.83 7.67 13.03
4/26/2023 12:30:00 PM 12.71 54.878 0.463 7.85 4.33 13.12
4/26/2023 12:45:00 PM 12.93 55.274 0.462 7.86 2.21 13.22
4/26/2023 1:00:00 PM 12.95 55.31 0.462 7.88 2.1 13.18
4/26/2023 1:15:00 PM 12.92 55.256 0.463 7.88 2.18 13
4/26/2023 1:30:00 PM 13.1 55.58 0.461 7.89 2.24 13.03
4/26/2023 1:45:00 PM 13.11 55.598 0.462 7.89 2.63 13.03
4/26/2023 2:00:00 PM 13.24 55.832 0.46 7.9 3.47 13.11
4/26/2023 2:15:00 PM 13.53 56.354 0.458 7.92 2.26 13.3
4/26/2023 2:30:00 PM 13.81 56.858 0.456 7.93 2.12 13.46
4/26/2023 2:45:00 PM 14.02 57.236 0.453 7.96 2.7 13.6
4/26/2023 3:00:00 PM 14.18 57.524 0.447 7.97 2.66 13.72
4/26/2023 3:15:00 PM 14.25 57.65 0.447 7.98 5.55 13.61
4/26/2023 3:30:00 PM 14.32 57.776 0.449 7.99 2.37 13.58
4/26/2023 3:45:00 PM 14.45 58.01 0.447 8 4.3 13.59
4/26/2023 4:00:00 PM 14.43 57.974 0.447 8.01 2.24 13.47
4/26/2023 4:15:00 PM 14.49 58.082 0.45 8.01 2.55 13.46
4/26/2023 4:30:00 PM 14.54 58.172 0.451 8.02 2.14 13.4
4/26/2023 4:45:00 PM 14.57 58.226 0.447 8.01 2.42 13.29
4/26/2023 5:00:00 PM 14.57 58.226 0.452 8 1.97 13.01
4/26/2023 5:15:00 PM 14.59 58.262 0.449 8.01 2.07 12.87
4/26/2023 5:30:00 PM 14.57 58.226 0.448 8.01 2.34 12.73
4/26/2023 5:45:00 PM 14.55 58.19 0.447 8.01 2.15 12.48
4/26/2023 6:00:00 PM 14.56 58.208 0.446 8 2.19 12.15
4/26/2023 6:15:00 PM 14.57 58.226 0.446 7.99 2.06 11.9
4/26/2023 6:30:00 PM 14.57 58.226 0.445 7.97 2.17 11.57
4/26/2023 6:45:00 PM 14.56 58.208 0.446 7.95 2.37 11.21
4/26/2023 7:00:00 PM 14.54 58.172 0.446 7.92 2.71 10.89
4/26/2023 7:15:00 PM 14.51 58.118 0.447 7.91 2.26 10.61
4/26/2023 7:30:00 PM 14.49 58.082 0.447 7.88 2.16 10.36
4/26/2023 7:45:00 PM 14.46 58.028 0.447 7.86 4.82 10.07
4/26/2023 8:00:00 PM 14.41 57.938 0.448 7.83 2.12 9.84
4/26/2023 8:15:00 PM 14.39 57.902 0.448 7.8 3.03 9.6
4/26/2023 8:30:00 PM 14.35 57.83 0.448 7.77 2.49 9.34
4/26/2023 8:45:00 PM 14.31 57.758 0.449 7.75 2.57 9.11
4/26/2023 9:00:00 PM 14.27 57.686 0.449 7.73 3.86 8.92
4/26/2023 9:15:00 PM 14.23 57.614 0.449 7.72 2.63 8.74
4/26/2023 9:30:00 PM 14.19 57.542 0.449 7.69 2.65 8.58
4/26/2023 9:45:00 PM 14.15 57.47 0.449 7.67 2.89 8.48
4/26/2023 10:00:00 PM 14.11 57.398 0.449 7.65 2.64 8.34
4/26/2023 10:15:00 PM 14.07 57.326 0.45 7.64 3.28 8.26
4/26/2023 10:30:00 PM 14.02 57.236 0.45 7.63 2.59 8.17
4/26/2023 10:45:00 PM 13.97 57.146 0.45 7.62 3.05 8.07
4/26/2023 11:00:00 PM 13.91 57.038 0.45 7.6 2.68 7.99
4/26/2023 11:15:00 PM 13.86 56.948 0.45 7.59 2.46 7.95
4/26/2023 11:30:00 PM 13.81 56.858 0.45 7.58 2.87 7.81
4/26/2023 11:45:00 PM 13.73 56.714 0.449 7.56 2.48 7.77
4/27/2023 12:00:00 AM 13.66 56.588 0.449 7.55 4.66 7.72
4/27/2023 12:15:00 AM 13.58 56.444 0.449 7.54 2.39 7.64
4/27/2023 12:30:00 AM 13.51 56.318 0.449 7.53 2.49 7.58
4/27/2023 12:45:00 AM 13.42 56.156 0.449 7.52 2.79 7.59
4/27/2023 1:00:00 AM 13.33 55.994 0.449 7.51 2.68 7.55
4/27/2023 1:15:00 AM 13.25 55.85 0.449 7.5 3.25 7.53
4/27/2023 1:30:00 AM 13.18 55.724 0.449 7.49 2.7 7.54
4/27/2023 1:45:00 AM 13.1 55.58 0.449 7.49 2.49 7.53
4/27/2023 2:00:00 AM 13.03 55.454 0.449 7.48 2.81 7.5
4/27/2023 2:15:00 AM 12.94 55.292 0.45 7.47 4.08 7.45
4/27/2023 2:30:00 AM 12.86 55.148 0.45 7.47 2.9 7.48
4/27/2023 2:45:00 AM 12.77 54.986 0.45 7.46 2.52 7.46
4/27/2023 3:00:00 AM 12.68 54.824 0.45 7.46 2.5 7.5
4/27/2023 3:15:00 AM 12.59 54.662 0.452 7.46 3.04 7.51
4/27/2023 3:30:00 AM 12.5 54.5 0.452 7.46 2.89 7.55
4/27/2023 3:45:00 AM 12.42 54.356 0.453 7.45 2.8 7.53
4/27/2023 4:00:00 AM 12.34 54.212 0.453 7.46 2.55 7.58
4/27/2023 4:15:00 AM 12.26 54.068 0.454 7.46 2.92 7.6
4/27/2023 4:30:00 AM 12.19 53.942 0.455 7.46 2.32 7.63
4/27/2023 4:45:00 AM 12.13 53.834 0.456 7.45 2.52 7.64
4/27/2023 5:00:00 AM 12.06 53.708 0.457 7.45 2.44 7.66
4/27/2023 5:15:00 AM 12 53.6 0.458 7.44 2.5 7.7
4/27/2023 5:30:00 AM 11.94 53.492 0.459 7.44 2.39 7.72
4/27/2023 5:45:00 AM 11.88 53.384 0.461 7.44 3.83 7.73
4/27/2023 6:00:00 AM 11.82 53.276 0.462 7.44 2.66 7.76
4/27/2023 6:15:00 AM 11.74 53.132 0.463 7.44 1.79 7.81
4/27/2023 6:30:00 AM 11.67 53.006 0.464 7.44 2.19 7.84
4/27/2023 6:45:00 AM 11.61 52.898 0.465 7.45 2.12 7.87
4/27/2023 7:00:00 AM 11.54 52.772 0.466 7.46 2.74 7.96
4/27/2023 7:15:00 AM 11.49 52.682 0.467 7.46 2.28 8.05
4/27/2023 7:30:00 AM 11.45 52.61 0.468 7.45 2.77 8.18
4/27/2023 7:45:00 AM 11.43 52.574 0.469 7.46 2.57 8.33
4/27/2023 8:00:00 AM 11.4 52.52 0.47 7.47 3.63 8.53
4/27/2023 8:15:00 AM 11.39 52.502 0.47 7.49 2 8.79
4/27/2023 8:30:00 AM 11.4 52.52 0.47 7.5 4.51 9.04
4/27/2023 8:45:00 AM 11.42 52.556 0.47 7.52 2.36 9.34
4/27/2023 9:00:00 AM 11.43 52.574 0.471 7.53 2.37 9.66
4/27/2023 9:15:00 AM 11.44 52.592 0.471 7.55 2.26 9.93
4/27/2023 9:30:00 AM 11.47 52.646 0.471 7.57 2.04 10.16
4/27/2023 9:45:00 AM 11.51 52.718 0.472 7.59 2.39 10.4
4/27/2023 10:00:00 AM 11.65 52.97 0.471 7.61 2.1 10.66
4/27/2023 10:15:00 AM 11.79 53.222 0.471 7.62 2.05 10.9
4/27/2023 10:30:00 AM 11.93 53.474 0.471 7.64 1.83 11.16
4/27/2023 10:45:00 AM 11.91 53.438 0.471 7.66 1.99 11.21
4/27/2023 11:00:00 AM 11.92 53.456 0.472 7.67 1.83 11.32
4/27/2023 11:15:00 AM 11.94 53.492 0.472 7.68 1.95 11.41
4/27/2023 11:30:00 AM 12 53.6 0.472 7.69 1.88 11.51
4/27/2023 11:45:00 AM 12 53.6 0.472 7.71 1.95 11.55
4/27/2023 12:00:00 PM 12.26 54.068 0.472 7.72 2.14 11.79
4/27/2023 12:15:00 PM 12.72 54.896 0.471 7.74 2.12 12.2
4/27/2023 12:30:00 PM 13.19 55.742 0.47 7.77 1.77 12.65
4/27/2023 12:45:00 PM 13.57 56.426 0.469 7.8 1.91 12.92
4/27/2023 1:00:00 PM 13.66 56.588 0.469 7.82 2.21 13.01
4/27/2023 1:15:00 PM 13.99 57.182 0.468 7.84 2.05 13.15
4/27/2023 1:30:00 PM 14.3 57.74 0.467 7.86 2.47 13.25
4/27/2023 1:45:00 PM 14.61 58.298 0.466 7.87 1.96 13.37
4/27/2023 2:00:00 PM 14.87 58.766 0.465 7.89 1.82 13.48
4/27/2023 2:15:00 PM 15.17 59.306 0.464 7.91 2.54 13.57
4/27/2023 2:30:00 PM 15.42 59.756 0.461 7.93 2.4 13.73
4/27/2023 2:45:00 PM 15.62 60.116 0.459 7.95 2.39 13.77
4/27/2023 3:00:00 PM 15.81 60.458 0.455 7.97 1.94 13.84
4/27/2023 3:15:00 PM 15.97 60.746 0.452 7.99 3.35 13.82
4/27/2023 3:30:00 PM 16.13 61.034 0.451 8 1.93 13.86
4/27/2023 3:45:00 PM 16.18 61.124 0.45 8.01 1.88 13.73
4/27/2023 4:00:00 PM 16.26 61.268 0.451 8.02 2.14 13.62
4/27/2023 4:15:00 PM 16.29 61.322 0.451 8.02 1.89 13.55
4/27/2023 4:30:00 PM 16.34 61.412 0.455 8.01 2.58 13.42
4/27/2023 4:45:00 PM 16.33 61.394 0.453 8.02 2.3 13.26
4/27/2023 5:00:00 PM 16.39 61.502 0.45 8.03 2.39 13.16
4/27/2023 5:15:00 PM 16.41 61.538 0.45 8.04 2.21 13.09
4/27/2023 5:30:00 PM 16.46 61.628 0.452 8.04 2.2 12.92
4/27/2023 5:45:00 PM 16.44 61.592 0.45 8.04 2.22 12.69
4/27/2023 6:00:00 PM 16.45 61.61 0.448 8.03 2.31 12.52
4/27/2023 6:15:00 PM 16.43 61.574 0.449 8.03 2.05 12.27
4/27/2023 6:30:00 PM 16.39 61.502 0.448 8.02 2.83 11.93
4/27/2023 6:45:00 PM 16.32 61.376 0.449 8 2.78 11.6
4/27/2023 7:00:00 PM 16.25 61.25 0.447 7.99 2.23 11.26
4/27/2023 7:15:00 PM 16.19 61.142 0.449 7.97 2.69 10.9
4/27/2023 7:30:00 PM 16.12 61.016 0.449 7.94 2.62 10.6
4/27/2023 7:45:00 PM 16.07 60.926 0.449 7.92 2.1 10.2
4/27/2023 8:00:00 PM 16 60.8 0.449 7.89 2.66 9.87
4/27/2023 8:15:00 PM 15.94 60.692 0.449 7.86 2.24 9.55
4/27/2023 8:30:00 PM 15.89 60.602 0.45 7.83 2.74 9.27
4/27/2023 8:45:00 PM 15.86 60.548 0.449 7.8 2.73 8.94
4/27/2023 9:00:00 PM 15.83 60.494 0.45 7.77 2.68 8.7
4/27/2023 9:15:00 PM 15.78 60.404 0.449 7.74 2.85 8.38
4/27/2023 9:30:00 PM 15.73 60.314 0.449 7.71 2.39 8.22
4/27/2023 9:45:00 PM 15.69 60.242 0.448 7.69 2.71 7.96
4/27/2023 10:00:00 PM 15.65 60.17 0.448 7.66 2.66 7.83
4/27/2023 10:15:00 PM 15.59 60.062 0.445 7.64 2.7 7.71
4/27/2023 10:30:00 PM 15.56 60.008 0.445 7.62 6.17 7.6
4/27/2023 10:45:00 PM 15.5 59.9 0.445 7.61 3.46 7.48
4/27/2023 11:00:00 PM 15.45 59.81 0.446 7.59 2.24 7.39
4/27/2023 11:15:00 PM 15.43 59.774 0.446 7.58 3.6 7.3
4/27/2023 11:30:00 PM 15.39 59.702 0.445 7.56 2.54 7.24
4/27/2023 11:45:00 PM 15.37 59.666 0.444 7.55 2.68 7.13
4/28/2023 12:00:00 AM 15.34 59.612 0.443 7.53 2.53 7.04
4/28/2023 12:15:00 AM 15.31 59.558 0.443 7.52 2.17 7.02
4/28/2023 12:30:00 AM 15.28 59.504 0.435 7.51 2.78 6.97
4/28/2023 12:45:00 AM 15.24 59.432 0.435 7.49 2.68 6.91
4/28/2023 1:00:00 AM 15.18 59.324 0.44 7.49 2.18 6.86
4/28/2023 1:15:00 AM 15.11 59.198 0.442 7.48 3.03 6.82
4/28/2023 1:30:00 AM 15.03 59.054 0.439 7.48 3.99 6.84
4/28/2023 1:45:00 AM 14.97 58.946 0.436 7.47 2.77 6.8
4/28/2023 2:00:00 AM 14.9 58.82 0.442 7.46 6.48 6.72
4/28/2023 2:15:00 AM 14.84 58.712 0.443 7.45 2.63 6.72
4/28/2023 2:30:00 AM 14.79 58.622 0.445 7.45 2.64 6.72
4/28/2023 2:45:00 AM 14.71 58.478 0.446 7.44 4.21 6.72
4/28/2023 3:00:00 AM 14.63 58.334 0.447 7.43 2.5 6.75
4/28/2023 3:15:00 AM 14.57 58.226 0.447 7.43 2.3 6.76
4/28/2023 3:30:00 AM 14.5 58.1 0.448 7.41 2.24 6.68
4/28/2023 3:45:00 AM 14.43 57.974 0.448 7.44 2.48 6.76
4/28/2023 4:00:00 AM 14.36 57.848 0.449 7.43 2.33 6.77
4/28/2023 4:15:00 AM 14.28 57.704 0.451 7.42 2.44 6.78
4/28/2023 4:30:00 AM 14.2 57.56 0.452 7.42 2.66 6.78
4/28/2023 4:45:00 AM 14.12 57.416 0.454 7.41 3.23 6.78
4/28/2023 5:00:00 AM 14.04 57.272 0.456 7.42 2.48 6.81
4/28/2023 5:15:00 AM 13.96 57.128 0.457 7.42 2.32 6.87
4/28/2023 5:30:00 AM 13.88 56.984 0.459 7.41 2.35 6.88
4/28/2023 5:45:00 AM 13.8 56.84 0.46 7.42 2.18 6.92
4/28/2023 6:00:00 AM 13.72 56.696 0.462 7.42 2.28 6.93
4/28/2023 6:15:00 AM 13.63 56.534 0.463 7.42 3.06 6.99
4/28/2023 6:30:00 AM 13.54 56.372 0.465 7.42 2.17 7.01
4/28/2023 6:45:00 AM 13.47 56.246 0.466 7.43 2.18 7.04
4/28/2023 7:00:00 AM 13.4 56.12 0.468 7.42 3.34 7.11
4/28/2023 7:15:00 AM 13.32 55.976 0.469 7.43 2.36 7.17
4/28/2023 7:30:00 AM 13.25 55.85 0.47 7.44 2.28 7.22
4/28/2023 7:45:00 AM 13.17 55.706 0.472 7.45 2.57 7.32
4/28/2023 8:00:00 AM 13.1 55.58 0.473 7.45 2.27 7.37
4/28/2023 8:15:00 AM 13.04 55.472 0.474 7.45 14.65 7.48
4/28/2023 8:30:00 AM 12.98 55.364 0.475 7.45 2.52 7.56
4/28/2023 8:45:00 AM 12.93 55.274 0.476 7.46 2.21 7.69
4/28/2023 9:00:00 AM 12.88 55.184 0.476 7.46 2.1 7.8
4/28/2023 9:15:00 AM 12.82 55.076 0.477 7.47 2.58 7.84
4/28/2023 9:30:00 AM 12.77 54.986 0.478 7.46 2.43 7.94
4/28/2023 9:45:00 AM 12.71 54.878 0.478 7.47 2.31 8
4/28/2023 10:00:00 AM 12.66 54.788 0.483 7.47 2.99 8.06
4/28/2023 10:15:00 AM 12.6 54.68 0.489 7.47 4 8.04
4/28/2023 10:30:00 AM 12.54 54.572 0.501 7.45 5.59 8.11
4/28/2023 10:45:00 AM 12.47 54.446 0.491 7.46 4.43 8.19
4/28/2023 11:00:00 AM 12.42 54.356 0.491 7.46 6.67 8.28
4/28/2023 11:15:00 AM 12.37 54.266 0.489 7.46 6.33 8.39
4/28/2023 11:30:00 AM 12.32 54.176 0.485 7.48 6.6 8.49
4/28/2023 11:45:00 AM 12.28 54.104 0.486 7.48 7.23 8.62
4/28/2023 12:00:00 PM 12.24 54.032 0.484 7.49 8.26 8.81
4/28/2023 12:15:00 PM 12.2 53.96 0.482 7.5 9.19 8.97
4/28/2023 12:30:00 PM 12.16 53.888 0.48 7.52 5.12 9.06
4/28/2023 12:45:00 PM 12.1 53.78 0.478 7.54 3.93 9.13
4/28/2023 1:00:00 PM 12.05 53.69 0.477 7.55 5.7 9.16
4/28/2023 1:15:00 PM 12 53.6 0.475 7.55 3.84 9.23
4/28/2023 1:30:00 PM 11.95 53.51 0.475 7.55 3.42 9.22
4/28/2023 1:45:00 PM 11.91 53.438 0.473 7.55 9.07 9.3
4/28/2023 2:00:00 PM 11.89 53.402 0.473 7.55 4.72 9.41
4/28/2023 2:15:00 PM 11.87 53.366 0.472 7.56 3.76 9.51
4/28/2023 2:30:00 PM 11.85 53.33 0.469 7.57 3.3 9.63
4/28/2023 2:45:00 PM 11.84 53.312 0.464 7.57 3.65 9.77
4/28/2023 3:00:00 PM 11.82 53.276 0.46 7.57 3.52 9.79
4/28/2023 3:15:00 PM 11.81 53.258 0.456 7.57 6.13 9.85
4/28/2023 3:30:00 PM 11.79 53.222 0.453 7.57 5.95 9.8
4/28/2023 3:45:00 PM 11.76 53.168 0.449 7.57 5.66 9.84
4/28/2023 4:00:00 PM 11.74 53.132 0.447 7.57 8.21 9.88
4/28/2023 4:15:00 PM 11.7 53.06 0.455 7.55 18.76 9.73
4/28/2023 4:30:00 PM 11.67 53.006 0.45 7.55 26.37 9.68
4/28/2023 4:45:00 PM 11.65 52.97 0.448 7.54 21.71 9.62
4/28/2023 5:00:00 PM 11.63 52.934 0.443 7.54 12.66 9.61
4/28/2023 5:15:00 PM 11.61 52.898 0.44 7.54 9.33 9.64
4/28/2023 5:30:00 PM 11.58 52.844 0.441 7.55 7.59 9.65
4/28/2023 5:45:00 PM 11.55 52.79 0.441 7.55 8.22 9.69
4/28/2023 6:00:00 PM 11.52 52.736 0.444 7.56 7.58 9.66
4/28/2023 6:15:00 PM 11.49 52.682 0.445 7.56 6.83 9.69
4/28/2023 6:30:00 PM 11.46 52.628 0.445 7.56 6.95 9.66
4/28/2023 6:45:00 PM 11.42 52.556 0.444 7.56 5.15 9.6
4/28/2023 7:00:00 PM 11.38 52.484 0.444 7.56 10.23 9.54
4/28/2023 7:15:00 PM 11.34 52.412 0.443 7.56 5.49 9.47
4/28/2023 7:30:00 PM 11.3 52.34 0.442 7.55 23.23 9.35
4/28/2023 7:45:00 PM 11.26 52.268 0.439 7.54 8.62 9.27
4/28/2023 8:00:00 PM 11.23 52.214 0.434 7.53 6.72 9.19
4/28/2023 8:15:00 PM 11.2 52.16 0.428 7.52 8.41 9.1
4/28/2023 8:30:00 PM 11.18 52.124 0.421 7.51 7.53 9.02
4/28/2023 8:45:00 PM 11.15 52.07 0.417 7.49 8.55 8.99
4/28/2023 9:00:00 PM 11.12 52.016 0.413 7.49 7.95 8.95
4/28/2023 9:15:00 PM 11.08 51.944 0.41 7.48 9.15 8.92
4/28/2023 9:30:00 PM 11.05 51.89 0.41 7.48 10.4 8.93
4/28/2023 9:45:00 PM 11.01 51.818 0.41 7.47 7.97 8.88
4/28/2023 10:00:00 PM 10.97 51.746 0.41 7.47 8.22 8.88
4/28/2023 10:15:00 PM 10.93 51.674 0.411 7.47 8.48 8.85
4/28/2023 10:30:00 PM 10.9 51.62 0.412 7.47 8 8.81
4/28/2023 10:45:00 PM 10.86 51.548 0.413 7.47 7.63 8.83
4/28/2023 11:00:00 PM 10.82 51.476 0.421 7.47 7.67 8.78
4/28/2023 11:15:00 PM 10.79 51.422 0.421 7.47 6.79 8.77
4/28/2023 11:30:00 PM 10.76 51.368 0.419 7.47 7.1 8.73
4/28/2023 11:45:00 PM 10.73 51.314 0.42 7.46 9.74 8.7
4/29/2023 12:00:00 AM 10.7 51.26 0.42 7.46 7.06 8.62
4/29/2023 12:15:00 AM 10.67 51.206 0.419 7.45 7.18 8.63
4/29/2023 12:30:00 AM 10.64 51.152 0.42 7.45 8.16 8.63
4/29/2023 12:45:00 AM 10.62 51.116 0.42 7.45 8.23 8.61
4/29/2023 1:00:00 AM 10.59 51.062 0.421 7.44 7.75 8.59
4/29/2023 1:15:00 AM 10.56 51.008 0.422 7.44 6.66 8.56
4/29/2023 1:30:00 AM 10.53 50.954 0.423 7.44 7.46 8.56
4/29/2023 1:45:00 AM 10.51 50.918 0.424 7.44 6.81 8.63
4/29/2023 2:00:00 AM 10.48 50.864 0.424 7.44 7.35 8.61
4/29/2023 2:15:00 AM 10.45 50.81 0.423 7.45 7.98 8.57
4/29/2023 2:30:00 AM 10.43 50.774 0.423 7.45 7.43 8.64
4/29/2023 2:45:00 AM 10.4 50.72 0.423 7.44 6.86 8.61
4/29/2023 3:00:00 AM 10.38 50.684 0.423 7.44 9.12 8.59
4/29/2023 3:15:00 AM 10.36 50.648 0.423 7.43 6.54 8.61
4/29/2023 3:30:00 AM 10.34 50.612 0.423 7.43 7.18 8.63
4/29/2023 3:45:00 AM 10.32 50.576 0.423 7.43 6.87 8.66
4/29/2023 4:00:00 AM 10.3 50.54 0.425 7.43 7.23 8.6
4/29/2023 4:15:00 AM 10.28 50.504 0.426 7.43 8.82 8.66
4/29/2023 4:30:00 AM 10.26 50.468 0.427 7.43 7.55 8.62
4/29/2023 4:45:00 AM 10.24 50.432 0.428 7.42 6.13 8.65
4/29/2023 5:00:00 AM 10.22 50.396 0.429 7.42 6.2 8.64
4/29/2023 5:15:00 AM 10.21 50.378 0.43 7.42 5.31 8.67
4/29/2023 5:30:00 AM 10.19 50.342 0.431 7.42 6.75 8.67
4/29/2023 5:45:00 AM 10.17 50.306 0.432 7.42 5.36 8.67
4/29/2023 6:00:00 AM 10.16 50.288 0.432 7.43 5.46 8.71
4/29/2023 6:15:00 AM 10.14 50.252 0.433 7.43 5.47 8.71
4/29/2023 6:30:00 AM 10.12 50.216 0.433 7.43 5.38 8.78
4/29/2023 6:45:00 AM 10.11 50.198 0.434 7.43 6.29 8.76
4/29/2023 7:00:00 AM 10.1 50.18 0.436 7.42 5.71 8.77
4/29/2023 7:15:00 AM 10.09 50.162 0.435 7.43 5.26 8.71
4/29/2023 7:30:00 AM 10.09 50.162 0.436 7.43 5.3 8.81
4/29/2023 7:45:00 AM 10.09 50.162 0.436 7.44 4.5 8.9
4/29/2023 8:00:00 AM 10.1 50.18 0.436 7.45 4.88 8.97
4/29/2023 8:15:00 AM 10.11 50.198 0.436 7.45 4.58 9.07
4/29/2023 8:30:00 AM 10.13 50.234 0.436 7.46 4.4 9.19
4/29/2023 8:45:00 AM 10.14 50.252 0.436 7.46 4.42 9.33
4/29/2023 9:00:00 AM 10.16 50.288 0.436 7.47 4.05 9.44
4/29/2023 9:15:00 AM 10.17 50.306 0.437 7.48 4.22 9.52
4/29/2023 9:30:00 AM 10.18 50.324 0.437 7.48 3.97 9.56
4/29/2023 9:45:00 AM 10.21 50.378 0.437 7.49 4.68 9.68
4/29/2023 10:00:00 AM 10.22 50.396 0.438 7.5 3.8 9.73
4/29/2023 10:15:00 AM 10.24 50.432 0.438 7.5 4.08 9.76
4/29/2023 10:30:00 AM 10.25 50.45 0.438 7.51 3.71 9.9
4/29/2023 10:45:00 AM 10.27 50.486 0.439 7.52 3.73 9.95
4/29/2023 11:00:00 AM 10.29 50.522 0.44 7.52 3.62 9.99
4/29/2023 11:15:00 AM 10.35 50.63 0.44 7.54 3.55 10.16
4/29/2023 11:30:00 AM 10.42 50.756 0.44 7.56 3.09 10.33
4/29/2023 11:45:00 AM 10.5 50.9 0.44 7.57 3.68 10.56
4/29/2023 12:00:00 PM 10.59 51.062 0.44 7.59 3.98 10.79
4/29/2023 12:15:00 PM 10.66 51.188 0.44 7.6 2.92 10.92
4/29/2023 12:30:00 PM 10.73 51.314 0.44 7.62 3.89 11.07
4/29/2023 12:45:00 PM 10.78 51.404 0.44 7.64 2.99 11.12
4/29/2023 1:00:00 PM 10.83 51.494 0.44 7.65 3.08 11.15
4/29/2023 1:15:00 PM 10.89 51.602 0.44 7.65 2.99 11.25
4/29/2023 1:30:00 PM 10.93 51.674 0.44 7.66 3.01 11.31
4/29/2023 1:45:00 PM 11 51.8 0.44 7.67 3.28 11.42
4/29/2023 2:00:00 PM 11.08 51.944 0.44 7.69 2.73 11.51
4/29/2023 2:15:00 PM 11.13 52.034 0.44 7.7 3.75 11.55
4/29/2023 2:30:00 PM 11.23 52.214 0.44 7.71 3.03 11.68
4/29/2023 2:45:00 PM 11.31 52.358 0.44 7.72 3.05 11.72
4/29/2023 3:00:00 PM 11.37 52.466 0.44 7.72 3.49 11.74
4/29/2023 3:15:00 PM 11.41 52.538 0.44 7.73 2.93 11.71
4/29/2023 3:30:00 PM 11.44 52.592 0.44 7.73 3.15 11.63
4/29/2023 3:45:00 PM 11.5 52.7 0.44 7.74 2.67 11.65
4/29/2023 4:00:00 PM 11.55 52.79 0.441 7.74 3.61 11.63
4/29/2023 4:15:00 PM 11.63 52.934 0.441 7.75 4.21 11.71
4/29/2023 4:30:00 PM 11.68 53.024 0.441 7.76 3.29 11.65
4/29/2023 4:45:00 PM 11.72 53.096 0.441 7.76 2.76 11.63
4/29/2023 5:00:00 PM 11.75 53.15 0.442 7.76 9.64 11.53
4/29/2023 5:15:00 PM 11.76 53.168 0.442 7.76 3.65 11.38
4/29/2023 5:30:00 PM 11.78 53.204 0.442 7.75 2.77 11.22
4/29/2023 5:45:00 PM 11.82 53.276 0.442 7.74 3.35 11.2
4/29/2023 6:00:00 PM 11.86 53.348 0.443 7.74 3.89 11.11
4/29/2023 6:15:00 PM 11.97 53.546 0.442 7.75 8.91 11.25
4/29/2023 6:30:00 PM 12.01 53.618 0.442 7.76 2.75 11.3
4/29/2023 6:45:00 PM 12.07 53.726 0.442 7.77 2.48 11.32
4/29/2023 7:00:00 PM 12.1 53.78 0.442 7.77 2.76 11.21
4/29/2023 7:15:00 PM 12.13 53.834 0.442 7.77 2.68 11.11
4/29/2023 7:30:00 PM 12.12 53.816 0.442 7.76 2.83 10.94
4/29/2023 7:45:00 PM 12.11 53.798 0.442 7.75 2.68 10.69
4/29/2023 8:00:00 PM 12.09 53.762 0.443 7.74 2.79 10.49
4/29/2023 8:15:00 PM 12.08 53.744 0.443 7.72 2.34 10.27
4/29/2023 8:30:00 PM 12.06 53.708 0.443 7.7 3.79 10.07
4/29/2023 8:45:00 PM 12.06 53.708 0.443 7.68 2.72 9.88
4/29/2023 9:00:00 PM 12.07 53.726 0.443 7.66 2.87 9.74
4/29/2023 9:15:00 PM 12.08 53.744 0.443 7.66 4.05 9.59
4/29/2023 9:30:00 PM 12.1 53.78 0.443 7.65 4.61 9.51
4/29/2023 9:45:00 PM 12.11 53.798 0.444 7.64 3.87 9.41
4/29/2023 10:00:00 PM 12.12 53.816 0.444 7.62 4.27 9.27
4/29/2023 10:15:00 PM 12.12 53.816 0.444 7.62 3.17 9.21
4/29/2023 10:30:00 PM 12.12 53.816 0.444 7.61 2.89 9.11
4/29/2023 10:45:00 PM 12.12 53.816 0.444 7.6 3.7 8.99
4/29/2023 11:00:00 PM 12.12 53.816 0.444 7.6 3.49 8.94
4/29/2023 11:15:00 PM 12.13 53.834 0.444 7.59 3.9 8.88
4/29/2023 11:30:00 PM 12.14 53.852 0.444 7.58 4.62 8.78
4/29/2023 11:45:00 PM 12.15 53.87 0.444 7.58 3.89 8.7
4/30/2023 12:00:00 AM 12.16 53.888 0.444 7.56 3.29 8.67
4/30/2023 12:15:00 AM 12.16 53.888 0.444 7.56 5.07 8.62
4/30/2023 12:30:00 AM 12.17 53.906 0.443 7.55 3.27 8.55
4/30/2023 12:45:00 AM 12.18 53.924 0.435 7.55 22.51 8.57
4/30/2023 1:00:00 AM 12.18 53.924 0.533 7.49 74.19 8.43
4/30/2023 1:15:00 AM 12.17 53.906 0.47 7.51 22.47 8.37
4/30/2023 1:30:00 AM 12.16 53.888 0.451 7.51 17.23 8.3
4/30/2023 1:45:00 AM 12.16 53.888 0.472 7.5 31.72 8.36
4/30/2023 2:00:00 AM 12.15 53.87 0.451 7.5 13.05 8.22
4/30/2023 2:15:00 AM 12.14 53.852 0.444 7.5 8.05 8.19
4/30/2023 2:30:00 AM 12.14 53.852 0.442 7.49 5.85 8.19
4/30/2023 2:45:00 AM 12.14 53.852 0.441 7.49 5.67 8.17
4/30/2023 3:00:00 AM 12.13 53.834 0.44 7.48 7.01 8.07
4/30/2023 3:15:00 AM 12.12 53.816 0.439 7.48 7.27 8.09
4/30/2023 3:30:00 AM 12.11 53.798 0.433 7.48 14.61 8.13
4/30/2023 3:45:00 AM 12.08 53.744 0.451 7.45 76.88 8.3
4/30/2023 4:00:00 AM 12.05 53.69 0.444 7.44 44.14 8.21
4/30/2023 4:15:00 AM 12.03 53.654 0.422 7.44 29.13 8.28
4/30/2023 4:30:00 AM 12 53.6 0.415 7.42 66.44 8.35
4/30/2023 4:45:00 AM 11.99 53.582 0.41 7.41 31.02 8.28
4/30/2023 5:00:00 AM 11.98 53.564 0.409 7.4 75.07 8.36
4/30/2023 5:15:00 AM 11.97 53.546 0.402 7.41 65.56 8.37
4/30/2023 5:30:00 AM 11.97 53.546 0.398 7.41 42.25 8.38
4/30/2023 5:45:00 AM 11.94 53.492 0.39 7.41 39.53 8.37
4/30/2023 6:00:00 AM 11.91 53.438 0.381 7.41 37.21 8.4
4/30/2023 6:15:00 AM 11.88 53.384 0.364 7.41 35.68 8.45
4/30/2023 6:30:00 AM 11.86 53.348 0.342 7.4 34.8 8.48
4/30/2023 6:45:00 AM 11.85 53.33 0.328 7.38 48.59 8.49
4/30/2023 7:00:00 AM 11.84 53.312 0.311 7.36 46.95 8.49
4/30/2023 7:15:00 AM 11.84 53.312 0.3 7.35 51.91 8.51
4/30/2023 7:30:00 AM 11.83 53.294 0.3 7.34 67.8 8.55
4/30/2023 7:45:00 AM 11.79 53.222 0.314 7.35 86.61 8.58
4/30/2023 8:00:00 AM 11.73 53.114 0.335 7.36 78.47 8.6
4/30/2023 8:15:00 AM 11.67 53.006 0.335 7.38 88.97 8.62
4/30/2023 8:30:00 AM 11.62 52.916 0.319 7.37 102.3 8.65
4/30/2023 8:45:00 AM 11.57 52.826 0.306 7.35 121.1 8.64
4/30/2023 9:00:00 AM 11.53 52.754 0.294 7.34 141.7 8.64
4/30/2023 9:15:00 AM 11.5 52.7 0.283 7.31 156.3 8.63
4/30/2023 9:30:00 AM 11.48 52.664 0.282 7.3 157.2 8.63
4/30/2023 9:45:00 AM 11.47 52.646 0.281 7.28 153 8.65
4/30/2023 10:00:00 AM 11.46 52.628 0.291 7.27 145.1 8.66
4/30/2023 10:15:00 AM 11.46 52.628 0.302 7.27 147.7 8.68
4/30/2023 10:30:00 AM 11.44 52.592 0.301 7.27 138.3 8.7
4/30/2023 10:45:00 AM 11.43 52.574 0.303 7.28 126.3 8.74
4/30/2023 11:00:00 AM 11.45 52.61 0.309 7.29 115.3 8.78
4/30/2023 11:15:00 AM 11.46 52.628 0.319 7.29 101 8.81
4/30/2023 11:30:00 AM 11.44 52.592 0.323 7.3 87.87 8.84
4/30/2023 11:45:00 AM 11.46 52.628 0.323 7.31 80.94 8.86
4/30/2023 12:00:00 PM 11.49 52.682 0.33 7.31 72.64 8.88
4/30/2023 12:15:00 PM 11.5 52.7 0.326 7.31 67.47 8.89
4/30/2023 12:30:00 PM 11.5 52.7 0.323 7.32 63.3 8.9
4/30/2023 12:45:00 PM 11.53 52.754 0.321 7.31 61.77 8.93
4/30/2023 1:00:00 PM 11.55 52.79 0.319 7.32 57.87 8.95
4/30/2023 1:15:00 PM 11.59 52.862 0.325 7.32 53.58 8.98
4/30/2023 1:30:00 PM 11.63 52.934 0.323 7.31 51.24 8.99
4/30/2023 1:45:00 PM 11.7 53.06 0.319 7.32 51.95 9.03
4/30/2023 2:00:00 PM 11.74 53.132 0.317 7.32 51.5 9.05
4/30/2023 2:15:00 PM 11.76 53.168 0.309 7.32 48.32 9.09
4/30/2023 2:30:00 PM 11.79 53.222 0.308 7.32 46.32 9.12
4/30/2023 2:45:00 PM 11.83 53.294 0.306 7.31 47.93 9.16
4/30/2023 3:00:00 PM 11.87 53.366 0.304 7.32 43.5 9.2
4/30/2023 3:15:00 PM 11.91 53.438 0.303 7.32 45.94 9.22
4/30/2023 3:30:00 PM 11.95 53.51 0.3 7.33 41.21 9.22
4/30/2023 3:45:00 PM 11.99 53.582 0.297 7.33 40.92 9.24
4/30/2023 4:00:00 PM 12.05 53.69 0.299 7.34 42.05 9.28
4/30/2023 4:15:00 PM 12.09 53.762 0.3 7.35 37.71 9.31
4/30/2023 4:30:00 PM 12.12 53.816 0.303 7.35 35.58 9.37
4/30/2023 4:45:00 PM 12.13 53.834 0.304 7.36 38.76 9.39
4/30/2023 5:00:00 PM 12.13 53.834 0.303 7.37 40.56 9.42
4/30/2023 5:15:00 PM 12.14 53.852 0.305 7.38 38.43 9.4
4/30/2023 5:30:00 PM 12.15 53.87 0.305 7.37 42.38 9.42
4/30/2023 5:45:00 PM 12.17 53.906 0.305 7.38 45 9.39
4/30/2023 6:00:00 PM 12.18 53.924 0.305 7.38 44.78 9.37
4/30/2023 6:15:00 PM 12.19 53.942 0.304 7.39 45.38 9.35
4/30/2023 6:30:00 PM 12.21 53.978 0.304 7.39 48.44 9.33
4/30/2023 6:45:00 PM 12.21 53.978 0.305 7.39 47.8 9.32
4/30/2023 7:00:00 PM 12.21 53.978 0.307 7.39 48.8 9.3
4/30/2023 7:15:00 PM 12.21 53.978 0.307 7.38 48.34 9.27
4/30/2023 7:30:00 PM 12.21 53.978 0.307 7.38 49.57 9.25
4/30/2023 7:45:00 PM 12.2 53.96 0.313 7.38 49.77 9.22
4/30/2023 8:00:00 PM 12.17 53.906 0.314 7.38 51.23 9.2
4/30/2023 8:15:00 PM 12.13 53.834 0.306 7.37 50.65 9.17
4/30/2023 8:30:00 PM 12.09 53.762 0.308 7.36 49.55 9.15
4/30/2023 8:45:00 PM 12.05 53.69 0.307 7.36 50.11 9.12
4/30/2023 9:00:00 PM 12.01 53.618 0.306 7.36 50.67 9.11
4/30/2023 9:15:00 PM 11.97 53.546 0.303 7.35 49.69 9.09
4/30/2023 9:30:00 PM 11.92 53.456 0.301 7.34 47.94 9.06
4/30/2023 9:45:00 PM 11.87 53.366 0.3 7.34 46.19 9.04
4/30/2023 10:00:00 PM 11.81 53.258 0.3 7.33 45.32 9.04
4/30/2023 10:15:00 PM 11.75 53.15 0.3 7.33 45.67 9.02
4/30/2023 10:30:00 PM 11.68 53.024 0.299 7.33 45.21 9.01
4/30/2023 10:45:00 PM 11.6 52.88 0.298 7.32 46.03 9.01
4/30/2023 11:00:00 PM 11.53 52.754 0.298 7.32 46.21 9
4/30/2023 11:15:00 PM 11.46 52.628 0.296 7.31 43.39 9.01
4/30/2023 11:30:00 PM 11.37 52.466 0.294 7.31 41.95 9.02
4/30/2023 11:45:00 PM 11.3 52.34 0.292 7.3 41.74 9.01
5/1/2023 12:00:00 AM 11.23 52.214 0.291 7.29 41.93 9.04
5/1/2023 12:15:00 AM 11.16 52.088 0.289 7.3 40.65 9.04
5/1/2023 12:30:00 AM 11.08 51.944 0.288 7.3 40.66 9.06
5/1/2023 12:45:00 AM 11 51.8 0.288 7.29 44.47 9.08
5/1/2023 1:00:00 AM 10.93 51.674 0.288 7.29 44.98 9.1
5/1/2023 1:15:00 AM 10.85 51.53 0.288 7.3 39.97 9.11
5/1/2023 1:30:00 AM 10.77 51.386 0.289 7.31 39.47 9.14
5/1/2023 1:45:00 AM 10.7 51.26 0.275 7.31 41.26 9.15
5/1/2023 2:00:00 AM 10.62 51.116 0.29 7.3 39.63 9.18
5/1/2023 2:15:00 AM 10.54 50.972 0.292 7.3 40.81 9.21
5/1/2023 2:30:00 AM 10.46 50.828 0.292 7.31 40.69 9.23
5/1/2023 2:45:00 AM 10.4 50.72 0.292 7.31 39.39 9.26
5/1/2023 3:00:00 AM 10.34 50.612 0.292 7.31 39.16 9.27
5/1/2023 3:15:00 AM 10.29 50.522 0.294 7.31 40.81 9.3
5/1/2023 3:30:00 AM 10.24 50.432 0.295 7.31 39.08 9.32
5/1/2023 3:45:00 AM 10.18 50.324 0.295 7.31 41.39 9.35
5/1/2023 4:00:00 AM 10.12 50.216 0.295 7.31 37.54 9.37
5/1/2023 4:15:00 AM 10.06 50.108 0.296 7.31 37.44 9.38
5/1/2023 4:30:00 AM 10 50 0.296 7.32 37.96 9.4
5/1/2023 4:45:00 AM 9.94 49.892 0.295 7.32 36.32 9.42
5/1/2023 5:00:00 AM 9.88 49.784 0.295 7.32 36.35 9.45
5/1/2023 5:15:00 AM 9.83 49.694 0.295 7.33 35.13 9.47
5/1/2023 5:30:00 AM 9.79 49.622 0.295 7.33 36.91 9.49
5/1/2023 5:45:00 AM 9.75 49.55 0.295 7.32 33.18 9.51
5/1/2023 6:00:00 AM 9.71 49.478 0.294 7.32 33.28 9.53
5/1/2023 6:15:00 AM 9.67 49.406 0.295 7.32 35.15 9.55
5/1/2023 6:30:00 AM 9.64 49.352 0.295 7.33 31.56 9.58
5/1/2023 6:45:00 AM 9.61 49.298 0.296 7.32 31.18 9.6
5/1/2023 7:00:00 AM 9.57 49.226 0.294 7.32 31.83 9.62
5/1/2023 7:15:00 AM 9.55 49.19 0.294 7.33 28.97 9.66
5/1/2023 7:30:00 AM 9.52 49.136 0.295 7.33 30.99 9.7
5/1/2023 7:45:00 AM 9.52 49.136 0.296 7.33 26.1 9.76
5/1/2023 8:00:00 AM 9.51 49.118 0.296 7.34 28.35 9.81
5/1/2023 8:15:00 AM 9.5 49.1 0.295 7.35 25.03 9.85
5/1/2023 8:30:00 AM 9.49 49.082 0.295 7.36 25.69 9.9
5/1/2023 8:45:00 AM 9.5 49.1 0.297 7.36 24.72 9.93
5/1/2023 9:00:00 AM 9.51 49.118 0.296 7.37 23.21 10.01
5/1/2023 9:15:00 AM 9.51 49.118 0.296 7.37 28.86 10.06
5/1/2023 9:30:00 AM 9.53 49.154 0.297 7.38 25.81 10.12
5/1/2023 9:45:00 AM 9.54 49.172 0.296 7.39 22.87 10.2
5/1/2023 10:00:00 AM 9.56 49.208 0.297 7.39 20.29 10.28
5/1/2023 10:15:00 AM 9.6 49.28 0.298 7.4 20.63 10.34
5/1/2023 10:30:00 AM 9.63 49.334 0.298 7.41 20.14 10.42
5/1/2023 10:45:00 AM 9.67 49.406 0.298 7.41 20.16 10.48
5/1/2023 11:00:00 AM 9.69 49.442 0.298 7.41 18.92 10.52
5/1/2023 11:15:00 AM 9.72 49.496 0.299 7.42 20.16 10.56
5/1/2023 11:30:00 AM 9.75 49.55 0.299 7.44 21.57 10.59
5/1/2023 11:45:00 AM 9.8 49.64 0.299 7.45 20.35 10.66
5/1/2023 12:00:00 PM 9.88 49.784 0.298 7.46 19.28 10.75
5/1/2023 12:15:00 PM 10 50 0.298 7.47 18.12 10.86
5/1/2023 12:30:00 PM 10.15 50.27 0.297 7.48 18.11 10.94
5/1/2023 12:45:00 PM 10.45 50.81 0.298 7.49 18.65 11.05
5/1/2023 1:00:00 PM 10.53 50.954 0.297 7.5 19.12 11.03
5/1/2023 1:15:00 PM 10.4 50.72 0.296 7.49 24.07 10.89
5/1/2023 1:30:00 PM 10.56 51.008 0.307 7.47 30.51 10.89
5/1/2023 1:45:00 PM 10.9 51.62 0.3 7.5 19.43 11.06
5/1/2023 2:00:00 PM 11.17 52.106 0.299 7.52 17.09 11.2
5/1/2023 2:15:00 PM 11.36 52.448 0.298 7.53 18.96 11.24
5/1/2023 2:30:00 PM 11.41 52.538 0.297 7.54 17.39 11.24
5/1/2023 2:45:00 PM 11.43 52.574 0.296 7.55 18.61 11.22
5/1/2023 3:00:00 PM 11.49 52.682 0.296 7.56 18.23 11.18
5/1/2023 3:15:00 PM 11.57 52.826 0.294 7.55 20.23 11.08
5/1/2023 3:30:00 PM 11.69 53.042 0.293 7.55 20.44 11.04
5/1/2023 3:45:00 PM 11.81 53.258 0.293 7.55 19.45 11.05
5/1/2023 4:00:00 PM 11.84 53.312 0.295 7.56 20.08 10.95
5/1/2023 4:15:00 PM 11.87 53.366 0.295 7.55 19.3 10.85
5/1/2023 4:30:00 PM 11.93 53.474 0.295 7.54 19.07 10.79
5/1/2023 4:45:00 PM 12.01 53.618 0.295 7.54 20.46 10.78
5/1/2023 5:00:00 PM 12.11 53.798 0.295 7.55 19.27 10.78
5/1/2023 5:15:00 PM 12.14 53.852 0.294 7.56 19.2 10.72
5/1/2023 5:30:00 PM 12.15 53.87 0.294 7.56 18.72 10.62
5/1/2023 5:45:00 PM 12.15 53.87 0.294 7.55 18.58 10.49
5/1/2023 6:00:00 PM 12.17 53.906 0.294 7.54 19.72 10.36
5/1/2023 6:15:00 PM 12.18 53.924 0.294 7.53 23.35 10.3
5/1/2023 6:30:00 PM 12.18 53.924 0.293 7.52 19.15 10.2
5/1/2023 6:45:00 PM 12.17 53.906 0.292 7.5 19.61 10.1
5/1/2023 7:00:00 PM 12.14 53.852 0.29 7.49 18.06 9.98
5/1/2023 7:15:00 PM 12.1 53.78 0.289 7.49 20.71 9.92
5/1/2023 7:30:00 PM 12.09 53.762 0.294 7.47 20.58 9.85
5/1/2023 7:45:00 PM 12.07 53.726 0.292 7.46 21.36 9.8
5/1/2023 8:00:00 PM 12.03 53.654 0.292 7.45 21.49 9.71
5/1/2023 8:15:00 PM 11.98 53.564 0.293 7.44 21.17 9.65
5/1/2023 8:30:00 PM 11.91 53.438 0.293 7.43 26.63 9.56
5/1/2023 8:45:00 PM 11.84 53.312 0.293 7.42 23.97 9.54
5/1/2023 9:00:00 PM 11.78 53.204 0.293 7.41 24.55 9.49
5/1/2023 9:15:00 PM 11.7 53.06 0.292 7.39 27.95 9.45
5/1/2023 9:30:00 PM 11.62 52.916 0.292 7.39 25.59 9.41
5/1/2023 9:45:00 PM 11.54 52.772 0.294 7.39 25.64 9.36
5/1/2023 10:00:00 PM 11.47 52.646 0.294 7.38 27.42 9.34
5/1/2023 10:15:00 PM 11.39 52.502 0.293 7.37 27.34 9.36
5/1/2023 10:30:00 PM 11.31 52.358 0.292 7.37 29.06 9.35
5/1/2023 10:45:00 PM 11.21 52.178 0.292 7.36 28.96 9.33
5/1/2023 11:00:00 PM 11.1 51.98 0.292 7.36 30.61 9.35
5/1/2023 11:15:00 PM 10.98 51.764 0.29 7.36 26.83 9.34
5/1/2023 11:30:00 PM 10.86 51.548 0.287 7.34 30.51 9.37
5/1/2023 11:45:00 PM 10.74 51.332 0.284 7.34 30.59 9.37
5/2/2023 12:00:00 AM 10.62 51.116 0.281 7.34 31.15 9.36
5/2/2023 12:15:00 AM 10.51 50.918 0.278 7.34 32.46 9.39
5/2/2023 12:30:00 AM 10.4 50.72 0.277 7.34 33.67 9.43
5/2/2023 12:45:00 AM 10.29 50.522 0.278 7.34 31.14 9.45
5/2/2023 1:00:00 AM 10.2 50.36 0.28 7.33 33.28 9.46
5/2/2023 1:15:00 AM 10.1 50.18 0.282 7.33 36.75 9.47
5/2/2023 1:30:00 AM 10.01 50.018 0.285 7.34 33.43 9.48
5/2/2023 1:45:00 AM 9.94 49.892 0.287 7.33 36.27 9.49
5/2/2023 2:00:00 AM 9.87 49.766 0.289 7.34 35.57 9.51
5/2/2023 2:15:00 AM 9.81 49.658 0.291 7.34 35.76 9.53
5/2/2023 2:30:00 AM 9.75 49.55 0.292 7.33 33.66 9.54
5/2/2023 2:45:00 AM 9.69 49.442 0.293 7.33 31.51 9.56
5/2/2023 3:00:00 AM 9.63 49.334 0.294 7.34 32.17 9.58
5/2/2023 3:15:00 AM 9.58 49.244 0.293 7.33 32.41 9.6
5/2/2023 3:30:00 AM 9.53 49.154 0.295 7.33 32.98 9.61
5/2/2023 3:45:00 AM 9.48 49.064 0.296 7.33 31.26 9.6
5/2/2023 4:00:00 AM 9.44 48.992 0.296 7.35 28.64 9.64
5/2/2023 4:15:00 AM 9.4 48.92 0.296 7.34 27.95 9.66
5/2/2023 4:30:00 AM 9.36 48.848 0.297 7.33 27.59 9.69
5/2/2023 4:45:00 AM 9.32 48.776 0.296 7.34 26.53 9.7
5/2/2023 5:00:00 AM 9.27 48.686 0.297 7.34 27.15 9.73
5/2/2023 5:15:00 AM 9.22 48.596 0.297 7.34 24.62 9.75
5/2/2023 5:30:00 AM 9.17 48.506 0.297 7.33 25.7 9.75
5/2/2023 5:45:00 AM 9.13 48.434 0.298 7.33 26.31 9.76
5/2/2023 6:00:00 AM 9.08 48.344 0.298 7.34 24.35 9.78
5/2/2023 6:15:00 AM 9.05 48.29 0.298 7.34 24.54 9.79
5/2/2023 6:30:00 AM 9.01 48.218 0.298 7.36 25.49 9.84
5/2/2023 6:45:00 AM 8.98 48.164 0.298 7.36 24.93 9.85
5/2/2023 7:00:00 AM 8.96 48.128 0.298 7.36 21.91 9.89
5/2/2023 7:15:00 AM 8.94 48.092 0.299 7.35 21.04 9.92
5/2/2023 7:30:00 AM 8.92 48.056 0.299 7.36 20.53 9.95
5/2/2023 7:45:00 AM 8.91 48.038 0.299 7.36 21.32 9.99
5/2/2023 8:00:00 AM 8.91 48.038 0.299 7.36 19.69 10.09
5/2/2023 8:15:00 AM 8.93 48.074 0.3 7.37 17.86 10.16
5/2/2023 8:30:00 AM 8.95 48.11 0.3 7.38 19.24 10.26
5/2/2023 8:45:00 AM 8.96 48.128 0.3 7.39 17.22 10.32
5/2/2023 9:00:00 AM 8.98 48.164 0.3 7.4 19.08 10.37
5/2/2023 9:15:00 AM 9 48.2 0.301 7.41 17.45 10.47
5/2/2023 9:30:00 AM 9.01 48.218 0.3 7.4 16.66 10.5
5/2/2023 9:45:00 AM 9.03 48.254 0.3 7.41 15.47 10.55
5/2/2023 10:00:00 AM 9.05 48.29 0.3 7.42 17.05 10.59
5/2/2023 10:15:00 AM 9.09 48.362 0.3 7.42 15.23 10.69
5/2/2023 10:30:00 AM 9.11 48.398 0.3 7.43 14.71 10.74
5/2/2023 10:45:00 AM 9.14 48.452 0.3 7.44 14.73 10.81
5/2/2023 11:00:00 AM 9.18 48.524 0.3 7.45 13.81 10.88
5/2/2023 11:15:00 AM 9.22 48.596 0.301 7.46 15.64 10.93
5/2/2023 11:30:00 AM 9.29 48.722 0.301 7.47 13.83 11.03
5/2/2023 11:45:00 AM 9.41 48.938 0.301 7.48 13.31 11.15
5/2/2023 12:00:00 PM 9.45 49.01 0.301 7.49 13.08 11.19
5/2/2023 12:15:00 PM 9.53 49.154 0.302 7.5 12.88 11.26
5/2/2023 12:30:00 PM 9.62 49.316 0.302 7.52 12.2 11.33
5/2/2023 12:45:00 PM 9.7 49.46 0.301 7.52 11.94 11.41
5/2/2023 1:00:00 PM 9.73 49.514 0.301 7.53 12.7 11.4
5/2/2023 1:15:00 PM 9.77 49.586 0.302 7.53 12.83 11.35
5/2/2023 1:30:00 PM 9.86 49.748 0.302 7.54 11.71 11.42
5/2/2023 1:45:00 PM 9.94 49.892 0.302 7.55 11.41 11.44
5/2/2023 2:00:00 PM 9.99 49.982 0.301 7.56 11.86 11.46
5/2/2023 2:15:00 PM 10.06 50.108 0.302 7.57 12.04 11.49
5/2/2023 2:30:00 PM 10.14 50.252 0.302 7.58 12.05 11.54
5/2/2023 2:45:00 PM 10.19 50.342 0.302 7.59 11.7 11.5
5/2/2023 3:00:00 PM 10.23 50.414 0.302 7.59 11.45 11.47
5/2/2023 3:15:00 PM 10.3 50.54 0.302 7.6 11.2 11.45
5/2/2023 3:30:00 PM 10.39 50.702 0.302 7.61 11.37 11.5
5/2/2023 3:45:00 PM 10.45 50.81 0.301 7.62 11.46 11.45
5/2/2023 4:00:00 PM 10.47 50.846 0.309 7.6 14.98 11.35
5/2/2023 4:15:00 PM 10.53 50.954 0.306 7.59 12.62 11.29
5/2/2023 4:30:00 PM 10.63 51.134 0.303 7.6 13.03 11.32
5/2/2023 4:45:00 PM 10.74 51.332 0.301 7.61 11.7 11.36
5/2/2023 5:00:00 PM 10.82 51.476 0.301 7.62 11.55 11.34
5/2/2023 5:15:00 PM 10.88 51.584 0.301 7.63 12.73 11.3
5/2/2023 5:30:00 PM 10.94 51.692 0.3 7.62 12.79 11.27
5/2/2023 5:45:00 PM 10.99 51.782 0.3 7.62 12.34 11.22
5/2/2023 6:00:00 PM 11.04 51.872 0.3 7.62 13.36 11.15
5/2/2023 6:15:00 PM 11.05 51.89 0.299 7.61 14.36 11.04
5/2/2023 6:30:00 PM 11.05 51.89 0.3 7.59 18 10.92
5/2/2023 6:45:00 PM 11.05 51.89 0.3 7.58 15.92 10.81
5/2/2023 7:00:00 PM 11.05 51.89 0.301 7.57 16.85 10.69
5/2/2023 7:15:00 PM 11.04 51.872 0.301 7.56 16.04 10.62
5/2/2023 7:30:00 PM 11.03 51.854 0.302 7.55 16.01 10.55
5/2/2023 7:45:00 PM 11.01 51.818 0.302 7.54 14.52 10.46
5/2/2023 8:00:00 PM 10.97 51.746 0.302 7.53 16.19 10.37
5/2/2023 8:15:00 PM 10.93 51.674 0.302 7.52 15.78 10.31
5/2/2023 8:30:00 PM 10.88 51.584 0.303 7.5 16.63 10.22
5/2/2023 8:45:00 PM 10.84 51.512 0.303 7.49 17.52 10.16
5/2/2023 9:00:00 PM 10.79 51.422 0.302 7.47 18.29 10.11
5/2/2023 9:15:00 PM 10.74 51.332 0.303 7.46 20.39 10.03
5/2/2023 9:30:00 PM 10.67 51.206 0.302 7.46 21.37 9.98
5/2/2023 9:45:00 PM 10.61 51.098 0.303 7.45 20.4 9.94
5/2/2023 10:00:00 PM 10.56 51.008 0.303 7.43 20.74 9.9
5/2/2023 10:15:00 PM 10.5 50.9 0.303 7.43 22.44 9.87
5/2/2023 10:30:00 PM 10.43 50.774 0.303 7.42 22.2 9.84
5/2/2023 10:45:00 PM 10.37 50.666 0.304 7.41 20.35 9.8
5/2/2023 11:00:00 PM 10.31 50.558 0.305 7.41 22.54 9.78
5/2/2023 11:15:00 PM 10.24 50.432 0.306 7.4 21.73 9.75
5/2/2023 11:30:00 PM 10.17 50.306 0.306 7.39 22.01 9.73
5/2/2023 11:45:00 PM 10.1 50.18 0.307 7.39 20.88 9.72
5/3/2023 12:00:00 AM 10.03 50.054 0.308 7.38 21.11 9.7
5/3/2023 12:15:00 AM 9.96 49.928 0.309 7.37 21.46 9.72
5/3/2023 12:30:00 AM 9.89 49.802 0.309 7.37 21.18 9.71
5/3/2023 12:45:00 AM 9.83 49.694 0.31 7.37 22.2 9.71
5/3/2023 1:00:00 AM 9.76 49.568 0.311 7.37 19.61 9.72
5/3/2023 1:15:00 AM 9.69 49.442 0.312 7.38 21.19 9.73
5/3/2023 1:30:00 AM 9.63 49.334 0.312 7.37 21.97 9.73
5/3/2023 1:45:00 AM 9.57 49.226 0.313 7.37 19.28 9.73
5/3/2023 2:00:00 AM 9.51 49.118 0.313 7.37 19.89 9.75
5/3/2023 2:15:00 AM 9.45 49.01 0.314 7.37 19.17 9.78
5/3/2023 2:30:00 AM 9.39 48.902 0.314 7.37 21.01 9.77
5/3/2023 2:45:00 AM 9.34 48.812 0.315 7.37 18.26 9.82
5/3/2023 3:00:00 AM 9.29 48.722 0.314 7.36 20.77 9.82
5/3/2023 3:15:00 AM 9.24 48.632 0.314 7.36 17.81 9.82
5/3/2023 3:30:00 AM 9.2 48.56 0.314 7.36 19.55 9.84
5/3/2023 3:45:00 AM 9.16 48.488 0.315 7.36 19.76 9.86
5/3/2023 4:00:00 AM 9.13 48.434 0.316 7.36 20.07 9.87
5/3/2023 4:15:00 AM 9.1 48.38 0.315 7.36 19.79 9.86
5/3/2023 4:30:00 AM 9.06 48.308 0.315 7.36 18.01 9.9
5/3/2023 4:45:00 AM 9.04 48.272 0.315 7.36 17.8 9.91
5/3/2023 5:00:00 AM 9 48.2 0.315 7.36 19.76 9.91
5/3/2023 5:15:00 AM 8.97 48.146 0.316 7.36 18.76 9.93
5/3/2023 5:30:00 AM 8.93 48.074 0.316 7.36 18.61 9.94
5/3/2023 5:45:00 AM 8.91 48.038 0.315 7.36 18.39 9.94
5/3/2023 6:00:00 AM 8.89 48.002 0.316 7.35 18.86 9.94
5/3/2023 6:15:00 AM 8.87 47.966 0.316 7.36 19.09 9.97
5/3/2023 6:30:00 AM 8.85 47.93 0.316 7.37 17.35 9.98
5/3/2023 6:45:00 AM 8.83 47.894 0.317 7.37 17.57 10
5/3/2023 7:00:00 AM 8.83 47.894 0.317 7.37 16.15 10.06
5/3/2023 7:15:00 AM 8.83 47.894 0.317 7.38 16.63 10.11
5/3/2023 7:30:00 AM 8.83 47.894 0.317 7.39 18.47 10.18
5/3/2023 7:45:00 AM 8.82 47.876 0.318 7.39 14.5 10.21
5/3/2023 8:00:00 AM 8.81 47.858 0.318 7.39 13.45 10.22
5/3/2023 8:15:00 AM 8.81 47.858 0.32 7.38 15.34 10.28
5/3/2023 8:30:00 AM 8.84 47.912 0.327 7.39 14.97 10.36
5/3/2023 8:45:00 AM 8.89 48.002 0.32 7.4 12.84 10.45
5/3/2023 9:00:00 AM 8.92 48.056 0.32 7.41 12.28 10.52
5/3/2023 9:15:00 AM 8.93 48.074 0.319 7.41 11.28 10.6
5/3/2023 9:30:00 AM 8.95 48.11 0.319 7.42 11.11 10.65
5/3/2023 9:45:00 AM 9.01 48.218 0.319 7.44 12.09 10.76
5/3/2023 10:00:00 AM 9.1 48.38 0.319 7.44 11.98 10.88
5/3/2023 10:15:00 AM 9.17 48.506 0.318 7.47 11.2 10.99
5/3/2023 10:30:00 AM 9.21 48.578 0.317 7.47 10.78 11.04
5/3/2023 10:45:00 AM 9.21 48.578 0.317 7.47 11.06 11.06
5/3/2023 11:00:00 AM 9.31 48.758 0.317 7.47 10.48 11.13
5/3/2023 11:15:00 AM 9.51 49.118 0.316 7.49 10.88 11.3
5/3/2023 11:30:00 AM 9.62 49.316 0.315 7.51 11.16 11.39
5/3/2023 11:45:00 AM 9.8 49.64 0.314 7.52 13.12 11.47
5/3/2023 12:00:00 PM 9.89 49.802 0.314 7.53 12.23 11.53
5/3/2023 12:15:00 PM 9.99 49.982 0.314 7.54 11.99 11.6
5/3/2023 12:30:00 PM 10.05 50.09 0.314 7.55 11.69 11.62
5/3/2023 12:45:00 PM 10.12 50.216 0.314 7.57 10.92 11.66
5/3/2023 1:00:00 PM 10.26 50.468 0.314 7.58 11.54 11.73
5/3/2023 1:15:00 PM 10.41 50.738 0.313 7.6 10.6 11.81
5/3/2023 1:30:00 PM 10.33 50.594 0.312 7.61 11.41 11.73
5/3/2023 1:45:00 PM 10.31 50.558 0.325 7.58 25.24 11.56
5/3/2023 2:00:00 PM 10.43 50.774 0.315 7.59 14.18 11.58
5/3/2023 2:15:00 PM 10.68 51.224 0.312 7.62 12.38 11.72
5/3/2023 2:30:00 PM 10.8 51.44 0.311 7.63 12.57 11.77
5/3/2023 2:45:00 PM 10.84 51.512 0.31 7.63 11.2 11.69
5/3/2023 3:00:00 PM 10.88 51.584 0.31 7.64 11.2 11.62
5/3/2023 3:15:00 PM 10.98 51.764 0.31 7.65 10.7 11.64
5/3/2023 3:30:00 PM 11.16 52.088 0.309 7.66 10.77 11.69
5/3/2023 3:45:00 PM 11.19 52.142 0.308 7.65 11.96 11.53
5/3/2023 4:00:00 PM 11.15 52.07 0.31 7.63 15.91 11.28
5/3/2023 4:15:00 PM 11.2 52.16 0.311 7.61 17.91 11.17
5/3/2023 4:30:00 PM 11.28 52.304 0.309 7.61 15.07 11.18
5/3/2023 4:45:00 PM 11.37 52.466 0.307 7.61 16.47 11.17
5/3/2023 5:00:00 PM 11.45 52.61 0.309 7.62 18.89 11.12
5/3/2023 5:15:00 PM 11.49 52.682 0.31 7.61 15.58 11.05
5/3/2023 5:30:00 PM 11.54 52.772 0.311 7.61 16.44 11.01
5/3/2023 5:45:00 PM 11.6 52.88 0.311 7.61 15.9 10.98
5/3/2023 6:00:00 PM 11.66 52.988 0.31 7.62 19.73 10.96
5/3/2023 6:15:00 PM 11.67 53.006 0.309 7.62 18.66 10.88
5/3/2023 6:30:00 PM 11.65 52.97 0.309 7.6 19.74 10.8
5/3/2023 6:45:00 PM 11.62 52.916 0.309 7.59 20.92 10.7
5/3/2023 7:00:00 PM 11.57 52.826 0.308 7.57 22.39 10.59
5/3/2023 7:15:00 PM 11.53 52.754 0.309 7.55 22.37 10.47
5/3/2023 7:30:00 PM 11.49 52.682 0.309 7.55 20.36 10.38
5/3/2023 7:45:00 PM 11.43 52.574 0.31 7.53 21.77 10.3
5/3/2023 8:00:00 PM 11.36 52.448 0.31 7.52 22.6 10.26
5/3/2023 8:15:00 PM 11.29 52.322 0.309 7.51 22.75 10.21
5/3/2023 8:30:00 PM 11.22 52.196 0.309 7.49 24.55 10.17
5/3/2023 8:45:00 PM 11.14 52.052 0.308 7.49 23.09 10.13
5/3/2023 9:00:00 PM 11.06 51.908 0.308 7.48 24.89 10.09
5/3/2023 9:15:00 PM 10.97 51.746 0.307 7.47 27.04 10.06
5/3/2023 9:30:00 PM 10.9 51.62 0.308 7.46 27.02 9.99
5/3/2023 9:45:00 PM 10.82 51.476 0.307 7.45 29.84 9.95
5/3/2023 10:00:00 PM 10.73 51.314 0.308 7.44 28.08 9.89
5/3/2023 10:15:00 PM 10.65 51.17 0.308 7.43 30.65 9.89
5/3/2023 10:30:00 PM 10.58 51.044 0.309 7.42 28.63 9.87
5/3/2023 10:45:00 PM 10.5 50.9 0.31 7.42 26.84 9.84
5/3/2023 11:00:00 PM 10.44 50.792 0.311 7.4 29.51 9.81
5/3/2023 11:15:00 PM 10.37 50.666 0.314 7.41 31.38 9.77
5/3/2023 11:30:00 PM 10.3 50.54 0.314 7.4 32.62 9.75
5/3/2023 11:45:00 PM 10.22 50.396 0.315 7.39 35.78 9.73
5/4/2023 12:00:00 AM 10.14 50.252 0.315 7.39 32.1 9.71
5/4/2023 12:15:00 AM 10.06 50.108 0.316 7.39 30.99 9.7
5/4/2023 12:30:00 AM 9.98 49.964 0.319 7.39 33.49 9.71
5/4/2023 12:45:00 AM 9.89 49.802 0.321 7.38 27.91 9.71
5/4/2023 1:00:00 AM 9.81 49.658 0.322 7.37 26.87 9.72
5/4/2023 1:15:00 AM 9.73 49.514 0.323 7.37 25.87 9.73
5/4/2023 1:30:00 AM 9.64 49.352 0.324 7.37 25.34 9.74
5/4/2023 1:45:00 AM 9.56 49.208 0.325 7.37 24.91 9.76
5/4/2023 2:00:00 AM 9.49 49.082 0.325 7.37 24.59 9.79
5/4/2023 2:15:00 AM 9.41 48.938 0.326 7.37 22.94 9.81
5/4/2023 2:30:00 AM 9.33 48.794 0.326 7.38 24.35 9.83
5/4/2023 2:45:00 AM 9.25 48.65 0.326 7.37 21.96 9.84
5/4/2023 3:00:00 AM 9.18 48.524 0.327 7.37 22.17 9.88
5/4/2023 3:15:00 AM 9.12 48.416 0.327 7.37 20.56 9.91
5/4/2023 3:30:00 AM 9.06 48.308 0.326 7.37 21.44 9.94
5/4/2023 3:45:00 AM 8.99 48.182 0.327 7.36 20.42 9.97
5/4/2023 4:00:00 AM 8.92 48.056 0.327 7.37 21.14 9.98
5/4/2023 4:15:00 AM 8.87 47.966 0.326 7.37 19.86 10.01
5/4/2023 4:30:00 AM 8.82 47.876 0.327 7.37 20.86 10.03
5/4/2023 4:45:00 AM 8.78 47.804 0.327 7.37 17.53 10.06
5/4/2023 5:00:00 AM 8.75 47.75 0.327 7.38 19.37 10.07
5/4/2023 5:15:00 AM 8.72 47.696 0.328 7.37 18.78 10.09
5/4/2023 5:30:00 AM 8.69 47.642 0.328 7.37 20.74 10.1
5/4/2023 5:45:00 AM 8.66 47.588 0.328 7.38 16.87 10.12
5/4/2023 6:00:00 AM 8.62 47.516 0.328 7.37 16.64 10.14
5/4/2023 6:15:00 AM 8.58 47.444 0.33 7.38 17.55 10.14
5/4/2023 6:30:00 AM 8.55 47.39 0.33 7.37 16.34 10.17
5/4/2023 6:45:00 AM 8.55 47.39 0.33 7.37 16.03 10.21
5/4/2023 7:00:00 AM 8.55 47.39 0.329 7.38 15.91 10.25
5/4/2023 7:15:00 AM 8.55 47.39 0.329 7.38 16.21 10.29
5/4/2023 7:30:00 AM 8.56 47.408 0.33 7.38 14.87 10.34
5/4/2023 7:45:00 AM 8.58 47.444 0.33 7.39 13.84 10.37
5/4/2023 8:00:00 AM 8.6 47.48 0.33 7.39 13.65 10.45
5/4/2023 8:15:00 AM 8.63 47.534 0.33 7.4 11.89 10.51
5/4/2023 8:30:00 AM 8.65 47.57 0.331 7.41 12.13 10.57
5/4/2023 8:45:00 AM 8.71 47.678 0.331 7.42 11.59 10.67
5/4/2023 9:00:00 AM 8.76 47.768 0.331 7.42 11.09 10.79
5/4/2023 9:15:00 AM 8.82 47.876 0.332 7.44 10.22 10.88
5/4/2023 9:30:00 AM 8.89 48.002 0.333 7.44 11.86 10.96
5/4/2023 9:45:00 AM 8.98 48.164 0.332 7.46 9.69 11.07
5/4/2023 10:00:00 AM 9.06 48.308 0.332 7.46 10.18 11.17
5/4/2023 10:15:00 AM 9.15 48.47 0.333 7.48 9.47 11.25
5/4/2023 10:30:00 AM 9.22 48.596 0.332 7.48 9.64 11.31
5/4/2023 10:45:00 AM 9.34 48.812 0.332 7.5 9.93 11.38
5/4/2023 11:00:00 AM 9.43 48.974 0.333 7.5 10.38 11.45
5/4/2023 11:15:00 AM 9.49 49.082 0.332 7.51 9.57 11.45
5/4/2023 11:30:00 AM 9.62 49.316 0.332 7.53 10.13 11.54
5/4/2023 11:45:00 AM 9.81 49.658 0.332 7.54 9.38 11.64
5/4/2023 12:00:00 PM 9.94 49.892 0.332 7.55 8.92 11.73
5/4/2023 12:15:00 PM 10 50 0.333 7.56 8.5 11.74
5/4/2023 12:30:00 PM 10.2 50.36 0.332 7.58 8.76 11.79
5/4/2023 12:45:00 PM 10.5 50.9 0.331 7.59 8.62 11.91
5/4/2023 1:00:00 PM 10.65 51.17 0.332 7.61 8.02 11.97
5/4/2023 1:15:00 PM 10.72 51.296 0.332 7.62 8.02 11.91
5/4/2023 1:30:00 PM 10.82 51.476 0.331 7.63 9.16 11.9
5/4/2023 1:45:00 PM 11.01 51.818 0.331 7.63 7.42 11.89
5/4/2023 2:00:00 PM 11.26 52.268 0.332 7.64 7.95 11.93
5/4/2023 2:15:00 PM 11.5 52.7 0.329 7.66 9.16 11.97
5/4/2023 2:30:00 PM 11.76 53.168 0.33 7.68 8.19 12.01
5/4/2023 2:45:00 PM 11.97 53.546 0.332 7.68 7.95 11.98
5/4/2023 3:00:00 PM 12.14 53.852 0.33 7.69 8.14 11.97
5/4/2023 3:15:00 PM 12.45 54.41 0.331 7.71 8.91 11.98
5/4/2023 3:30:00 PM 12.73 54.914 0.33 7.72 8.31 11.96
5/4/2023 3:45:00 PM 12.75 54.95 0.329 7.71 8.03 11.76
5/4/2023 4:00:00 PM 12.7 54.86 0.33 7.69 9.85 11.47
5/4/2023 4:15:00 PM 12.81 55.058 0.33 7.66 9.02 11.33
5/4/2023 4:30:00 PM 13 55.4 0.33 7.67 9.08 11.39
5/4/2023 4:45:00 PM 13.15 55.67 0.33 7.68 10.65 11.34
5/4/2023 5:00:00 PM 13.23 55.814 0.33 7.68 9.6 11.18
5/4/2023 5:15:00 PM 13.34 56.012 0.33 7.68 10.03 11.05
5/4/2023 5:30:00 PM 13.44 56.192 0.331 7.67 10.67 10.95
5/4/2023 5:45:00 PM 13.52 56.336 0.332 7.67 9.6 10.82
5/4/2023 6:00:00 PM 13.6 56.48 0.334 7.66 10.42 10.72
5/4/2023 6:15:00 PM 13.71 56.678 0.332 7.65 12.81 10.7
5/4/2023 6:30:00 PM 13.76 56.768 0.332 7.65 9.66 10.62
5/4/2023 6:45:00 PM 13.78 56.804 0.332 7.64 10.5 10.51
5/4/2023 7:00:00 PM 13.78 56.804 0.332 7.62 10.19 10.3
5/4/2023 7:15:00 PM 13.78 56.804 0.334 7.6 10.13 10.11
5/4/2023 7:30:00 PM 13.8 56.84 0.334 7.59 12.48 9.99
5/4/2023 7:45:00 PM 13.8 56.84 0.337 7.57 14.62 9.89
5/4/2023 8:00:00 PM 13.79 56.822 0.336 7.56 14.14 9.78
5/4/2023 8:15:00 PM 13.76 56.768 0.335 7.55 14.98 9.67
5/4/2023 8:30:00 PM 13.72 56.696 0.336 7.53 11.28 9.58
5/4/2023 8:45:00 PM 13.68 56.624 0.336 7.51 15.8 9.51
5/4/2023 9:00:00 PM 13.63 56.534 0.335 7.5 15.1 9.44
5/4/2023 9:15:00 PM 13.57 56.426 0.336 7.5 12.81 9.4
5/4/2023 9:30:00 PM 13.5 56.3 0.338 7.49 15.63 9.31
5/4/2023 9:45:00 PM 13.42 56.156 0.341 7.48 16.01 9.24
5/4/2023 10:00:00 PM 13.34 56.012 0.339 7.47 18.19 9.2
5/4/2023 10:15:00 PM 13.27 55.886 0.34 7.46 14.54 9.16
5/4/2023 10:30:00 PM 13.19 55.742 0.34 7.45 15.35 9.15
5/4/2023 10:45:00 PM 13.1 55.58 0.34 7.44 15.82 9.13
5/4/2023 11:00:00 PM 13.01 55.418 0.34 7.43 15.28 9.1
5/4/2023 11:15:00 PM 12.9 55.22 0.341 7.43 15.32 9.1
5/4/2023 11:30:00 PM 12.78 55.004 0.341 7.42 16.45 9.07
5/4/2023 11:45:00 PM 12.66 54.788 0.34 7.41 16.69 9.1
5/5/2023 12:00:00 AM 12.54 54.572 0.34 7.41 16.65 9.11
5/5/2023 12:15:00 AM 12.41 54.338 0.34 7.41 16.54 9.13
5/5/2023 12:30:00 AM 12.28 54.104 0.341 7.41 15.92 9.14
5/5/2023 12:45:00 AM 12.15 53.87 0.342 7.4 15.87 9.16
5/5/2023 1:00:00 AM 12.02 53.636 0.342 7.4 17.47 9.18
5/5/2023 1:15:00 AM 11.88 53.384 0.343 7.4 15.18 9.21
5/5/2023 1:30:00 AM 11.74 53.132 0.342 7.4 15.54 9.24
5/5/2023 1:45:00 AM 11.59 52.862 0.339 7.4 16.51 9.27
5/5/2023 2:00:00 AM 11.45 52.61 0.343 7.4 16.51 9.3
5/5/2023 2:15:00 AM 11.32 52.376 0.342 7.39 16.14 9.34
5/5/2023 2:30:00 AM 11.18 52.124 0.342 7.38 13.45 9.38
5/5/2023 2:45:00 AM 11.05 51.89 0.341 7.39 14.4 9.4
5/5/2023 3:00:00 AM 10.92 51.656 0.341 7.38 16.56 9.45
5/5/2023 3:15:00 AM 10.8 51.44 0.341 7.38 16.85 9.49
5/5/2023 3:30:00 AM 10.69 51.242 0.341 7.38 14.95 9.52
5/5/2023 3:45:00 AM 10.58 51.044 0.341 7.38 15.95 9.56
5/5/2023 4:00:00 AM 10.48 50.864 0.34 7.39 17.19 9.58
5/5/2023 4:15:00 AM 10.38 50.684 0.341 7.39 14.22 9.62
5/5/2023 4:30:00 AM 10.3 50.54 0.34 7.38 15.68 9.64
5/5/2023 4:45:00 AM 10.22 50.396 0.34 7.38 14.2 9.67
5/5/2023 5:00:00 AM 10.14 50.252 0.34 7.38 15.56 9.67
5/5/2023 5:15:00 AM 10.07 50.126 0.34 7.39 16.22 9.72
5/5/2023 5:30:00 AM 10 50 0.341 7.38 16.57 9.74
5/5/2023 5:45:00 AM 9.92 49.856 0.34 7.38 15.26 9.78
5/5/2023 6:00:00 AM 9.86 49.748 0.34 7.38 15.11 9.79
5/5/2023 6:15:00 AM 9.79 49.622 0.34 7.39 15.85 9.83
5/5/2023 6:30:00 AM 9.74 49.532 0.341 7.39 16.4 9.86
5/5/2023 6:45:00 AM 9.68 49.424 0.341 7.39 13.23 9.91
5/5/2023 7:00:00 AM 9.64 49.352 0.342 7.39 13.75 9.96
5/5/2023 7:15:00 AM 9.6 49.28 0.342 7.4 13.91 10.03
5/5/2023 7:30:00 AM 9.57 49.226 0.343 7.41 12.2 10.12
5/5/2023 7:45:00 AM 9.54 49.172 0.343 7.41 11.77 10.2
5/5/2023 8:00:00 AM 9.53 49.154 0.344 7.41 12.19 10.31
5/5/2023 8:15:00 AM 9.52 49.136 0.344 7.42 12.13 10.42
5/5/2023 8:30:00 AM 9.54 49.172 0.344 7.43 12.37 10.54
5/5/2023 8:45:00 AM 9.56 49.208 0.343 7.44 11.26 10.67
5/5/2023 9:00:00 AM 9.62 49.316 0.344 7.45 9.31 10.8
5/5/2023 9:15:00 AM 9.66 49.388 0.345 7.47 10.15 10.92
5/5/2023 9:30:00 AM 9.69 49.442 0.345 7.48 13.56 11.02
5/5/2023 9:45:00 AM 9.78 49.604 0.345 7.49 8.91 11.11
5/5/2023 10:00:00 AM 9.91 49.838 0.343 7.5 8.38 11.24
5/5/2023 10:15:00 AM 10.08 50.144 0.343 7.52 9.5 11.36
5/5/2023 10:30:00 AM 10.21 50.378 0.344 7.53 8.21 11.49
5/5/2023 10:45:00 AM 10.32 50.576 0.343 7.55 8.42 11.6
5/5/2023 11:00:00 AM 10.36 50.648 0.343 7.55 7.95 11.64
5/5/2023 11:15:00 AM 10.55 50.99 0.343 7.57 7.99 11.74
5/5/2023 11:30:00 AM 10.72 51.296 0.343 7.58 7.62 11.84
5/5/2023 11:45:00 AM 10.92 51.656 0.343 7.6 8.79 11.95
5/5/2023 12:00:00 PM 11.17 52.106 0.343 7.62 8.31 12.05
5/5/2023 12:15:00 PM 11.35 52.43 0.343 7.63 7.74 12.09
5/5/2023 12:30:00 PM 11.45 52.61 0.342 7.65 7.16 12.08
5/5/2023 12:45:00 PM 11.58 52.844 0.342 7.67 8.25 12.06
5/5/2023 1:00:00 PM 11.98 53.564 0.341 7.67 7.75 12.15
5/5/2023 1:15:00 PM 12.22 53.996 0.341 7.69 6.29 12.13
5/5/2023 1:30:00 PM 12.26 54.068 0.342 7.7 6.81 12.06
5/5/2023 1:45:00 PM 12.35 54.23 0.341 7.71 8.38 12.02
5/5/2023 2:00:00 PM 12.48 54.464 0.34 7.71 7.91 11.94
5/5/2023 2:15:00 PM 12.57 54.626 0.341 7.71 7.44 11.81
5/5/2023 2:30:00 PM 12.64 54.752 0.339 7.7 8.38 11.69
5/5/2023 2:45:00 PM 12.8 55.04 0.341 7.71 7 11.67
5/5/2023 3:00:00 PM 12.91 55.238 0.34 7.72 7.77 11.57
5/5/2023 3:15:00 PM 12.98 55.364 0.341 7.71 8.64 11.45
5/5/2023 3:30:00 PM 13.04 55.472 0.34 7.71 7.24 11.31
5/5/2023 3:45:00 PM 13.16 55.688 0.341 7.7 7.56 11.28
5/5/2023 4:00:00 PM 13.29 55.922 0.342 7.7 8.05 11.32
5/5/2023 4:15:00 PM 13.57 56.426 0.339 7.73 10.02 11.44
5/5/2023 4:30:00 PM 13.83 56.894 0.339 7.75 9.35 11.49
5/5/2023 4:45:00 PM 13.92 57.056 0.338 7.75 8.55 11.38
5/5/2023 5:00:00 PM 13.94 57.092 0.337 7.74 7.98 11.2
5/5/2023 5:15:00 PM 14.07 57.326 0.336 7.73 10.02 11.12
5/5/2023 5:30:00 PM 14.32 57.776 0.335 7.73 9.39 11.11
5/5/2023 5:45:00 PM 14.49 58.082 0.335 7.74 10.67 11.03
5/5/2023 6:00:00 PM 14.53 58.154 0.335 7.72 11.94 10.86
5/5/2023 6:15:00 PM 14.47 58.046 0.334 7.69 12.83 10.56
5/5/2023 6:30:00 PM 14.46 58.028 0.334 7.67 14.27 10.38
5/5/2023 6:45:00 PM 14.49 58.082 0.334 7.66 15.06 10.3
5/5/2023 7:00:00 PM 14.53 58.154 0.334 7.65 13.53 10.18
5/5/2023 7:15:00 PM 14.53 58.154 0.334 7.64 14.98 10.09
5/5/2023 7:30:00 PM 14.51 58.118 0.336 7.63 14.36 10
5/5/2023 7:45:00 PM 14.48 58.064 0.337 7.62 13.41 9.9
5/5/2023 8:00:00 PM 14.43 57.974 0.336 7.61 17.35 9.81
5/5/2023 8:15:00 PM 14.37 57.866 0.34 7.59 14.13 9.7
5/5/2023 8:30:00 PM 14.3 57.74 0.342 7.57 13.11 9.61
5/5/2023 8:45:00 PM 14.22 57.596 0.342 7.56 15.51 9.5
5/5/2023 9:00:00 PM 14.13 57.434 0.342 7.54 18.25 9.41
5/5/2023 9:15:00 PM 14.03 57.254 0.344 7.53 15.68 9.31
5/5/2023 9:30:00 PM 13.92 57.056 0.345 7.51 18.59 9.28
5/5/2023 9:45:00 PM 13.81 56.858 0.347 7.5 21.25 9.17
5/5/2023 10:00:00 PM 13.69 56.642 0.348 7.48 22.35 9.12
5/5/2023 10:15:00 PM 13.56 56.408 0.348 7.47 19.18 9.11
5/5/2023 10:30:00 PM 13.43 56.174 0.349 7.47 16.45 9.09
5/5/2023 10:45:00 PM 13.29 55.922 0.35 7.47 17.36 9.09
5/5/2023 11:00:00 PM 13.16 55.688 0.352 7.46 16.33 9.07
5/5/2023 11:15:00 PM 13.01 55.418 0.352 7.45 17.44 9.06
5/5/2023 11:30:00 PM 12.86 55.148 0.352 7.44 18.47 9.05
5/5/2023 11:45:00 PM 12.72 54.896 0.353 7.44 17.29 9.07
5/6/2023 12:00:00 AM 12.57 54.626 0.353 7.43 14.95 9.06
5/6/2023 12:15:00 AM 12.41 54.338 0.354 7.42 16.1 9.09
5/6/2023 12:30:00 AM 12.26 54.068 0.354 7.42 14.34 9.1
5/6/2023 12:45:00 AM 12.1 53.78 0.355 7.41 15.83 9.13
5/6/2023 1:00:00 AM 11.95 53.51 0.355 7.42 16.28 9.15
5/6/2023 1:15:00 AM 11.8 53.24 0.354 7.42 14.07 9.2
5/6/2023 1:30:00 AM 11.65 52.97 0.355 7.41 12.95 9.21
5/6/2023 1:45:00 AM 11.5 52.7 0.356 7.42 15.82 9.25
5/6/2023 2:00:00 AM 11.36 52.448 0.356 7.41 14.92 9.3
5/6/2023 2:15:00 AM 11.22 52.196 0.357 7.4 14.24 9.33
5/6/2023 2:30:00 AM 11.07 51.926 0.358 7.41 16.03 9.35
5/6/2023 2:45:00 AM 10.93 51.674 0.358 7.41 12.94 9.42
5/6/2023 3:00:00 AM 10.79 51.422 0.358 7.41 13.79 9.46
5/6/2023 3:15:00 AM 10.66 51.188 0.358 7.4 13.16 9.5
5/6/2023 3:30:00 AM 10.52 50.936 0.358 7.41 13.29 9.54
5/6/2023 3:45:00 AM 10.38 50.684 0.358 7.41 18.57 9.56
5/6/2023 4:00:00 AM 10.26 50.468 0.357 7.4 12.34 9.64
5/6/2023 4:15:00 AM 10.14 50.252 0.358 7.4 12.38 9.67
5/6/2023 4:30:00 AM 10.02 50.036 0.358 7.41 15.14 9.71
5/6/2023 4:45:00 AM 9.9 49.82 0.359 7.4 14.34 9.77
5/6/2023 5:00:00 AM 9.78 49.604 0.359 7.4 14.29 9.79
5/6/2023 5:15:00 AM 9.68 49.424 0.36 7.41 14.84 9.86
5/6/2023 5:30:00 AM 9.57 49.226 0.36 7.4 13.74 9.89
5/6/2023 5:45:00 AM 9.47 49.046 0.36 7.4 14.31 9.91
5/6/2023 6:00:00 AM 9.38 48.884 0.361 7.41 13.39 9.96
5/6/2023 6:15:00 AM 9.29 48.722 0.361 7.41 13.96 9.99
5/6/2023 6:30:00 AM 9.21 48.578 0.361 7.4 11.75 10.05
5/6/2023 6:45:00 AM 9.14 48.452 0.362 7.41 11.89 10.11
5/6/2023 7:00:00 AM 9.09 48.362 0.361 7.42 10.5 10.2
5/6/2023 7:15:00 AM 9.05 48.29 0.363 7.42 10.82 10.27
5/6/2023 7:30:00 AM 9.02 48.236 0.362 7.43 10.42 10.37
5/6/2023 7:45:00 AM 9 48.2 0.362 7.43 10.14 10.48
5/6/2023 8:00:00 AM 8.99 48.182 0.362 7.44 9.36 10.58
5/6/2023 8:15:00 AM 9 48.2 0.362 7.45 9.61 10.68
5/6/2023 8:30:00 AM 9.02 48.236 0.362 7.46 10.38 10.83
5/6/2023 8:45:00 AM 9.06 48.308 0.362 7.47 9.34 10.93
5/6/2023 9:00:00 AM 9.1 48.38 0.363 7.48 9.46 11.05
5/6/2023 9:15:00 AM 9.19 48.542 0.363 7.49 7.85 11.14
5/6/2023 9:30:00 AM 9.27 48.686 0.364 7.5 9.69 11.23
5/6/2023 9:45:00 AM 9.37 48.866 0.364 7.5 9.97 11.33
5/6/2023 10:00:00 AM 9.52 49.136 0.363 7.52 7.47 11.46
5/6/2023 10:15:00 AM 9.68 49.424 0.364 7.53 7.37 11.58
5/6/2023 10:30:00 AM 9.87 49.766 0.359 7.54 8.53 11.68
5/6/2023 10:45:00 AM 10.06 50.108 0.363 7.56 7.38 11.79
5/6/2023 11:00:00 AM 10.26 50.468 0.362 7.57 8.12 11.89
5/6/2023 11:15:00 AM 10.48 50.864 0.361 7.58 8.24 11.99
5/6/2023 11:30:00 AM 10.72 51.296 0.36 7.6 9.48 12.03
5/6/2023 11:45:00 AM 10.96 51.728 0.36 7.62 8.61 12.12
5/6/2023 12:00:00 PM 11.22 52.196 0.359 7.63 8.95 12.21
5/6/2023 12:15:00 PM 11.48 52.664 0.357 7.65 8.15 12.28
5/6/2023 12:30:00 PM 11.75 53.15 0.359 7.67 15.97 12.34
5/6/2023 12:45:00 PM 12.02 53.636 0.357 7.69 10.33 12.4
5/6/2023 1:00:00 PM 12.3 54.14 0.355 7.7 8.38 12.42
5/6/2023 1:15:00 PM 12.58 54.644 0.355 7.72 8.02 12.45
5/6/2023 1:30:00 PM 12.87 55.166 0.353 7.74 7.72 12.47
5/6/2023 1:45:00 PM 13.17 55.706 0.351 7.75 8.01 12.46
5/6/2023 2:00:00 PM 13.47 56.246 0.347 7.77 7.41 12.44
5/6/2023 2:15:00 PM 13.76 56.768 0.349 7.78 7.05 12.42
5/6/2023 2:30:00 PM 14.06 57.308 0.35 7.8 7.12 12.38
5/6/2023 2:45:00 PM 14.34 57.812 0.347 7.82 12.46 12.35
5/6/2023 3:00:00 PM 14.61 58.298 0.347 7.83 7.33 12.3
5/6/2023 3:15:00 PM 14.87 58.766 0.345 7.83 6.22 12.21
5/6/2023 3:30:00 PM 15.13 59.234 0.339 7.85 6.72 12.15
5/6/2023 3:45:00 PM 15.36 59.648 0.342 7.86 7.02 12.07
5/6/2023 4:00:00 PM 15.56 60.008 0.346 7.87 8.31 11.96
5/6/2023 4:15:00 PM 15.74 60.332 0.349 7.87 9.18 11.86
5/6/2023 4:30:00 PM 15.92 60.656 0.343 7.88 6.91 11.71
5/6/2023 4:45:00 PM 16.12 61.016 0.341 7.88 6.76 11.63
5/6/2023 5:00:00 PM 16.2 61.16 0.342 7.88 7.56 11.4
5/6/2023 5:15:00 PM 16.29 61.322 0.338 7.87 6.95 11.25
5/6/2023 5:30:00 PM 16.41 61.538 0.335 7.87 6.69 11.13
5/6/2023 5:45:00 PM 16.53 61.754 0.335 7.87 7.45 11.01
5/6/2023 6:00:00 PM 16.65 61.97 0.334 7.87 8.67 10.93
5/6/2023 6:15:00 PM 16.72 62.096 0.334 7.87 7.1 10.74
5/6/2023 6:30:00 PM 16.77 62.186 0.332 7.86 9.25 10.52
5/6/2023 6:45:00 PM 16.76 62.168 0.333 7.83 8.13 10.27
5/6/2023 7:00:00 PM 16.76 62.168 0.338 7.81 9.29 10.07
5/6/2023 7:15:00 PM 16.78 62.204 0.344 7.79 11.43 9.89
5/6/2023 7:30:00 PM 16.79 62.222 0.343 7.77 8.36 9.75
5/6/2023 7:45:00 PM 16.77 62.186 0.343 7.75 8.22 9.57
5/6/2023 8:00:00 PM 16.72 62.096 0.345 7.72 8.79 9.41
5/6/2023 8:15:00 PM 16.65 61.97 0.348 7.7 8.2 9.24
5/6/2023 8:30:00 PM 16.58 61.844 0.35 7.67 8.21 9.08
5/6/2023 8:45:00 PM 16.5 61.7 0.353 7.64 10.63 8.98
5/6/2023 9:00:00 PM 16.4 61.52 0.356 7.62 10.67 8.87
5/6/2023 9:15:00 PM 16.3 61.34 0.358 7.6 10.28 8.77
5/6/2023 9:30:00 PM 16.19 61.142 0.361 7.58 9.79 8.7
5/6/2023 9:45:00 PM 16.07 60.926 0.36 7.56 10.89 8.6
5/6/2023 10:00:00 PM 15.94 60.692 0.362 7.54 10.98 8.53
5/6/2023 10:15:00 PM 15.81 60.458 0.363 7.53 11.4 8.46
5/6/2023 10:30:00 PM 15.67 60.206 0.364 7.51 15.95 8.44
5/6/2023 10:45:00 PM 15.53 59.954 0.368 7.5 13.71 8.41
5/6/2023 11:00:00 PM 15.38 59.684 0.369 7.48 10.98 8.38
5/6/2023 11:15:00 PM 15.22 59.396 0.372 7.47 12.62 8.36
5/6/2023 11:30:00 PM 15.05 59.09 0.372 7.46 11.93 8.34
5/6/2023 11:45:00 PM 14.88 58.784 0.369 7.45 12.11 8.33
5/7/2023 12:00:00 AM 14.7 58.46 0.372 7.44 13.46 8.35
5/7/2023 12:15:00 AM 14.52 58.136 0.369 7.44 12.86 8.38
5/7/2023 12:30:00 AM 14.33 57.794 0.373 7.44 11.3 8.38
5/7/2023 12:45:00 AM 14.14 57.452 0.372 7.42 13.78 8.42
5/7/2023 1:00:00 AM 13.95 57.11 0.373 7.42 11.08 8.46
5/7/2023 1:15:00 AM 13.76 56.768 0.373 7.41 13.5 8.49
5/7/2023 1:30:00 AM 13.57 56.426 0.375 7.41 11.57 8.53
5/7/2023 1:45:00 AM 13.37 56.066 0.375 7.41 14.92 8.55
5/7/2023 2:00:00 AM 13.18 55.724 0.376 7.4 12.79 8.62
5/7/2023 2:15:00 AM 12.99 55.382 0.377 7.4 15.41 8.66
5/7/2023 2:30:00 AM 12.8 55.04 0.377 7.39 13.6 8.72
5/7/2023 2:45:00 AM 12.62 54.716 0.377 7.39 13.82 8.77
5/7/2023 3:00:00 AM 12.44 54.392 0.379 7.39 11.42 8.82
5/7/2023 3:15:00 AM 12.27 54.086 0.38 7.39 12.58 8.86
5/7/2023 3:30:00 AM 12.11 53.798 0.381 7.39 12 8.92
5/7/2023 3:45:00 AM 11.95 53.51 0.381 7.39 11.58 8.96
5/7/2023 4:00:00 AM 11.8 53.24 0.381 7.39 11.47 9.05
5/7/2023 4:15:00 AM 11.66 52.988 0.379 7.4 11.68 9.09
5/7/2023 4:30:00 AM 11.53 52.754 0.378 7.39 12.73 9.15
5/7/2023 4:45:00 AM 11.41 52.538 0.378 7.39 12.56 9.19
5/7/2023 5:00:00 AM 11.29 52.322 0.378 7.39 12.31 9.22
5/7/2023 5:15:00 AM 11.17 52.106 0.377 7.39 11.4 9.26
5/7/2023 5:30:00 AM 11.06 51.908 0.377 7.4 11.47 9.3
5/7/2023 5:45:00 AM 10.95 51.71 0.377 7.4 12.64 9.36
5/7/2023 6:00:00 AM 10.86 51.548 0.378 7.39 12.2 9.4
5/7/2023 6:15:00 AM 10.77 51.386 0.378 7.39 11.89 9.45
5/7/2023 6:30:00 AM 10.69 51.242 0.378 7.4 10.99 9.51
5/7/2023 6:45:00 AM 10.62 51.116 0.378 7.4 10.33 9.55
5/7/2023 7:00:00 AM 10.55 50.99 0.379 7.41 9.8 9.62
5/7/2023 7:15:00 AM 10.51 50.918 0.379 7.41 10.1 9.7
5/7/2023 7:30:00 AM 10.47 50.846 0.378 7.41 10.72 9.8
5/7/2023 7:45:00 AM 10.45 50.81 0.378 7.42 8.14 9.94
5/7/2023 8:00:00 AM 10.44 50.792 0.378 7.42 9.1 10.03
5/7/2023 8:15:00 AM 10.43 50.774 0.379 7.44 8.21 10.14
5/7/2023 8:30:00 AM 10.44 50.792 0.379 7.45 7.23 10.28
5/7/2023 8:45:00 AM 10.46 50.828 0.379 7.46 7.98 10.38
5/7/2023 9:00:00 AM 10.49 50.882 0.379 7.48 7.32 10.5
5/7/2023 9:15:00 AM 10.53 50.954 0.378 7.48 7.86 10.63
5/7/2023 9:30:00 AM 10.57 51.026 0.378 7.5 6.61 10.77
5/7/2023 9:45:00 AM 10.63 51.134 0.378 7.51 7.23 10.86
5/7/2023 10:00:00 AM 10.71 51.278 0.378 7.52 7.08 11
5/7/2023 10:15:00 AM 10.77 51.386 0.379 7.54 6.64 11.1
5/7/2023 10:30:00 AM 10.81 51.458 0.378 7.55 6.78 11.13
5/7/2023 10:45:00 AM 10.85 51.53 0.378 7.56 6.32 11.18
5/7/2023 11:00:00 AM 10.9 51.62 0.378 7.57 5.72 11.19
5/7/2023 11:15:00 AM 10.95 51.71 0.379 7.58 6.16 11.24
5/7/2023 11:30:00 AM 11.04 51.872 0.378 7.59 5.69 11.33
5/7/2023 11:45:00 AM 11.16 52.088 0.378 7.61 6.4 11.46
5/7/2023 12:00:00 PM 11.26 52.268 0.377 7.63 5.88 11.57
5/7/2023 12:15:00 PM 11.32 52.376 0.377 7.64 6.28 11.58
5/7/2023 12:30:00 PM 11.43 52.574 0.377 7.64 5.67 11.65
5/7/2023 12:45:00 PM 11.59 52.862 0.375 7.65 5.85 11.79
5/7/2023 1:00:00 PM 11.74 53.132 0.374 7.68 5.6 11.91
5/7/2023 1:15:00 PM 11.86 53.348 0.375 7.7 6.52 11.99
5/7/2023 1:30:00 PM 11.99 53.582 0.373 7.72 5.88 12.05
5/7/2023 1:45:00 PM 12.1 53.78 0.374 7.74 6.09 12.05
5/7/2023 2:00:00 PM 12.17 53.906 0.373 7.74 5.86 11.99
5/7/2023 2:15:00 PM 12.25 54.05 0.374 7.75 5.34 11.96
5/7/2023 2:30:00 PM 12.34 54.212 0.373 7.76 5.57 11.87
5/7/2023 2:45:00 PM 12.45 54.41 0.372 7.76 5.15 11.88
5/7/2023 3:00:00 PM 12.56 54.608 0.371 7.77 5.72 11.88
5/7/2023 3:15:00 PM 12.64 54.752 0.371 7.78 5.25 11.83
5/7/2023 3:30:00 PM 12.68 54.824 0.371 7.77 5.19 11.66
5/7/2023 3:45:00 PM 12.72 54.896 0.372 7.76 5.33 11.48
5/7/2023 4:00:00 PM 12.78 55.004 0.371 7.75 6.92 11.36
5/7/2023 4:15:00 PM 12.86 55.148 0.37 7.75 5.82 11.29
5/7/2023 4:30:00 PM 12.94 55.292 0.372 7.75 5.66 11.24
5/7/2023 4:45:00 PM 13.03 55.454 0.371 7.76 5.92 11.23
5/7/2023 5:00:00 PM 13.1 55.58 0.371 7.76 5.52 11.17
5/7/2023 5:15:00 PM 13.16 55.688 0.371 7.76 5.67 11.09
5/7/2023 5:30:00 PM 13.2 55.76 0.372 7.75 7.49 10.97
5/7/2023 5:45:00 PM 13.25 55.85 0.37 7.74 6.33 10.88
5/7/2023 6:00:00 PM 13.32 55.976 0.372 7.74 6.74 10.8
5/7/2023 6:15:00 PM 13.39 56.102 0.372 7.74 6.79 10.79
5/7/2023 6:30:00 PM 13.44 56.192 0.373 7.73 8.43 10.71
5/7/2023 6:45:00 PM 13.47 56.246 0.372 7.73 6.18 10.59
5/7/2023 7:00:00 PM 13.49 56.282 0.374 7.71 6.9 10.42
5/7/2023 7:15:00 PM 13.52 56.336 0.374 7.7 7.36 10.34
5/7/2023 7:30:00 PM 13.52 56.336 0.374 7.68 7.45 10.21
5/7/2023 7:45:00 PM 13.52 56.336 0.375 7.67 10.3 10.11
5/7/2023 8:00:00 PM 13.51 56.318 0.372 7.66 7.54 9.99
5/7/2023 8:15:00 PM 13.5 56.3 0.374 7.64 7.08 9.84
5/7/2023 8:30:00 PM 13.49 56.282 0.376 7.61 8.12 9.73
5/7/2023 8:45:00 PM 13.47 56.246 0.375 7.6 7.91 9.61
5/7/2023 9:00:00 PM 13.46 56.228 0.377 7.58 9.3 9.53
5/7/2023 9:15:00 PM 13.45 56.21 0.378 7.56 9.25 9.46
5/7/2023 9:30:00 PM 13.43 56.174 0.379 7.55 10.81 9.38
5/7/2023 9:45:00 PM 13.41 56.138 0.38 7.54 8.42 9.31
5/7/2023 10:00:00 PM 13.39 56.102 0.382 7.53 9.96 9.26
5/7/2023 10:15:00 PM 13.37 56.066 0.383 7.52 9.09 9.21
5/7/2023 10:30:00 PM 13.35 56.03 0.382 7.51 8.89 9.16
5/7/2023 10:45:00 PM 13.31 55.958 0.381 7.5 11.9 9.08
5/7/2023 11:00:00 PM 13.28 55.904 0.382 7.5 9.98 9.06
5/7/2023 11:15:00 PM 13.23 55.814 0.382 7.49 10.42 9.02
5/7/2023 11:30:00 PM 13.19 55.742 0.383 7.49 10 8.98
5/7/2023 11:45:00 PM 13.14 55.652 0.383 7.48 9.27 8.96
5/8/2023 12:00:00 AM 13.1 55.58 0.383 7.46 9.66 8.94
5/8/2023 12:15:00 AM 13.05 55.49 0.385 7.46 10.14 8.9
5/8/2023 12:30:00 AM 13 55.4 0.383 7.45 11.05 8.89
5/8/2023 12:45:00 AM 12.95 55.31 0.384 7.44 10.93 8.89
5/8/2023 1:00:00 AM 12.9 55.22 0.385 7.44 9.77 8.87
5/8/2023 1:15:00 AM 12.85 55.13 0.386 7.44 10.53 8.87
5/8/2023 1:30:00 AM 12.8 55.04 0.386 7.44 10.23 8.86
5/8/2023 1:45:00 AM 12.75 54.95 0.386 7.43 11.65 8.86
5/8/2023 2:00:00 AM 12.7 54.86 0.386 7.43 10.68 8.86
5/8/2023 2:15:00 AM 12.64 54.752 0.387 7.43 9.51 8.87
5/8/2023 2:30:00 AM 12.59 54.662 0.386 7.42 10.49 8.87
5/8/2023 2:45:00 AM 12.54 54.572 0.386 7.43 10.1 8.87
5/8/2023 3:00:00 AM 12.49 54.482 0.387 7.42 12.6 8.89
5/8/2023 3:15:00 AM 12.43 54.374 0.387 7.42 11.72 8.87
5/8/2023 3:30:00 AM 12.39 54.302 0.387 7.42 10.24 8.9
5/8/2023 3:45:00 AM 12.34 54.212 0.387 7.41 10.07 8.9
5/8/2023 4:00:00 AM 12.29 54.122 0.387 7.42 11.02 8.92
5/8/2023 4:15:00 AM 12.24 54.032 0.386 7.42 11.29 8.93
5/8/2023 4:30:00 AM 12.19 53.942 0.386 7.42 10.86 8.93
5/8/2023 4:45:00 AM 12.15 53.87 0.386 7.42 10.08 8.95
5/8/2023 5:00:00 AM 12.12 53.816 0.387 7.43 13.22 8.97
5/8/2023 5:15:00 AM 12.08 53.744 0.387 7.42 9.66 8.98
5/8/2023 5:30:00 AM 12.05 53.69 0.388 7.42 12.63 9
5/8/2023 5:45:00 AM 12.03 53.654 0.388 7.43 9.06 8.99
5/8/2023 6:00:00 AM 12 53.6 0.386 7.43 9.32 9.02
5/8/2023 6:15:00 AM 11.97 53.546 0.387 7.42 10.55 9.02
5/8/2023 6:30:00 AM 11.95 53.51 0.387 7.43 11.31 9.04
5/8/2023 6:45:00 AM 11.93 53.474 0.389 7.44 10.42 9.12
5/8/2023 7:00:00 AM 11.92 53.456 0.389 7.44 8.19 9.17
5/8/2023 7:15:00 AM 11.9 53.42 0.388 7.43 10.29 9.24
5/8/2023 7:30:00 AM 11.9 53.42 0.388 7.44 9.41 9.3
5/8/2023 7:45:00 AM 11.91 53.438 0.388 7.46 9.14 9.39
5/8/2023 8:00:00 AM 11.94 53.492 0.388 7.47 7.9 9.5
5/8/2023 8:15:00 AM 11.97 53.546 0.39 7.48 8.49 9.61
5/8/2023 8:30:00 AM 11.98 53.564 0.389 7.48 7.47 9.65
5/8/2023 8:45:00 AM 12 53.6 0.39 7.49 6.54 9.7
5/8/2023 9:00:00 AM 12.02 53.636 0.389 7.5 6.01 9.72
5/8/2023 9:15:00 AM 12.12 53.816 0.389 7.52 5.77 9.93
5/8/2023 9:30:00 AM 12.22 53.996 0.389 7.52 6.37 10.14
5/8/2023 9:45:00 AM 12.28 54.104 0.389 7.53 6.8 10.27
5/8/2023 10:00:00 AM 12.36 54.248 0.389 7.56 5.68 10.42
5/8/2023 10:15:00 AM 12.46 54.428 0.389 7.56 6.4 10.55
5/8/2023 10:30:00 AM 12.55 54.59 0.389 7.59 5.64 10.69
5/8/2023 10:45:00 AM 12.66 54.788 0.389 7.6 5.59 10.84
5/8/2023 11:00:00 AM 12.73 54.914 0.39 7.62 5.04 10.91
5/8/2023 11:15:00 AM 12.8 55.04 0.389 7.63 5.47 10.97
5/8/2023 11:30:00 AM 12.86 55.148 0.389 7.63 5.48 11.03
5/8/2023 11:45:00 AM 13.17 55.706 0.39 7.66 6.5 11.21
5/8/2023 12:00:00 PM 13.29 55.922 0.388 7.66 5.63 11.28
5/8/2023 12:15:00 PM 13.39 56.102 0.386 7.69 5.65 11.34
5/8/2023 12:30:00 PM 13.43 56.174 0.386 7.7 5.93 11.34
5/8/2023 12:45:00 PM 13.51 56.318 0.385 7.71 5.01 11.36
5/8/2023 1:00:00 PM 13.59 56.462 0.385 7.72 5.36 11.42
5/8/2023 1:15:00 PM 13.72 56.696 0.381 7.74 6.09 11.54
5/8/2023 1:30:00 PM 13.92 57.056 0.379 7.76 5.9 11.67
5/8/2023 1:45:00 PM 14.12 57.416 0.375 7.79 4.91 11.8
5/8/2023 2:00:00 PM 14.36 57.848 0.377 7.81 10.41 11.9
5/8/2023 2:15:00 PM 14.71 58.478 0.374 7.83 5.39 12.01
5/8/2023 2:30:00 PM 14.75 58.55 0.372 7.83 6.25 11.93
5/8/2023 2:45:00 PM 14.99 58.982 0.368 7.85 5.41 11.96
5/8/2023 3:00:00 PM 15.04 59.072 0.365 7.86 6.58 11.88
5/8/2023 3:15:00 PM 15.18 59.324 0.361 7.87 5.87 11.89
5/8/2023 3:30:00 PM 15.22 59.396 0.361 7.87 5.54 11.78
5/8/2023 3:45:00 PM 15.38 59.684 0.375 7.88 6.38 11.81
5/8/2023 4:00:00 PM 15.48 59.864 0.376 7.89 8.01 11.73
5/8/2023 4:15:00 PM 15.72 60.296 0.377 7.9 6.09 11.74
5/8/2023 4:30:00 PM 15.82 60.476 0.378 7.9 6.46 11.65
5/8/2023 4:45:00 PM 16.03 60.854 0.379 7.92 5.58 11.61
5/8/2023 5:00:00 PM 16.19 61.142 0.378 7.93 5.9 11.57
5/8/2023 5:15:00 PM 16.32 61.376 0.378 7.93 6.5 11.5
5/8/2023 5:30:00 PM 16.43 61.574 0.376 7.94 5.79 11.38
5/8/2023 5:45:00 PM 16.56 61.808 0.373 7.94 8 11.27
5/8/2023 6:00:00 PM 16.63 61.934 0.374 7.93 6.4 11.1
5/8/2023 6:15:00 PM 16.68 62.024 0.373 7.93 7.52 10.92
5/8/2023 6:30:00 PM 16.68 62.024 0.376 7.92 6.62 10.76
5/8/2023 6:45:00 PM 16.68 62.024 0.373 7.91 6.51 10.57
5/8/2023 7:00:00 PM 16.67 62.006 0.374 7.88 8.44 10.35
5/8/2023 7:15:00 PM 16.66 61.988 0.375 7.86 9.71 10.14
5/8/2023 7:30:00 PM 16.65 61.97 0.376 7.84 8.74 10
5/8/2023 7:45:00 PM 16.64 61.952 0.378 7.81 8.48 9.78
5/8/2023 8:00:00 PM 16.64 61.952 0.381 7.79 8.53 9.58
5/8/2023 8:15:00 PM 16.62 61.916 0.381 7.77 7.46 9.38
5/8/2023 8:30:00 PM 16.6 61.88 0.382 7.75 7.08 9.24
5/8/2023 8:45:00 PM 16.57 61.826 0.384 7.73 6.87 9.08
5/8/2023 9:00:00 PM 16.52 61.736 0.386 7.71 8.38 8.97
5/8/2023 9:15:00 PM 16.45 61.61 0.386 7.68 9.41 8.81
5/8/2023 9:30:00 PM 16.37 61.466 0.386 7.66 9.23 8.72
5/8/2023 9:45:00 PM 16.27 61.286 0.387 7.64 9.76 8.62
5/8/2023 10:00:00 PM 16.16 61.088 0.389 7.61 10.3 8.55
5/8/2023 10:15:00 PM 16.03 60.854 0.383 7.59 9.92 8.48
5/8/2023 10:30:00 PM 15.91 60.638 0.391 7.57 9.87 8.43
5/8/2023 10:45:00 PM 15.79 60.422 0.392 7.56 9.83 8.38
5/8/2023 11:00:00 PM 15.68 60.224 0.392 7.54 10.56 8.33
5/8/2023 11:15:00 PM 15.58 60.044 0.392 7.53 10.08 8.29
5/8/2023 11:30:00 PM 15.47 59.846 0.394 7.52 10.32 8.24
5/8/2023 11:45:00 PM 15.36 59.648 0.394 7.5 11.54 8.19
5/9/2023 12:00:00 AM 15.25 59.45 0.395 7.49 11.78 8.17
5/9/2023 12:15:00 AM 15.13 59.234 0.395 7.48 10.25 8.16
5/9/2023 12:30:00 AM 15.02 59.036 0.395 7.47 11.54 8.16
5/9/2023 12:45:00 AM 14.9 58.82 0.396 7.47 9.93 8.15
5/9/2023 1:00:00 AM 14.78 58.604 0.396 7.46 11.16 8.16
5/9/2023 1:15:00 AM 14.66 58.388 0.399 7.45 9.53 8.16
5/9/2023 1:30:00 AM 14.53 58.154 0.401 7.45 9.96 8.19
5/9/2023 1:45:00 AM 14.41 57.938 0.403 7.44 9.78 8.23
5/9/2023 2:00:00 AM 14.29 57.722 0.402 7.45 10.42 8.23
5/9/2023 2:15:00 AM 14.17 57.506 0.401 7.45 9.48 8.25
5/9/2023 2:30:00 AM 14.05 57.29 0.4 7.45 12.75 8.29
5/9/2023 2:45:00 AM 13.94 57.092 0.399 7.44 10.44 8.31
5/9/2023 3:00:00 AM 13.83 56.894 0.399 7.44 9.97 8.35
5/9/2023 3:15:00 AM 13.71 56.678 0.398 7.43 9.49 8.38
5/9/2023 3:30:00 AM 13.6 56.48 0.4 7.43 11.22 8.39
5/9/2023 3:45:00 AM 13.49 56.282 0.4 7.43 12.25 8.44
5/9/2023 4:00:00 AM 13.39 56.102 0.399 7.43 8.89 8.48
5/9/2023 4:15:00 AM 13.29 55.922 0.4 7.43 11.59 8.51
5/9/2023 4:30:00 AM 13.19 55.742 0.399 7.43 12.12 8.54
5/9/2023 4:45:00 AM 13.09 55.562 0.401 7.44 10.16 8.57
5/9/2023 5:00:00 AM 12.99 55.382 0.401 7.43 9.68 8.6
5/9/2023 5:15:00 AM 12.9 55.22 0.4 7.43 8.19 8.64
5/9/2023 5:30:00 AM 12.8 55.04 0.4 7.43 10.1 8.67
5/9/2023 5:45:00 AM 12.71 54.878 0.4 7.43 11.26 8.7
5/9/2023 6:00:00 AM 12.62 54.716 0.399 7.42 11.55 8.74
5/9/2023 6:15:00 AM 12.53 54.554 0.398 7.42 12 8.76
5/9/2023 6:30:00 AM 12.46 54.428 0.399 7.43 9.9 8.81
5/9/2023 6:45:00 AM 12.38 54.284 0.399 7.43 10.44 8.88
5/9/2023 7:00:00 AM 12.31 54.158 0.4 7.43 8.27 8.94
5/9/2023 7:15:00 AM 12.26 54.068 0.399 7.44 8.72 9.04
5/9/2023 7:30:00 AM 12.21 53.978 0.399 7.44 10.36 9.11
5/9/2023 7:45:00 AM 12.16 53.888 0.398 7.46 8.17 9.17
5/9/2023 8:00:00 AM 12.12 53.816 0.398 7.46 7.5 9.26
5/9/2023 8:15:00 AM 12.08 53.744 0.398 7.47 6.76 9.34
5/9/2023 8:30:00 AM 12.05 53.69 0.4 7.48 6.64 9.45
5/9/2023 8:45:00 AM 12.04 53.672 0.398 7.48 6.84 9.56
5/9/2023 9:00:00 AM 12.03 53.654 0.399 7.48 6.56 9.68
5/9/2023 9:15:00 AM 12.03 53.654 0.399 7.5 5.15 9.81
5/9/2023 9:30:00 AM 12.05 53.69 0.398 7.52 5.63 9.99
5/9/2023 9:45:00 AM 12.06 53.708 0.399 7.52 6.9 10.16
5/9/2023 10:00:00 AM 12.09 53.762 0.399 7.54 6.02 10.32
5/9/2023 10:15:00 AM 12.14 53.852 0.399 7.55 5.19 10.5
5/9/2023 10:30:00 AM 12.22 53.996 0.398 7.57 5.09 10.71
5/9/2023 10:45:00 AM 12.25 54.05 0.398 7.59 5.02 10.81
5/9/2023 11:00:00 AM 12.28 54.104 0.397 7.6 4.68 10.92
5/9/2023 11:15:00 AM 12.35 54.23 0.396 7.62 5.54 11.05
5/9/2023 11:30:00 AM 12.47 54.446 0.395 7.64 6.02 11.2
5/9/2023 11:45:00 AM 12.66 54.788 0.395 7.66 4.28 11.4
5/9/2023 12:00:00 PM 12.9 55.22 0.393 7.69 5 11.57
5/9/2023 12:15:00 PM 13.14 55.652 0.393 7.7 5.14 11.67
5/9/2023 12:30:00 PM 13.38 56.084 0.393 7.72 4.52 11.78
5/9/2023 12:45:00 PM 13.61 56.498 0.392 7.73 4.52 11.85
5/9/2023 1:00:00 PM 13.84 56.912 0.392 7.75 6.15 11.93
5/9/2023 1:15:00 PM 14.07 57.326 0.391 7.77 4.48 12.01
5/9/2023 1:30:00 PM 14.31 57.758 0.39 7.79 5.34 12.09
5/9/2023 1:45:00 PM 14.59 58.262 0.389 7.81 6.18 12.18
5/9/2023 2:00:00 PM 14.88 58.784 0.387 7.84 5.55 12.25
5/9/2023 2:15:00 PM 14.99 58.982 0.384 7.84 4.62 12.23
5/9/2023 2:30:00 PM 15.04 59.072 0.376 7.85 6.6 12.19
5/9/2023 2:45:00 PM 15.1 59.18 0.373 7.86 5.05 12.12
5/9/2023 3:00:00 PM 15.3 59.54 0.366 7.88 4.64 12.12
5/9/2023 3:15:00 PM 15.54 59.972 0.375 7.89 6.11 12.16
5/9/2023 3:30:00 PM 15.79 60.422 0.377 7.91 5.12 12.16
5/9/2023 3:45:00 PM 15.99 60.782 0.369 7.92 6.18 12.12
5/9/2023 4:00:00 PM 16.15 61.07 0.377 7.93 6.87 12.07
5/9/2023 4:15:00 PM 16.28 61.304 0.375 7.94 5.31 11.95
5/9/2023 4:30:00 PM 16.41 61.538 0.375 7.94 5.24 11.87
5/9/2023 4:45:00 PM 16.53 61.754 0.371 7.94 5.98 11.74
5/9/2023 5:00:00 PM 16.64 61.952 0.375 7.95 5.56 11.65
5/9/2023 5:15:00 PM 16.73 62.114 0.381 7.96 5.5 11.56
5/9/2023 5:30:00 PM 16.83 62.294 0.383 7.96 5.05 11.42
5/9/2023 5:45:00 PM 16.87 62.366 0.384 7.96 5.69 11.29
5/9/2023 6:00:00 PM 16.92 62.456 0.384 7.96 6.87 11.14
5/9/2023 6:15:00 PM 16.96 62.528 0.379 7.96 5.83 10.97
5/9/2023 6:30:00 PM 16.99 62.582 0.377 7.95 5.33 10.8
5/9/2023 6:45:00 PM 17.04 62.672 0.378 7.93 7.4 10.6
5/9/2023 7:00:00 PM 17.05 62.69 0.383 7.91 5.82 10.38
5/9/2023 7:15:00 PM 17.04 62.672 0.385 7.9 6.34 10.19
5/9/2023 7:30:00 PM 16.99 62.582 0.386 7.88 6.14 9.97
5/9/2023 7:45:00 PM 16.94 62.492 0.387 7.86 5.88 9.74
5/9/2023 8:00:00 PM 16.89 62.402 0.386 7.85 5.65 9.56
5/9/2023 8:15:00 PM 16.83 62.294 0.387 7.82 7.19 9.37
5/9/2023 8:30:00 PM 16.75 62.15 0.387 7.8 6.38 9.16
5/9/2023 8:45:00 PM 16.66 61.988 0.388 7.77 7.03 8.96
5/9/2023 9:00:00 PM 16.58 61.844 0.389 7.74 8.43 8.78
5/9/2023 9:15:00 PM 16.49 61.682 0.391 7.71 9.54 8.67
5/9/2023 9:30:00 PM 16.39 61.502 0.392 7.7 8.32 8.58
5/9/2023 9:45:00 PM 16.29 61.322 0.393 7.68 8.87 8.51
5/9/2023 10:00:00 PM 16.18 61.124 0.394 7.66 9.94 8.45
5/9/2023 10:15:00 PM 16.09 60.962 0.395 7.64 8.86 8.38
5/9/2023 10:30:00 PM 15.99 60.782 0.396 7.62 9.24 8.32
5/9/2023 10:45:00 PM 15.88 60.584 0.397 7.61 9.12 8.24
5/9/2023 11:00:00 PM 15.76 60.368 0.397 7.59 9.56 8.21
5/9/2023 11:15:00 PM 15.64 60.152 0.398 7.58 10.62 8.18
5/9/2023 11:30:00 PM 15.51 59.918 0.398 7.56 8.83 8.13
5/9/2023 11:45:00 PM 15.38 59.684 0.399 7.55 8.59 8.11
5/10/2023 12:00:00 AM 15.23 59.414 0.399 7.53 8.07 8.09
5/10/2023 12:15:00 AM 15.09 59.162 0.4 7.52 9.77 8.08
5/10/2023 12:30:00 AM 14.93 58.874 0.377 7.51 8.86 8.08
5/10/2023 12:45:00 AM 14.77 58.586 0.401 7.5 9.58 8.09
5/10/2023 1:00:00 AM 14.61 58.298 0.385 7.5 9.37 8.09
5/10/2023 1:15:00 AM 14.44 57.992 0.367 7.48 9.15 8.12
5/10/2023 1:30:00 AM 14.26 57.668 0.406 7.48 12.79 8.16
5/10/2023 1:45:00 AM 14.09 57.362 0.406 7.47 7.91 8.18
5/10/2023 2:00:00 AM 13.91 57.038 0.406 7.46 9.2 8.23
5/10/2023 2:15:00 AM 13.74 56.732 0.407 7.46 9.62 8.25
5/10/2023 2:30:00 AM 13.56 56.408 0.408 7.45 10.1 8.3
5/10/2023 2:45:00 AM 13.38 56.084 0.408 7.46 10.7 8.35
5/10/2023 3:00:00 AM 13.21 55.778 0.408 7.45 9.47 8.4
5/10/2023 3:15:00 AM 13.04 55.472 0.408 7.45 11.22 8.46
5/10/2023 3:30:00 AM 12.86 55.148 0.399 7.45 9.26 8.53
5/10/2023 3:45:00 AM 12.7 54.86 0.409 7.45 10.13 8.57
5/10/2023 4:00:00 AM 12.53 54.554 0.409 7.45 9.62 8.62
5/10/2023 4:15:00 AM 12.36 54.248 0.409 7.45 9.16 8.68
5/10/2023 4:30:00 AM 12.2 53.96 0.409 7.45 7.61 8.75
5/10/2023 4:45:00 AM 12.03 53.654 0.409 7.44 7.79 8.81
5/10/2023 5:00:00 AM 11.87 53.366 0.408 7.45 9.78 8.85
5/10/2023 5:15:00 AM 11.71 53.078 0.394 7.44 9.03 8.92
5/10/2023 5:30:00 AM 11.56 52.808 0.408 7.45 7.9 8.98
5/10/2023 5:45:00 AM 11.41 52.538 0.408 7.45 8.66 9.03
5/10/2023 6:00:00 AM 11.26 52.268 0.408 7.45 12.04 9.08
5/10/2023 6:15:00 AM 11.12 52.016 0.408 7.46 8.04 9.15
5/10/2023 6:30:00 AM 10.99 51.782 0.409 7.45 7.73 9.24
5/10/2023 6:45:00 AM 10.87 51.566 0.408 7.45 8.74 9.33
5/10/2023 7:00:00 AM 10.76 51.368 0.408 7.46 6.43 9.44
5/10/2023 7:15:00 AM 10.67 51.206 0.408 7.47 6.83 9.55
5/10/2023 7:30:00 AM 10.58 51.044 0.408 7.47 9.05 9.71
5/10/2023 7:45:00 AM 10.52 50.936 0.408 7.49 6.12 9.87
5/10/2023 8:00:00 AM 10.47 50.846 0.408 7.5 6.37 10.03
5/10/2023 8:15:00 AM 10.44 50.792 0.408 7.5 5.97 10.16
5/10/2023 8:30:00 AM 10.43 50.774 0.408 7.52 6.75 10.34
5/10/2023 8:45:00 AM 10.43 50.774 0.407 7.53 5.81 10.49
5/10/2023 9:00:00 AM 10.46 50.828 0.408 7.54 5.45 10.64
5/10/2023 9:15:00 AM 10.51 50.918 0.407 7.55 4.78 10.81
5/10/2023 9:30:00 AM 10.57 51.026 0.407 7.57 5.69 10.97
5/10/2023 9:45:00 AM 10.65 51.17 0.407 7.57 6 11.11
5/10/2023 10:00:00 AM 10.75 51.35 0.408 7.59 4.69 11.27
5/10/2023 10:15:00 AM 10.88 51.584 0.407 7.6 5.11 11.42
5/10/2023 10:30:00 AM 11.01 51.818 0.408 7.62 4.45 11.57
5/10/2023 10:45:00 AM 11.17 52.106 0.408 7.64 4.08 11.67
5/10/2023 11:00:00 AM 11.34 52.412 0.407 7.64 5.03 11.81
5/10/2023 11:15:00 AM 11.54 52.772 0.406 7.66 4.5 11.91
5/10/2023 11:30:00 AM 11.74 53.132 0.404 7.68 4.83 12
5/10/2023 11:45:00 AM 11.96 53.528 0.402 7.69 6.63 12.11
5/10/2023 12:00:00 PM 12.19 53.942 0.401 7.71 4.52 12.21
5/10/2023 12:15:00 PM 12.43 54.374 0.398 7.71 4.45 12.33
5/10/2023 12:30:00 PM 12.68 54.824 0.392 7.73 3.86 12.38
5/10/2023 12:45:00 PM 12.94 55.292 0.391 7.75 4.44 12.45
5/10/2023 1:00:00 PM 13.2 55.76 0.388 7.76 6.87 12.51
5/10/2023 1:15:00 PM 13.47 56.246 0.382 7.78 4.01 12.55
5/10/2023 1:30:00 PM 13.74 56.732 0.379 7.8 3.78 12.58
5/10/2023 1:45:00 PM 14.01 57.218 0.369 7.82 4.89 12.63
5/10/2023 2:00:00 PM 14.27 57.686 0.378 7.84 4.04 12.61
5/10/2023 2:15:00 PM 14.53 58.154 0.386 7.85 4.98 12.64
5/10/2023 2:30:00 PM 14.78 58.604 0.385 7.87 4.71 12.63
5/10/2023 2:45:00 PM 15.04 59.072 0.393 7.88 5.62 12.59
5/10/2023 3:00:00 PM 15.28 59.504 0.39 7.89 5.21 12.57
5/10/2023 3:15:00 PM 15.51 59.918 0.385 7.9 4.07 12.48
5/10/2023 3:30:00 PM 15.72 60.296 0.389 7.92 4.59 12.43
5/10/2023 3:45:00 PM 15.92 60.656 0.387 7.92 4.1 12.34
5/10/2023 4:00:00 PM 16.11 60.998 0.388 7.93 5.27 12.27
5/10/2023 4:15:00 PM 16.29 61.322 0.388 7.95 4.67 12.19
5/10/2023 4:30:00 PM 16.46 61.628 0.388 7.96 6.03 12.08
5/10/2023 4:45:00 PM 16.62 61.916 0.385 7.97 5.98 11.97
5/10/2023 5:00:00 PM 16.76 62.168 0.379 7.97 4.86 11.89
5/10/2023 5:15:00 PM 16.87 62.366 0.386 7.98 6.95 11.72
5/10/2023 5:30:00 PM 16.95 62.51 0.381 7.98 4.47 11.56
5/10/2023 5:45:00 PM 17.06 62.708 0.384 7.98 5.08 11.4
5/10/2023 6:00:00 PM 17.1 62.78 0.385 7.97 5.45 11.22
5/10/2023 6:15:00 PM 17.16 62.888 0.384 7.96 4.96 11.05
5/10/2023 6:30:00 PM 17.23 63.014 0.385 7.95 7.31 10.88
5/10/2023 6:45:00 PM 17.26 63.068 0.382 7.94 6.18 10.64
5/10/2023 7:00:00 PM 17.29 63.122 0.378 7.93 6.48 10.43
5/10/2023 7:15:00 PM 17.29 63.122 0.387 7.92 6.95 10.21
5/10/2023 7:30:00 PM 17.27 63.086 0.387 7.9 5.06 9.99
5/10/2023 7:45:00 PM 17.26 63.068 0.387 7.89 4.39 9.73
5/10/2023 8:00:00 PM 17.22 62.996 0.389 7.86 5.72 9.52
5/10/2023 8:15:00 PM 17.17 62.906 0.387 7.83 5.97 9.32
5/10/2023 8:30:00 PM 17.12 62.816 0.386 7.81 6.45 9.11
5/10/2023 8:45:00 PM 17.05 62.69 0.384 7.78 5.85 8.9
5/10/2023 9:00:00 PM 16.98 62.564 0.392 7.75 7.48 8.74
5/10/2023 9:15:00 PM 16.9 62.42 0.392 7.71 6.95 8.59
5/10/2023 9:30:00 PM 16.8 62.24 0.397 7.69 6.58 8.46
5/10/2023 9:45:00 PM 16.71 62.078 0.395 7.66 7.94 8.39
5/10/2023 10:00:00 PM 16.6 61.88 0.397 7.64 7.93 8.33
5/10/2023 10:15:00 PM 16.5 61.7 0.398 7.62 7.89 8.25
5/10/2023 10:30:00 PM 16.39 61.502 0.4 7.62 8.09 8.19
5/10/2023 10:45:00 PM 16.28 61.304 0.401 7.6 7.82 8.11
5/10/2023 11:00:00 PM 16.16 61.088 0.401 7.58 7.44 8.06
5/10/2023 11:15:00 PM 16.04 60.872 0.403 7.57 8.38 8.01
5/10/2023 11:30:00 PM 15.92 60.656 0.404 7.54 6.88 7.96
5/10/2023 11:45:00 PM 15.78 60.404 0.405 7.53 7.31 7.95
5/11/2023 12:00:00 AM 15.64 60.152 0.406 7.52 8.82 7.92
5/11/2023 12:15:00 AM 15.49 59.882 0.407 7.51 7.09 7.9
5/11/2023 12:30:00 AM 15.34 59.612 0.401 7.5 6.96 7.9
5/11/2023 12:45:00 AM 15.18 59.324 0.4 7.49 7.47 7.89
5/11/2023 1:00:00 AM 15.02 59.036 0.385 7.47 8.76 7.9
5/11/2023 1:15:00 AM 14.86 58.748 0.345 7.47 7.77 7.92
5/11/2023 1:30:00 AM 14.7 58.46 0.347 7.47 8.08 7.95
5/11/2023 1:45:00 AM 14.53 58.154 0.391 7.46 6.88 7.97
5/11/2023 2:00:00 AM 14.36 57.848 0.417 7.46 8.31 8
5/11/2023 2:15:00 AM 14.2 57.56 0.418 7.45 11.09 8.05
5/11/2023 2:30:00 AM 14.04 57.272 0.418 7.45 8.09 8.08
5/11/2023 2:45:00 AM 13.87 56.966 0.418 7.45 7.86 8.13
5/11/2023 3:00:00 AM 13.71 56.678 0.417 7.44 6.26 8.18
5/11/2023 3:15:00 AM 13.54 56.372 0.419 7.44 10.99 8.23
5/11/2023 3:30:00 AM 13.38 56.084 0.417 7.44 8.59 8.28
5/11/2023 3:45:00 AM 13.22 55.796 0.419 7.44 8.6 8.34
5/11/2023 4:00:00 AM 13.05 55.49 0.417 7.44 11 8.39
5/11/2023 4:15:00 AM 12.89 55.202 0.418 7.44 8.64 8.45
5/11/2023 4:30:00 AM 12.74 54.932 0.418 7.45 6.41 8.5
5/11/2023 4:45:00 AM 12.58 54.644 0.404 7.45 9.14 8.58
5/11/2023 5:00:00 AM 12.42 54.356 0.416 7.45 8.36 8.62
5/11/2023 5:15:00 AM 12.27 54.086 0.419 7.45 10.03 8.68
5/11/2023 5:30:00 AM 12.12 53.816 0.405 7.45 7.61 8.73
5/11/2023 5:45:00 AM 11.98 53.564 0.417 7.45 7.02 8.78
5/11/2023 6:00:00 AM 11.83 53.294 0.417 7.45 6.97 8.85
5/11/2023 6:15:00 AM 11.69 53.042 0.417 7.45 9.7 8.89
5/11/2023 6:30:00 AM 11.56 52.808 0.417 7.45 7.44 8.98
5/11/2023 6:45:00 AM 11.45 52.61 0.418 7.44 8.72 9.06
5/11/2023 7:00:00 AM 11.34 52.412 0.418 7.45 5.98 9.19
5/11/2023 7:15:00 AM 11.25 52.25 0.418 7.47 5.69 9.31
5/11/2023 7:30:00 AM 11.18 52.124 0.417 7.47 6.82 9.44
5/11/2023 7:45:00 AM 11.12 52.016 0.418 7.48 5.91 9.61
5/11/2023 8:00:00 AM 11.08 51.944 0.418 7.49 6.57 9.74
5/11/2023 8:15:00 AM 11.05 51.89 0.418 7.5 4.89 9.91
5/11/2023 8:30:00 AM 11.04 51.872 0.417 7.52 4.5 10.09
5/11/2023 8:45:00 AM 11.06 51.908 0.418 7.52 6.17 10.26
5/11/2023 9:00:00 AM 11.09 51.962 0.419 7.54 5.57 10.45
5/11/2023 9:15:00 AM 11.13 52.034 0.418 7.56 4.08 10.59
5/11/2023 9:30:00 AM 11.21 52.178 0.418 7.56 4.71 10.76
5/11/2023 9:45:00 AM 11.29 52.322 0.418 7.58 4.71 10.92
5/11/2023 10:00:00 AM 11.4 52.52 0.418 7.6 5.24 11.11
5/11/2023 10:15:00 AM 11.53 52.754 0.418 7.61 3.79 11.26
5/11/2023 10:30:00 AM 11.69 53.042 0.416 7.62 4.21 11.36
5/11/2023 10:45:00 AM 11.86 53.348 0.417 7.64 4.46 11.5
5/11/2023 11:00:00 AM 12.04 53.672 0.416 7.65 4.06 11.65
5/11/2023 11:15:00 AM 12.24 54.032 0.415 7.66 3.8 11.78
5/11/2023 11:30:00 AM 12.45 54.41 0.414 7.68 4.05 11.93
5/11/2023 11:45:00 AM 12.67 54.806 0.414 7.71 4.91 12.07
5/11/2023 12:00:00 PM 12.89 55.202 0.409 7.72 4.47 12.17
5/11/2023 12:15:00 PM 13.13 55.634 0.406 7.74 3.58 12.29
5/11/2023 12:30:00 PM 13.37 56.066 0.403 7.76 4.03 12.4
5/11/2023 12:45:00 PM 13.63 56.534 0.394 7.78 4.03 12.51
5/11/2023 1:00:00 PM 13.89 57.002 0.384 7.8 3.46 12.53
5/11/2023 1:15:00 PM 14.14 57.452 0.381 7.82 4.18 12.58
5/11/2023 1:30:00 PM 14.41 57.938 0.385 7.84 4.42 12.63
5/11/2023 1:45:00 PM 14.67 58.406 0.38 7.86 4.53 12.66
5/11/2023 2:00:00 PM 14.94 58.892 0.381 7.88 5.18 12.67
5/11/2023 2:15:00 PM 15.2 59.36 0.386 7.89 4.55 12.65
5/11/2023 2:30:00 PM 15.42 59.756 0.389 7.9 3.44 12.65
5/11/2023 2:45:00 PM 15.63 60.134 0.396 7.91 5.13 12.57
5/11/2023 3:00:00 PM 15.85 60.53 0.4 7.92 14.61 12.53
5/11/2023 3:15:00 PM 16.08 60.944 0.394 7.94 4.82 12.47
5/11/2023 3:30:00 PM 16.31 61.358 0.4 7.95 7.05 12.47
5/11/2023 3:45:00 PM 16.53 61.754 0.395 7.96 5.53 12.39
5/11/2023 4:00:00 PM 16.74 62.132 0.394 7.96 3.89 12.33
5/11/2023 4:15:00 PM 16.92 62.456 0.398 7.98 3.92 12.22
5/11/2023 4:30:00 PM 17.09 62.762 0.389 7.98 6.27 12.09
5/11/2023 4:45:00 PM 17.24 63.032 0.383 7.99 5.53 11.98
5/11/2023 5:00:00 PM 17.38 63.284 0.401 7.99 4.23 11.82
5/11/2023 5:15:00 PM 17.51 63.518 0.403 8 5 11.69
5/11/2023 5:30:00 PM 17.63 63.734 0.394 8 5.34 11.55
5/11/2023 5:45:00 PM 17.73 63.914 0.395 7.99 7.64 11.39
5/11/2023 6:00:00 PM 17.81 64.058 0.397 7.99 4.81 11.18
5/11/2023 6:15:00 PM 17.87 64.166 0.398 7.99 5.71 10.98
5/11/2023 6:30:00 PM 17.92 64.256 0.397 7.97 5.46 10.73
5/11/2023 6:45:00 PM 17.96 64.328 0.391 7.96 5.01 10.5
5/11/2023 7:00:00 PM 17.99 64.382 0.389 7.94 5.12 10.26
5/11/2023 7:15:00 PM 18.01 64.418 0.394 7.92 5.45 9.99
5/11/2023 7:30:00 PM 18.02 64.436 0.393 7.9 5.15 9.75
5/11/2023 7:45:00 PM 18.02 64.436 0.392 7.88 4.65 9.5
5/11/2023 8:00:00 PM 18 64.4 0.395 7.85 6.96 9.27
5/11/2023 8:15:00 PM 17.97 64.346 0.398 7.82 6.09 9.01
5/11/2023 8:30:00 PM 17.93 64.274 0.398 7.79 5.75 8.83
5/11/2023 8:45:00 PM 17.88 64.184 0.399 7.77 6.3 8.66
5/11/2023 9:00:00 PM 17.81 64.058 0.4 7.74 5.74 8.52
5/11/2023 9:15:00 PM 17.74 63.932 0.4 7.71 6.78 8.37
5/11/2023 9:30:00 PM 17.65 63.77 0.402 7.68 7.59 8.22
5/11/2023 9:45:00 PM 17.57 63.626 0.403 7.66 8.5 8.12
5/11/2023 10:00:00 PM 17.48 63.464 0.408 7.63 6.53 8.02
5/11/2023 10:15:00 PM 17.37 63.266 0.407 7.62 7.61 7.86
5/11/2023 10:30:00 PM 17.27 63.086 0.41 7.59 7.02 7.84
5/11/2023 10:45:00 PM 17.16 62.888 0.412 7.57 7.49 7.79
5/11/2023 11:00:00 PM 17.06 62.708 0.413 7.56 7.49 7.74
5/11/2023 11:15:00 PM 16.95 62.51 0.414 7.55 7.98 7.7
5/11/2023 11:30:00 PM 16.84 62.312 0.415 7.52 8.57 7.65
5/11/2023 11:45:00 PM 16.72 62.096 0.414 7.51 7.16 7.61
5/12/2023 12:00:00 AM 16.6 61.88 0.416 7.5 7.57 7.6
5/12/2023 12:15:00 AM 16.47 61.646 0.418 7.49 7.06 7.54
5/12/2023 12:30:00 AM 16.34 61.412 0.418 7.48 12.36 7.52
5/12/2023 12:45:00 AM 16.2 61.16 0.419 7.47 7.27 7.52
5/12/2023 1:00:00 AM 16.06 60.908 0.42 7.46 7.63 7.52
5/12/2023 1:15:00 AM 15.91 60.638 0.421 7.46 8.68 7.52
5/12/2023 1:30:00 AM 15.76 60.368 0.423 7.45 7.89 7.53
5/12/2023 1:45:00 AM 15.61 60.098 0.424 7.44 7.27 7.55
5/12/2023 2:00:00 AM 15.45 59.81 0.425 7.44 7.67 7.58
5/12/2023 2:15:00 AM 15.29 59.522 0.425 7.43 11.12 7.61
5/12/2023 2:30:00 AM 15.13 59.234 0.424 7.42 8.2 7.65
5/12/2023 2:45:00 AM 14.97 58.946 0.425 7.42 8.39 7.69
5/12/2023 3:00:00 AM 14.81 58.658 0.428 7.42 6.9 7.73
5/12/2023 3:15:00 AM 14.66 58.388 0.428 7.42 8.89 7.78
5/12/2023 3:30:00 AM 14.5 58.1 0.426 7.42 7.46 7.82
5/12/2023 3:45:00 AM 14.34 57.812 0.426 7.41 8.75 7.86
5/12/2023 4:00:00 AM 14.18 57.524 0.426 7.41 7.75 7.91
5/12/2023 4:15:00 AM 14.03 57.254 0.42 7.42 8.86 7.96
5/12/2023 4:30:00 AM 13.88 56.984 0.426 7.42 6.66 8.02
5/12/2023 4:45:00 AM 13.71 56.678 0.427 7.42 7.66 8.09
5/12/2023 5:00:00 AM 13.56 56.408 0.427 7.42 8.49 8.14
5/12/2023 5:15:00 AM 13.41 56.138 0.428 7.42 7.93 8.2
5/12/2023 5:30:00 AM 13.26 55.868 0.423 7.41 7.94 8.25
5/12/2023 5:45:00 AM 13.12 55.616 0.428 7.42 7.69 8.32
5/12/2023 6:00:00 AM 12.96 55.328 0.429 7.42 10.07 8.39
5/12/2023 6:15:00 AM 12.82 55.076 0.429 7.42 8.72 8.45
5/12/2023 6:30:00 AM 12.69 54.842 0.429 7.42 6.19 8.5
5/12/2023 6:45:00 AM 12.57 54.626 0.429 7.42 7.5 8.61
5/12/2023 7:00:00 AM 12.46 54.428 0.429 7.43 9.34 8.74
5/12/2023 7:15:00 AM 12.37 54.266 0.428 7.44 9.95 8.89
5/12/2023 7:30:00 AM 12.29 54.122 0.429 7.45 5.42 9.07
5/12/2023 7:45:00 AM 12.23 54.014 0.429 7.46 6.32 9.22
5/12/2023 8:00:00 AM 12.17 53.906 0.429 7.47 5.38 9.38
5/12/2023 8:15:00 AM 12.13 53.834 0.428 7.48 5.72 9.52
5/12/2023 8:30:00 AM 12.1 53.78 0.428 7.49 5.41 9.69
5/12/2023 8:45:00 AM 12.1 53.78 0.427 7.5 5.01 9.85